Darstellungsparameter: Aktuell verwendete Einstellungen:
Skalierung der Graphiken ... ?
xyx+y,   Skalierungsfaktor:      Skalierung: Modus: x, Faktor: 1
Darstellungszeitraum ... ?
Vom - - bis: - -   Zeitraum: 26.02.2009 - 25.05.2009
Min/Max/Avg-Anzeige ... ?
Zeige MMA aktuell
Zeige MMA Monat
Zeige MMA alles
Zeige --A aktuell
Zeige --A Monat
Zeige --A alles
Keine MMA-Anzeige
MMA:
Average (ber die Originaldaten)
MMA-Basis: 17.04.2019 - 19.05.2019
Quicknavigation für Darstellung... ?
Tage:      1T, 2T, 3T, 5T -1T -2T -3T -5T +1T +2T +3T +5T
Wochen: 1W, 2W, 3W -1W -2W -3W +1W +2W +3W
Monate: 1M, 3M, 6M -1M -3M -6M +1M +3M +6M
Jahre:    1J, 3J, 5J, 10J -1J -3J -5J -10J +1J +3J +5J +10J
Nutze für die Darstellung ... ?
Originaldaten oder Mittelwerte auf ...
Stundenbasis Tagesbasis Wochenbasis
Monatsbasis Jahresbasis      Datenbasis: Original-Daten
Darstellen als:
Statistik (Auto) Statistik J:M      Darstellung:
Zur Graphik,    zurück zur Übersicht aller Sensoren.
 
Tabellarische Datenbersicht: ?
 
Sensor: Nr:Datum:Temp:Abs-Feuchte:Windchill:Wind:
Aussen-T/F 1 26-02-2009 00:00:43 5.6 C 3.53 g/m*3 5.6 C 0 km/h
2 26-02-2009 00:12:43 5.5 C 3.58 g/m*3 5.5 C 0 km/h
3 26-02-2009 00:24:43 5.6 C 3.61 g/m*3 5.6 C 0 km/h
4 26-02-2009 00:36:43 5.6 C 3.68 g/m*3 5.6 C 0 km/h
5 26-02-2009 00:48:43 5.6 C 3.68 g/m*3 5.6 C 0 km/h
6 26-02-2009 01:00:43 5.6 C 3.68 g/m*3 5.6 C 0 km/h
7 26-02-2009 01:12:43 5.4 C 3.7 g/m*3 5.4 C 0 km/h
8 26-02-2009 01:24:43 5.3 C 3.67 g/m*3 5.3 C 0 km/h
9 26-02-2009 01:36:43 5.3 C 3.67 g/m*3 5.3 C 0 km/h
10 26-02-2009 01:48:44 5.2 C 3.72 g/m*3 5.2 C 0 km/h
11 26-02-2009 02:00:44 5.2 C 3.79 g/m*3 5.2 C 0 km/h
12 26-02-2009 02:12:44 5.2 C 3.79 g/m*3 5.2 C 0 km/h
13 26-02-2009 02:24:44 5.2 C 3.86 g/m*3 5.2 C 0 km/h
14 26-02-2009 02:36:44 5.2 C 3.86 g/m*3 5.2 C 0 km/h
15 26-02-2009 02:48:44 5.1 C 3.83 g/m*3 5.1 C 0 km/h
16 26-02-2009 03:00:44 5.1 C 3.9 g/m*3 5.1 C 0 km/h
17 26-02-2009 03:12:44 5 C 3.87 g/m*3 5 C 0 km/h
18 26-02-2009 03:24:44 5 C 3.94 g/m*3 5 C 0 km/h
19 26-02-2009 03:36:44 5.1 C 3.97 g/m*3 5.1 C 0 km/h
20 26-02-2009 03:48:44 5 C 3.94 g/m*3 5 C 0 km/h
21 26-02-2009 04:00:44 5 C 3.94 g/m*3 5 C 0 km/h
22 26-02-2009 04:12:44 5 C 3.94 g/m*3 5 C 0 km/h
23 26-02-2009 04:24:44 5.2 C 4.13 g/m*3 5.2 C 0 km/h
24 26-02-2009 04:36:44 5.3 C 4.3 g/m*3 5.3 C 0 km/h
25 26-02-2009 04:48:44 5.4 C 4.33 g/m*3 5.4 C 0 km/h
Sensor: Nr:Datum:Temp:Abs-Feuchte:Windchill:Wind:
Aussen-T/F 26 26-02-2009 05:00:44 5.5 C 4.35 g/m*3 5.5 C 0 km/h
27 26-02-2009 05:12:44 5.5 C 4.35 g/m*3 5.5 C 0 km/h
28 26-02-2009 05:24:44 5.4 C 4.33 g/m*3 5.4 C 0 km/h
29 26-02-2009 05:36:44 5.4 C 4.33 g/m*3 5.4 C 0 km/h
30 26-02-2009 05:48:45 5.4 C 4.33 g/m*3 5.4 C 0 km/h
31 26-02-2009 06:00:45 5.4 C 4.33 g/m*3 5.4 C 0 km/h
32 26-02-2009 06:12:45 5.4 C 4.33 g/m*3 5.4 C 0 km/h
33 26-02-2009 06:24:45 5.3 C 4.3 g/m*3 5.3 C 0 km/h
34 26-02-2009 06:36:45 5.2 C 4.34 g/m*3 5.2 C 0 km/h
35 26-02-2009 06:48:45 5.2 C 4.41 g/m*3 5.2 C 0 km/h
36 26-02-2009 07:00:42 5.2 C 4.41 g/m*3 5.2 C 0 km/h
37 26-02-2009 07:12:42 5.2 C 4.48 g/m*3 5.2 C 0 km/h
38 26-02-2009 07:24:42 5.2 C 4.48 g/m*3 5.2 C 0 km/h
39 26-02-2009 07:36:42 5.3 C 4.51 g/m*3 5.3 C 0 km/h
40 26-02-2009 07:48:41 5.3 C 4.51 g/m*3 5.3 C 0 km/h
41 26-02-2009 08:00:42 5.3 C 4.57 g/m*3 5.3 C 0 km/h
42 26-02-2009 08:12:42 5.3 C 4.57 g/m*3 5.3 C 0 km/h
43 26-02-2009 08:24:41 5.3 C 4.64 g/m*3 5.3 C 0 km/h
44 26-02-2009 08:36:41 5.4 C 4.67 g/m*3 5.4 C 0 km/h
45 26-02-2009 08:48:41 5.4 C 4.67 g/m*3 5.4 C 0 km/h
46 26-02-2009 09:00:41 5.5 C 4.71 g/m*3 5.5 C 0 km/h
47 26-02-2009 09:12:41 5.6 C 4.81 g/m*3 5.6 C 0 km/h
48 26-02-2009 09:24:41 5.6 C 4.88 g/m*3 5.6 C 0 km/h
49 26-02-2009 09:36:41 5.5 C 5.06 g/m*3 5.5 C 0 km/h
50 26-02-2009 09:48:41 5.4 C 5.16 g/m*3 5.4 C 0 km/h
Sensor: Nr:Datum:Temp:Abs-Feuchte:Windchill:Wind:
Aussen-T/F 51 26-02-2009 10:00:40 5.3 C 5.27 g/m*3 5.3 C 0 km/h
52 26-02-2009 10:12:40 5.4 C 5.37 g/m*3 5.4 C 0 km/h
53 26-02-2009 10:24:40 5.4 C 5.3 g/m*3 5.4 C 0 km/h
54 26-02-2009 10:36:40 5.5 C 5.34 g/m*3 5.5 C 0 km/h
55 26-02-2009 10:48:40 5.6 C 5.3 g/m*3 5.6 C 0 km/h
56 26-02-2009 11:00:39 5.7 C 5.34 g/m*3 5.7 C 0 km/h
57 26-02-2009 11:12:39 5.9 C 5.34 g/m*3 5.9 C 0 km/h
58 26-02-2009 11:24:40 6.3 C 5.33 g/m*3 6.3 C 0 km/h
59 26-02-2009 11:36:40 6.8 C 5.2 g/m*3 6.8 C 0 km/h
60 26-02-2009 11:48:39 7.1 C 5.07 g/m*3 7.1 C 0 km/h
61 26-02-2009 12:00:40 7.3 C 5.06 g/m*3 7.3 C 0 km/h
62 26-02-2009 12:12:40 7.8 C 5.06 g/m*3 7.8 C 0 km/h
63 26-02-2009 12:24:39 7.8 C 4.9 g/m*3 7.8 C 0 km/h
64 26-02-2009 12:36:39 8 C 4.8 g/m*3 8 C 0 km/h
65 26-02-2009 12:48:39 8 C 4.8 g/m*3 8 C 0 km/h
66 26-02-2009 13:00:39 7.9 C 4.85 g/m*3 7.9 C 0 km/h
67 26-02-2009 13:12:40 7.9 C 4.93 g/m*3 7.9 C 0 km/h
68 26-02-2009 13:24:38 8 C 4.88 g/m*3 8 C 0 km/h
69 26-02-2009 13:36:38 8.2 C 4.86 g/m*3 8.2 C 0 km/h
70 26-02-2009 13:48:38 8.3 C 4.89 g/m*3 8.3 C 0 km/h
71 26-02-2009 14:00:38 8.6 C 4.9 g/m*3 8.6 C 0 km/h
72 26-02-2009 14:12:38 8.9 C 4.73 g/m*3 8.9 C 0 km/h
73 26-02-2009 14:24:38 8.8 C 4.53 g/m*3 8.8 C 0 km/h
74 26-02-2009 14:36:38 9.2 C 3.93 g/m*3 9.2 C 0 km/h
75 26-02-2009 14:48:38 9.6 C 3.66 g/m*3 9.6 C 0 km/h
Sensor: Nr:Datum:Temp:Abs-Feuchte:Windchill:Wind:
Aussen-T/F 76 26-02-2009 15:00:37 9.5 C 3.64 g/m*3 9.5 C 0 km/h
77 26-02-2009 15:12:37 9.5 C 3.64 g/m*3 9.5 C 0 km/h
78 26-02-2009 15:24:38 9.6 C 3.57 g/m*3 9.6 C 0 km/h
79 26-02-2009 15:36:37 9.4 C 3.44 g/m*3 9.4 C 0 km/h
80 26-02-2009 15:48:37 9.4 C 3.62 g/m*3 9.4 C 0 km/h
81 26-02-2009 16:00:37 9.3 C 3.5 g/m*3 9.3 C 0 km/h
82 26-02-2009 16:12:37 9.4 C 3.71 g/m*3 9.4 C 0 km/h
83 26-02-2009 16:24:37 9.2 C 3.66 g/m*3 9.2 C 0 km/h
84 26-02-2009 16:36:37 9 C 3.61 g/m*3 9 C 0 km/h
85 26-02-2009 16:48:37 9 C 3.61 g/m*3 9 C 0 km/h
86 26-02-2009 17:00:37 8.8 C 3.57 g/m*3 8.8 C 0 km/h
87 26-02-2009 17:12:37 8.6 C 3.61 g/m*3 8.6 C 0 km/h
88 26-02-2009 17:24:36 8.6 C 3.69 g/m*3 8.6 C 0 km/h
89 26-02-2009 17:36:36 8.3 C 3.71 g/m*3 8.3 C 0 km/h
90 26-02-2009 17:48:36 8.2 C 3.77 g/m*3 8.2 C 0 km/h
91 26-02-2009 18:00:36 8.1 C 3.74 g/m*3 8.1 C 0 km/h
92 26-02-2009 18:12:36 8 C 3.8 g/m*3 8 C 0 km/h
93 26-02-2009 18:24:35 7.9 C 3.78 g/m*3 7.9 C 0 km/h
94 26-02-2009 18:36:02 7.8 C 3.84 g/m*3 7.8 C 0 km/h
95 26-02-2009 18:48:01 7.8 C 3.84 g/m*3 7.8 C 0 km/h
96 26-02-2009 19:00:01 7.7 C 3.89 g/m*3 7.7 C 0 km/h
97 26-02-2009 19:12:01 7.6 C 3.87 g/m*3 7.6 C 0 km/h
98 26-02-2009 19:24:01 7.6 C 3.95 g/m*3 7.6 C 0 km/h
99 26-02-2009 19:36:01 7.5 C 4.08 g/m*3 7.5 C 0 km/h
100 26-02-2009 19:48:00 7.5 C 4.24 g/m*3 7.5 C 0 km/h
Sensor: Nr:Datum:Temp:Abs-Feuchte:Windchill:Wind:
Aussen-T/F 101 26-02-2009 20:00:00 7.4 C 4.29 g/m*3 7.4 C 0 km/h
102 26-02-2009 20:12:01 7.4 C 4.37 g/m*3 7.4 C 0 km/h
103 26-02-2009 20:24:00 7.5 C 4.24 g/m*3 7.5 C 0 km/h
104 26-02-2009 20:36:00 7.5 C 4.24 g/m*3 7.5 C 0 km/h
105 26-02-2009 20:48:00 7.4 C 4.29 g/m*3 7.4 C 0 km/h
106 26-02-2009 21:00:00 7.3 C 4.35 g/m*3 7.3 C 0 km/h
107 26-02-2009 21:12:00 7.2 C 4.32 g/m*3 7.2 C 0 km/h
108 26-02-2009 21:24:00 7.2 C 4.32 g/m*3 7.2 C 0 km/h
109 26-02-2009 21:36:00 7.2 C 4.32 g/m*3 7.2 C 0 km/h
110 26-02-2009 22:00:00 7.2 C 4.24 g/m*3 7.2 C 0 km/h
111 26-02-2009 22:00:00 7.2 C 4.32 g/m*3 7.2 C 0 km/h
112 26-02-2009 22:00:00 7.2 C 4.24 g/m*3 7.2 C 0 km/h
113 26-02-2009 22:00:00 7.2 C 4.32 g/m*3 7.2 C 0 km/h
114 26-02-2009 22:12:00 7.2 C 4.32 g/m*3 7.2 C 0 km/h
115 26-02-2009 22:25:00 7.2 C 4.32 g/m*3 7.2 C 0 km/h
116 26-02-2009 22:37:00 7.1 C 4.21 g/m*3 7.1 C 0 km/h
117 26-02-2009 22:49:00 7.1 C 4.21 g/m*3 7.1 C 0 km/h
118 26-02-2009 23:01:00 7.2 C 4.24 g/m*3 7.2 C 0 km/h
119 26-02-2009 23:13:00 7.2 C 4.16 g/m*3 7.2 C 0 km/h
120 26-02-2009 23:25:00 7.2 C 4.24 g/m*3 7.2 C 0 km/h
121 26-02-2009 23:37:01 7.1 C 4.21 g/m*3 7.1 C 0 km/h
122 26-02-2009 23:49:01 7.3 C 4.11 g/m*3 7.3 C 0 km/h
123 27-02-2009 00:01:01 7.2 C 4.08 g/m*3 7.2 C 0 km/h
124 27-02-2009 00:13:01 7.2 C 4.16 g/m*3 7.2 C 0 km/h
125 27-02-2009 00:25:01 7.2 C 4.08 g/m*3 7.2 C 0 km/h
Sensor: Nr:Datum:Temp:Abs-Feuchte:Windchill:Wind:
Aussen-T/F 126 27-02-2009 00:37:01 7.2 C 4.16 g/m*3 7.2 C 0 km/h
127 27-02-2009 00:49:01 7.2 C 4.16 g/m*3 7.2 C 0 km/h
128 27-02-2009 01:01:01 7.2 C 4.24 g/m*3 7.2 C 0 km/h
129 27-02-2009 01:13:01 7.2 C 4.24 g/m*3 7.2 C 0 km/h
130 27-02-2009 01:25:01 7.3 C 4.27 g/m*3 7.3 C 0 km/h
131 27-02-2009 01:37:01 7.2 C 4.32 g/m*3 7.2 C 0 km/h
132 27-02-2009 01:49:01 7.2 C 4.32 g/m*3 7.2 C 0 km/h
133 27-02-2009 02:01:01 7.2 C 4.32 g/m*3 7.2 C 0 km/h
134 27-02-2009 02:13:01 7.1 C 4.52 g/m*3 7.1 C 0 km/h
135 27-02-2009 02:25:01 7 C 4.57 g/m*3 7 C 0 km/h
136 27-02-2009 02:37:01 7 C 4.65 g/m*3 7 C 0 km/h
137 27-02-2009 02:49:01 7 C 4.65 g/m*3 7 C 0 km/h
138 27-02-2009 03:01:01 7 C 4.65 g/m*3 7 C 0 km/h
139 27-02-2009 03:13:02 7 C 4.65 g/m*3 7 C 0 km/h
140 27-02-2009 03:25:02 6.9 C 4.85 g/m*3 6.9 C 0 km/h
141 27-02-2009 03:37:02 6.4 C 5.22 g/m*3 6.4 C 0 km/h
142 27-02-2009 03:49:02 6 C 5.37 g/m*3 6 C 0 km/h
143 27-02-2009 04:01:02 5.9 C 5.62 g/m*3 5.9 C 0 km/h
144 27-02-2009 04:13:02 6.1 C 5.63 g/m*3 6.1 C 0 km/h
145 27-02-2009 04:25:02 5.9 C 5.7 g/m*3 5.9 C 0 km/h
146 27-02-2009 04:37:02 5.9 C 5.77 g/m*3 5.9 C 0 km/h
147 27-02-2009 04:49:02 5.9 C 5.84 g/m*3 5.9 C 0 km/h
148 27-02-2009 05:01:02 5.7 C 5.84 g/m*3 5.7 C 0 km/h
149 27-02-2009 05:13:02 5.6 C 5.94 g/m*3 5.6 C 0 km/h
150 27-02-2009 05:25:02 5.6 C 6.01 g/m*3 5.6 C 0 km/h
Sensor: Nr:Datum:Temp:Abs-Feuchte:Windchill:Wind:
Aussen-T/F 151 27-02-2009 05:37:02 5.6 C 6.08 g/m*3 5.6 C 0 km/h
152 27-02-2009 05:49:02 5.6 C 6.08 g/m*3 5.6 C 0 km/h
153 27-02-2009 06:01:02 5.6 C 6.08 g/m*3 5.6 C 0 km/h
154 27-02-2009 06:13:02 5.6 C 6.01 g/m*3 5.6 C 0 km/h
155 27-02-2009 06:25:02 5.6 C 6.01 g/m*3 5.6 C 0 km/h
156 27-02-2009 06:37:02 5.6 C 5.94 g/m*3 5.6 C 0 km/h
157 27-02-2009 06:49:02 5.6 C 5.94 g/m*3 5.6 C 0 km/h
158 27-02-2009 07:01:00 5.6 C 5.87 g/m*3 5.6 C 0 km/h
159 27-02-2009 07:13:00 5.7 C 5.84 g/m*3 5.7 C 0 km/h
160 27-02-2009 07:25:00 5.9 C 5.77 g/m*3 5.9 C 0 km/h
161 27-02-2009 07:37:00 6.1 C 5.63 g/m*3 6.1 C 0 km/h
162 27-02-2009 07:49:00 6.1 C 5.48 g/m*3 6.1 C 0 km/h
163 27-02-2009 08:01:59 6.2 C 5.37 g/m*3 6.2 C 0 km/h
164 27-02-2009 08:13:59 6.4 C 5.29 g/m*3 6.4 C 0 km/h
165 27-02-2009 08:25:00 6.5 C 5.17 g/m*3 6.5 C 0 km/h
166 27-02-2009 08:37:00 6.6 C 5.13 g/m*3 6.6 C 0 km/h
167 27-02-2009 08:49:59 6.7 C 5.09 g/m*3 6.7 C 0 km/h
168 27-02-2009 09:00:59 6.8 C 5.05 g/m*3 6.8 C 0 km/h
169 27-02-2009 09:12:59 6.9 C 5.08 g/m*3 6.9 C 0 km/h
170 27-02-2009 09:25:59 7 C 4.96 g/m*3 7 C 0 km/h
171 27-02-2009 09:37:59 7.2 C 4.95 g/m*3 7.2 C 0 km/h
172 27-02-2009 09:49:58 7.7 C 4.95 g/m*3 7.7 C 0 km/h
173 27-02-2009 10:01:59 7.9 C 4.85 g/m*3 7.9 C 0 km/h
174 27-02-2009 10:13:59 8 C 4.71 g/m*3 8 C 0 km/h
175 27-02-2009 10:25:58 8.1 C 4.66 g/m*3 8.1 C 0 km/h
Sensor: Nr:Datum:Temp:Abs-Feuchte:Windchill:Wind:
Aussen-T/F 176 27-02-2009 10:37:58 8.6 C 4.81 g/m*3 8.6 C 0 km/h
177 27-02-2009 10:49:58 8.6 C 4.55 g/m*3 8.6 C 0 km/h
178 27-02-2009 11:01:58 8.7 C 4.58 g/m*3 8.7 C 0 km/h
179 27-02-2009 11:13:58 8.7 C 4.5 g/m*3 8.7 C 0 km/h
180 27-02-2009 11:25:57 8.7 C 4.67 g/m*3 8.7 C 0 km/h
181 27-02-2009 11:37:58 8.5 C 4.7 g/m*3 8.5 C 0 km/h
182 27-02-2009 11:49:58 8.3 C 4.97 g/m*3 8.3 C 0 km/h
183 27-02-2009 12:01:57 8 C 5.13 g/m*3 8 C 0 km/h
184 27-02-2009 12:13:57 7.7 C 5.43 g/m*3 7.7 C 0 km/h
185 27-02-2009 12:25:58 7.4 C 5.57 g/m*3 7.4 C 0 km/h
186 27-02-2009 12:37:57 7.2 C 5.73 g/m*3 7.2 C 0 km/h
187 27-02-2009 12:49:57 7 C 5.97 g/m*3 7 C 0 km/h
188 27-02-2009 13:01:56 6.8 C 6.12 g/m*3 6.8 C 0 km/h
189 27-02-2009 13:13:56 6.8 C 6.27 g/m*3 6.8 C 0 km/h
190 27-02-2009 13:25:57 7 C 6.35 g/m*3 7 C 0 km/h
191 27-02-2009 13:37:56 7.1 C 6.4 g/m*3 7.1 C 0 km/h
192 27-02-2009 13:49:56 7.1 C 6.24 g/m*3 7.1 C 0 km/h
193 27-02-2009 14:01:57 7.1 C 6.16 g/m*3 7.1 C 0 km/h
194 27-02-2009 14:13:57 7.3 C 6.16 g/m*3 7.3 C 0 km/h
195 27-02-2009 14:25:56 7.5 C 6.24 g/m*3 7.5 C 0 km/h
196 27-02-2009 14:37:56 7.5 C 6.24 g/m*3 7.5 C 0 km/h
197 27-02-2009 14:49:56 7.7 C 6.24 g/m*3 7.7 C 0 km/h
198 27-02-2009 15:01:56 7.5 C 5.92 g/m*3 7.5 C 0 km/h
199 27-02-2009 15:13:56 7.6 C 5.88 g/m*3 7.6 C 0 km/h
200 27-02-2009 15:25:56 7.5 C 5.76 g/m*3 7.5 C 0 km/h
Sensor: Nr:Datum:Temp:Abs-Feuchte:Windchill:Wind:
Aussen-T/F 201 27-02-2009 15:37:55 7.7 C 5.76 g/m*3 7.7 C 0 km/h
202 27-02-2009 15:49:56 7.9 C 5.75 g/m*3 7.9 C 0 km/h
203 27-02-2009 16:01:55 8 C 5.54 g/m*3 8 C 0 km/h
204 27-02-2009 16:13:55 8 C 5.46 g/m*3 8 C 0 km/h
205 27-02-2009 16:25:55 8 C 5.46 g/m*3 8 C 0 km/h
206 27-02-2009 16:37:55 8 C 5.29 g/m*3 8 C 0 km/h
207 27-02-2009 16:49:54 7.9 C 5.42 g/m*3 7.9 C 0 km/h
208 27-02-2009 17:01:54 7.9 C 5.42 g/m*3 7.9 C 0 km/h
209 27-02-2009 17:13:54 7.9 C 5.42 g/m*3 7.9 C 0 km/h
210 27-02-2009 17:25:55 7.8 C 5.55 g/m*3 7.8 C 0 km/h
211 27-02-2009 17:37:54 7.6 C 5.64 g/m*3 7.6 C 0 km/h
212 27-02-2009 17:49:54 7.5 C 5.68 g/m*3 7.5 C 0 km/h
213 27-02-2009 18:01:54 7.5 C 5.68 g/m*3 7.5 C 0 km/h
214 27-02-2009 18:13:54 7.6 C 5.72 g/m*3 7.6 C 0 km/h
215 27-02-2009 18:25:54 7.6 C 5.64 g/m*3 7.6 C 0 km/h
216 27-02-2009 18:37:53 7.6 C 5.64 g/m*3 7.6 C 0 km/h
217 27-02-2009 18:49:54 7.6 C 5.64 g/m*3 7.6 C 0 km/h
218 27-02-2009 19:01:53 7.6 C 5.56 g/m*3 7.6 C 0 km/h
219 27-02-2009 19:13:53 7.7 C 5.59 g/m*3 7.7 C 0 km/h
220 27-02-2009 19:25:53 7.8 C 5.63 g/m*3 7.8 C 0 km/h
221 27-02-2009 19:37:54 7.8 C 5.55 g/m*3 7.8 C 0 km/h
222 27-02-2009 19:49:53 7.9 C 5.59 g/m*3 7.9 C 0 km/h
223 27-02-2009 20:01:53 7.8 C 5.55 g/m*3 7.8 C 0 km/h
224 27-02-2009 20:13:53 7.8 C 5.55 g/m*3 7.8 C 0 km/h
225 27-02-2009 20:25:53 7.7 C 5.68 g/m*3 7.7 C 0 km/h
Sensor: Nr:Datum:Temp:Abs-Feuchte:Windchill:Wind:
Aussen-T/F 226 27-02-2009 20:37:53 7.7 C 5.68 g/m*3 7.7 C 0 km/h
227 27-02-2009 20:49:52 7.5 C 5.76 g/m*3 7.5 C 0 km/h
228 27-02-2009 21:01:53 7.2 C 5.89 g/m*3 7.2 C 0 km/h
229 27-02-2009 21:13:54 7 C 6.04 g/m*3 7 C 0 km/h
230 27-02-2009 21:25:52 7 C 6.2 g/m*3 7 C 0 km/h
231 27-02-2009 21:37:52 6.9 C 6.31 g/m*3 6.9 C 0 km/h
232 27-02-2009 21:49:52 6.8 C 6.42 g/m*3 6.8 C 0 km/h
233 27-02-2009 22:01:52 6.7 C 6.38 g/m*3 6.7 C 0 km/h
234 27-02-2009 22:13:52 6.7 C 6.46 g/m*3 6.7 C 0 km/h
235 27-02-2009 22:25:52 6.8 C 6.42 g/m*3 6.8 C 0 km/h
236 27-02-2009 22:37:51 6.9 C 6.47 g/m*3 6.9 C 0 km/h
237 27-02-2009 22:49:52 6.9 C 6.39 g/m*3 6.9 C 0 km/h
238 27-02-2009 23:01:51 6.9 C 6.31 g/m*3 6.9 C 0 km/h
239 27-02-2009 23:13:51 6.9 C 6.24 g/m*3 6.9 C 0 km/h
240 27-02-2009 23:25:51 6.9 C 6.31 g/m*3 6.9 C 0 km/h
241 27-02-2009 23:37:51 6.8 C 6.27 g/m*3 6.8 C 0 km/h
242 27-02-2009 23:50:52 6.9 C 6.31 g/m*3 6.9 C 0 km/h
243 28-02-2009 00:02:52 6.9 C 6.31 g/m*3 6.9 C 0 km/h
244 28-02-2009 00:14:52 6.9 C 6.24 g/m*3 6.9 C 0 km/h
245 28-02-2009 00:26:53 6.9 C 6.24 g/m*3 6.9 C 0 km/h
246 28-02-2009 00:38:53 6.9 C 6.16 g/m*3 6.9 C 0 km/h
247 28-02-2009 00:50:53 6.9 C 6.16 g/m*3 6.9 C 0 km/h
248 28-02-2009 01:02:53 6.9 C 6.08 g/m*3 6.9 C 0 km/h
249 28-02-2009 01:14:53 6.9 C 6.08 g/m*3 6.9 C 0 km/h
250 28-02-2009 01:26:53 6.9 C 6.08 g/m*3 6.9 C 0 km/h
Sensor: Nr:Datum:Temp:Abs-Feuchte:Windchill:Wind:
Aussen-T/F 251 28-02-2009 01:38:53 7 C 5.97 g/m*3 7 C 0 km/h
252 28-02-2009 01:50:53 7 C 5.97 g/m*3 7 C 0 km/h
253 28-02-2009 02:02:53 7.1 C 5.93 g/m*3 7.1 C 0 km/h
254 28-02-2009 02:14:53 7.1 C 5.93 g/m*3 7.1 C 0 km/h
255 28-02-2009 02:26:53 7.3 C 5.93 g/m*3 7.3 C 0 km/h
256 28-02-2009 02:38:53 7.4 C 5.88 g/m*3 7.4 C 0 km/h
257 28-02-2009 02:50:53 7.5 C 5.84 g/m*3 7.5 C 0 km/h
258 28-02-2009 03:02:53 7.5 C 5.84 g/m*3 7.5 C 0 km/h
259 28-02-2009 03:14:53 7.5 C 5.84 g/m*3 7.5 C 0 km/h
260 28-02-2009 03:26:53 7.5 C 5.84 g/m*3 7.5 C 0 km/h
261 28-02-2009 03:38:53 7.5 C 5.84 g/m*3 7.5 C 0 km/h
262 28-02-2009 03:50:53 7.5 C 5.84 g/m*3 7.5 C 0 km/h
263 28-02-2009 04:02:54 7.6 C 5.88 g/m*3 7.6 C 0 km/h
264 28-02-2009 04:14:54 7.6 C 5.88 g/m*3 7.6 C 0 km/h
265 28-02-2009 04:26:54 7.6 C 5.8 g/m*3 7.6 C 0 km/h
266 28-02-2009 04:38:54 7.6 C 5.8 g/m*3 7.6 C 0 km/h
267 28-02-2009 04:50:54 7.7 C 5.84 g/m*3 7.7 C 0 km/h
268 28-02-2009 05:02:54 7.7 C 5.84 g/m*3 7.7 C 0 km/h
269 28-02-2009 05:14:54 7.8 C 5.79 g/m*3 7.8 C 0 km/h
270 28-02-2009 05:26:54 7.8 C 5.79 g/m*3 7.8 C 0 km/h
271 28-02-2009 05:38:54 7.8 C 5.79 g/m*3 7.8 C 0 km/h
272 28-02-2009 05:50:54 7.7 C 5.76 g/m*3 7.7 C 0 km/h
273 28-02-2009 06:02:54 7.6 C 5.8 g/m*3 7.6 C 0 km/h
274 28-02-2009 06:14:54 7.6 C 5.8 g/m*3 7.6 C 0 km/h
275 28-02-2009 06:26:54 7.5 C 5.76 g/m*3 7.5 C 0 km/h
Sensor: Nr:Datum:Temp:Abs-Feuchte:Windchill:Wind:
Aussen-T/F 276 28-02-2009 06:38:54 7.5 C 5.84 g/m*3 7.5 C 0 km/h
277 28-02-2009 06:50:54 7.4 C 5.81 g/m*3 7.4 C 0 km/h
278 28-02-2009 07:02:54 7.4 C 5.81 g/m*3 7.4 C 0 km/h
279 28-02-2009 07:14:54 7.4 C 5.88 g/m*3 7.4 C 0 km/h
280 28-02-2009 07:26:54 7.3 C 5.85 g/m*3 7.3 C 0 km/h
281 28-02-2009 07:38:54 7.3 C 5.93 g/m*3 7.3 C 0 km/h
282 28-02-2009 07:50:55 7.4 C 5.96 g/m*3 7.4 C 0 km/h
283 28-02-2009 08:02:51 7.5 C 5.92 g/m*3 7.5 C 0 km/h
284 28-02-2009 08:14:51 7.6 C 5.96 g/m*3 7.6 C 0 km/h
285 28-02-2009 08:26:51 7.6 C 5.88 g/m*3 7.6 C 0 km/h
286 28-02-2009 08:38:51 7.9 C 6 g/m*3 7.9 C 0 km/h
287 28-02-2009 08:50:51 8 C 5.95 g/m*3 8 C 0 km/h
288 28-02-2009 09:02:51 8.1 C 5.91 g/m*3 8.1 C 0 km/h
289 28-02-2009 09:14:51 8.2 C 5.95 g/m*3 8.2 C 0 km/h
290 28-02-2009 09:26:51 9 C 5.91 g/m*3 9 C 0 km/h
291 28-02-2009 09:38:51 9.5 C 5.83 g/m*3 9.5 C 0 km/h
292 28-02-2009 09:50:51 9.3 C 5.75 g/m*3 9.3 C 0 km/h
293 28-02-2009 10:02:51 9.3 C 5.75 g/m*3 9.3 C 0 km/h
294 28-02-2009 10:14:50 9.7 C 5.81 g/m*3 9.7 C 0 km/h
295 28-02-2009 10:26:50 9.8 C 5.75 g/m*3 9.8 C 0 km/h
296 28-02-2009 10:38:50 9.7 C 5.81 g/m*3 9.7 C 0 km/h
297 28-02-2009 10:50:50 9.8 C 5.75 g/m*3 9.8 C 0 km/h
298 28-02-2009 11:02:50 9.9 C 5.79 g/m*3 9.9 C 0 km/h
299 28-02-2009 11:14:49 10.1 C 5.77 g/m*3 10.1 C 0 km/h
300 28-02-2009 11:26:49 10.8 C 5.83 g/m*3 10.8 C 0 km/h
Sensor: Nr:Datum:Temp:Abs-Feuchte:Windchill:Wind:
Aussen-T/F 301 28-02-2009 11:38:50 11.2 C 5.78 g/m*3 11.2 C 0 km/h
302 28-02-2009 11:50:49 10.7 C 5.8 g/m*3 10.7 C 0 km/h
303 28-02-2009 12:02:49 10.3 C 5.75 g/m*3 10.3 C 0 km/h
304 28-02-2009 12:14:50 10.3 C 5.84 g/m*3 10.3 C 0 km/h
305 28-02-2009 12:26:50 11 C 5.81 g/m*3 11 C 0 km/h
306 28-02-2009 12:38:49 11.4 C 5.75 g/m*3 11.4 C 0 km/h
307 28-02-2009 12:50:49 12 C 5.75 g/m*3 12 C 0 km/h
308 28-02-2009 13:02:49 12.2 C 5.61 g/m*3 12.2 C 0 km/h
309 28-02-2009 13:14:49 12.4 C 5.46 g/m*3 12.4 C 0 km/h
310 28-02-2009 13:26:49 12.7 C 5.57 g/m*3 12.7 C 0 km/h
311 28-02-2009 13:38:49 13.5 C 5.5 g/m*3 13.5 C 0 km/h
312 28-02-2009 13:50:49 13.9 C 5.39 g/m*3 13.9 C 0 km/h
313 28-02-2009 14:02:48 14.2 C 5.13 g/m*3 14.2 C 0 km/h
314 28-02-2009 14:14:48 14.3 C 5.16 g/m*3 14.3 C 0 km/h
315 28-02-2009 14:26:49 14 C 5.19 g/m*3 14 C 0 km/h
316 28-02-2009 14:38:47 14.2 C 5.01 g/m*3 14.2 C 0 km/h
317 28-02-2009 14:50:48 14.9 C 4.84 g/m*3 14.9 C 0 km/h
318 28-02-2009 15:02:47 15.3 C 4.7 g/m*3 15.3 C 0 km/h
319 28-02-2009 15:14:47 16.1 C 4.8 g/m*3 16.1 C 0 km/h
320 28-02-2009 15:26:47 16.8 C 4.86 g/m*3 16.8 C 0 km/h
321 28-02-2009 15:38:48 18 C 4.76 g/m*3 18 C 0 km/h
322 28-02-2009 15:50:47 18.1 C 4.79 g/m*3 18.1 C 0 km/h
323 28-02-2009 16:02:47 17.6 C 4.95 g/m*3 17.6 C 0 km/h
324 28-02-2009 16:14:47 16.8 C 5.15 g/m*3 16.8 C 0 km/h
325 28-02-2009 16:26:47 16.6 C 5.23 g/m*3 16.6 C 0 km/h
Sensor: Nr:Datum:Temp:Abs-Feuchte:Windchill:Wind:
Aussen-T/F 326 28-02-2009 16:38:47 16.1 C 5.21 g/m*3 16.1 C 0 km/h
327 28-02-2009 16:50:47 15.6 C 5.32 g/m*3 15.6 C 0 km/h
328 28-02-2009 17:02:48 15.2 C 5.32 g/m*3 15.2 C 0 km/h
329 28-02-2009 17:14:46 15 C 5.39 g/m*3 15 C 0 km/h
330 28-02-2009 17:26:46 14.7 C 5.79 g/m*3 14.7 C 0 km/h
331 28-02-2009 17:38:47 14.3 C 5.77 g/m*3 14.3 C 0 km/h
332 28-02-2009 17:50:46 13.8 C 5.84 g/m*3 13.8 C 0 km/h
333 28-02-2009 18:02:46 13.4 C 5.81 g/m*3 13.4 C 0 km/h
334 28-02-2009 18:14:46 12.9 C 5.86 g/m*3 12.9 C 0 km/h
335 28-02-2009 18:26:46 12.2 C 5.83 g/m*3 12.2 C 0 km/h
336 28-02-2009 18:38:46 12 C 5.86 g/m*3 12 C 0 km/h
337 28-02-2009 18:50:45 11.7 C 5.86 g/m*3 11.7 C 0 km/h
338 28-02-2009 19:02:45 11.6 C 5.82 g/m*3 11.6 C 0 km/h
339 28-02-2009 19:14:46 11.4 C 5.75 g/m*3 11.4 C 0 km/h
340 28-02-2009 19:26:46 11.2 C 5.78 g/m*3 11.2 C 0 km/h
341 28-02-2009 19:38:45 11.1 C 5.74 g/m*3 11.1 C 0 km/h
342 28-02-2009 19:50:44 11 C 5.71 g/m*3 11 C 0 km/h
343 28-02-2009 20:02:45 10.7 C 5.8 g/m*3 10.7 C 0 km/h
344 28-02-2009 20:14:45 10.2 C 5.71 g/m*3 10.2 C 0 km/h
345 28-02-2009 20:26:45 10 C 5.73 g/m*3 10 C 0 km/h
346 28-02-2009 20:38:44 9.7 C 5.81 g/m*3 9.7 C 0 km/h
347 28-02-2009 20:50:45 9.6 C 5.77 g/m*3 9.6 C 0 km/h
348 28-02-2009 21:02:44 9.5 C 5.83 g/m*3 9.5 C 0 km/h
349 28-02-2009 21:14:45 9.4 C 5.88 g/m*3 9.4 C 0 km/h
350 28-02-2009 21:26:45 9.2 C 5.8 g/m*3 9.2 C 0 km/h
Sensor: Nr:Datum:Temp:Abs-Feuchte:Windchill:Wind:
Aussen-T/F 351 28-02-2009 21:38:44 9.1 C 5.86 g/m*3 9.1 C 0 km/h
352 28-02-2009 21:50:44 8.8 C 5.83 g/m*3 8.8 C 0 km/h
353 28-02-2009 22:02:44 8.7 C 5.88 g/m*3 8.7 C 0 km/h
354 28-02-2009 22:14:44 8.7 C 5.97 g/m*3 8.7 C 0 km/h
355 28-02-2009 22:26:44 8.7 C 5.97 g/m*3 8.7 C 0 km/h
356 28-02-2009 22:38:43 8.4 C 5.85 g/m*3 8.4 C 0 km/h
357 28-02-2009 22:51:44 8.2 C 5.86 g/m*3 8.2 C 0 km/h
358 28-02-2009 23:03:44 7.9 C 5.91 g/m*3 7.9 C 0 km/h
359 28-02-2009 23:15:44 7.7 C 5.84 g/m*3 7.7 C 0 km/h
360 28-02-2009 23:27:44 7.5 C 5.84 g/m*3 7.5 C 0 km/h
361 28-02-2009 23:39:44 7.4 C 5.88 g/m*3 7.4 C 0 km/h
362 28-02-2009 23:51:45 7.2 C 5.81 g/m*3 7.2 C 0 km/h
363 01-03-2009 00:03:45 7.1 C 5.85 g/m*3 7.1 C 0 km/h
364 01-03-2009 00:15:45 7 C 5.81 g/m*3 7 C 0 km/h
365 01-03-2009 00:27:45 7.4 C 6.12 g/m*3 7.4 C 0 km/h
366 01-03-2009 00:39:45 7.7 C 6.16 g/m*3 7.7 C 0 km/h
367 01-03-2009 00:51:45 7.7 C 6.08 g/m*3 7.7 C 0 km/h
368 01-03-2009 01:03:45 7.5 C 5.92 g/m*3 7.5 C 0 km/h
369 01-03-2009 01:15:45 7.6 C 5.96 g/m*3 7.6 C 0 km/h
370 01-03-2009 01:27:45 7.7 C 6 g/m*3 7.7 C 0 km/h
371 01-03-2009 01:39:45 7.8 C 6.04 g/m*3 7.8 C 0 km/h
372 01-03-2009 01:51:45 7.9 C 6.08 g/m*3 7.9 C 0 km/h
373 01-03-2009 02:03:45 7.8 C 5.96 g/m*3 7.8 C 0 km/h
374 01-03-2009 02:15:45 7.8 C 5.96 g/m*3 7.8 C 0 km/h
375 01-03-2009 02:27:45 7.9 C 6 g/m*3 7.9 C 0 km/h
Sensor: Nr:Datum:Temp:Abs-Feuchte:Windchill:Wind:
Aussen-T/F 376 01-03-2009 02:39:45 7.7 C 5.92 g/m*3 7.7 C 0 km/h
377 01-03-2009 02:51:45 7.6 C 5.88 g/m*3 7.6 C 0 km/h
378 01-03-2009 03:03:45 7.5 C 5.84 g/m*3 7.5 C 0 km/h
379 01-03-2009 03:15:45 7.2 C 5.81 g/m*3 7.2 C 0 km/h
380 01-03-2009 03:27:45 6.8 C 5.74 g/m*3 6.8 C 0 km/h
381 01-03-2009 03:39:46 6.7 C 5.85 g/m*3 6.7 C 0 km/h
382 01-03-2009 03:51:46 6.5 C 5.85 g/m*3 6.5 C 0 km/h
383 01-03-2009 04:03:46 6.5 C 5.85 g/m*3 6.5 C 0 km/h
384 01-03-2009 04:15:46 6.3 C 5.77 g/m*3 6.3 C 0 km/h
385 01-03-2009 04:27:46 6.2 C 5.74 g/m*3 6.2 C 0 km/h
386 01-03-2009 04:39:46 6.2 C 5.81 g/m*3 6.2 C 0 km/h
387 01-03-2009 04:51:46 6 C 5.66 g/m*3 6 C 0 km/h
388 01-03-2009 05:03:46 6 C 5.73 g/m*3 6 C 0 km/h
389 01-03-2009 05:15:46 6.4 C 5.96 g/m*3 6.4 C 0 km/h
390 01-03-2009 05:27:46 6.4 C 5.96 g/m*3 6.4 C 0 km/h
391 01-03-2009 05:39:46 6.4 C 5.89 g/m*3 6.4 C 0 km/h
392 01-03-2009 05:51:46 6.3 C 5.77 g/m*3 6.3 C 0 km/h
393 01-03-2009 06:03:46 6.3 C 5.85 g/m*3 6.3 C 0 km/h
394 01-03-2009 06:15:46 6.5 C 5.92 g/m*3 6.5 C 0 km/h
395 01-03-2009 06:27:46 6.6 C 5.96 g/m*3 6.6 C 0 km/h
396 01-03-2009 06:39:46 6.7 C 6 g/m*3 6.7 C 0 km/h
397 01-03-2009 06:51:46 6.8 C 6.04 g/m*3 6.8 C 0 km/h
398 01-03-2009 07:03:46 6.8 C 6.04 g/m*3 6.8 C 0 km/h
399 01-03-2009 07:15:46 6.9 C 6 g/m*3 6.9 C 0 km/h
400 01-03-2009 07:27:47 6.8 C 5.97 g/m*3 6.8 C 0 km/h
Sensor: Nr:Datum:Temp:Abs-Feuchte:Windchill:Wind:
Aussen-T/F 401 01-03-2009 07:39:47 6.9 C 6 g/m*3 6.9 C 0 km/h
402 01-03-2009 07:51:47 7 C 5.97 g/m*3 7 C 0 km/h
403 01-03-2009 08:03:47 7.2 C 6.04 g/m*3 7.2 C 0 km/h
404 01-03-2009 08:15:47 7.4 C 6.04 g/m*3 7.4 C 0 km/h
405 01-03-2009 08:27:47 7.6 C 6.04 g/m*3 7.6 C 0 km/h
406 01-03-2009 08:39:47 7.8 C 6.12 g/m*3 7.8 C 0 km/h
407 01-03-2009 08:51:47 7.9 C 6 g/m*3 7.9 C 0 km/h
408 01-03-2009 09:03:43 8 C 5.87 g/m*3 8 C 0 km/h
409 01-03-2009 09:15:44 8.1 C 5.74 g/m*3 8.1 C 0 km/h
410 01-03-2009 09:27:44 8.4 C 5.85 g/m*3 8.4 C 0 km/h
411 01-03-2009 09:39:44 8.6 C 5.76 g/m*3 8.6 C 0 km/h
412 01-03-2009 09:51:43 8.7 C 5.62 g/m*3 8.7 C 0 km/h
413 01-03-2009 10:03:43 9.1 C 5.68 g/m*3 9.1 C 0 km/h
414 01-03-2009 10:15:43 9.3 C 5.66 g/m*3 9.3 C 0 km/h
415 01-03-2009 10:27:43 9.6 C 5.59 g/m*3 9.6 C 0 km/h
416 01-03-2009 10:39:43 10 C 5.45 g/m*3 10 C 0 km/h
417 01-03-2009 10:51:43 10.1 C 5.48 g/m*3 10.1 C 0 km/h
418 01-03-2009 11:03:43 10.7 C 5.4 g/m*3 10.7 C 0 km/h
419 01-03-2009 11:15:42 10.5 C 5.43 g/m*3 10.5 C 0 km/h
420 01-03-2009 11:27:42 10.6 C 5.37 g/m*3 10.6 C 0 km/h
421 01-03-2009 11:39:42 10.9 C 5.37 g/m*3 10.9 C 0 km/h
422 01-03-2009 11:51:42 11.5 C 5.47 g/m*3 11.5 C 0 km/h
423 01-03-2009 12:03:42 11.7 C 5.33 g/m*3 11.7 C 0 km/h
424 01-03-2009 12:15:42 11.8 C 5.26 g/m*3 11.8 C 0 km/h
425 01-03-2009 12:27:42 11.6 C 5.2 g/m*3 11.6 C 0 km/h
Sensor: Nr:Datum:Temp:Abs-Feuchte:Windchill:Wind:
Aussen-T/F 426 01-03-2009 12:39:42 12.1 C 5.15 g/m*3 12.1 C 0 km/h
427 01-03-2009 12:51:42 12.8 C 5.15 g/m*3 12.8 C 0 km/h
428 01-03-2009 13:03:41 13.3 C 5.08 g/m*3 13.3 C 0 km/h
429 01-03-2009 13:15:42 13.5 C 5.03 g/m*3 13.5 C 0 km/h
430 01-03-2009 13:27:42 13.8 C 5.12 g/m*3 13.8 C 0 km/h
431 01-03-2009 13:39:41 13.3 C 4.97 g/m*3 13.3 C 0 km/h
432 01-03-2009 13:51:41 13.6 C 5.06 g/m*3 13.6 C 0 km/h
433 01-03-2009 14:03:41 13.9 C 5.15 g/m*3 13.9 C 0 km/h
434 01-03-2009 14:15:41 13.9 C 5.04 g/m*3 13.9 C 0 km/h
435 01-03-2009 14:27:41 13.9 C 5.04 g/m*3 13.9 C 0 km/h
436 01-03-2009 14:39:41 13.9 C 5.04 g/m*3 13.9 C 0 km/h
437 01-03-2009 14:51:41 14.2 C 5.01 g/m*3 14.2 C 0 km/h
438 01-03-2009 15:03:41 14.5 C 5.1 g/m*3 14.5 C 0 km/h
439 01-03-2009 15:15:40 14.4 C 5.07 g/m*3 14.4 C 0 km/h
440 01-03-2009 15:27:40 15.1 C 5.03 g/m*3 15.1 C 0 km/h
441 01-03-2009 15:39:40 15.2 C 5.06 g/m*3 15.2 C 0 km/h
442 01-03-2009 15:51:40 14.8 C 5.07 g/m*3 14.8 C 0 km/h
443 01-03-2009 16:03:40 14.5 C 4.97 g/m*3 14.5 C 0 km/h
444 01-03-2009 16:15:39 14.1 C 4.85 g/m*3 14.1 C 0 km/h
445 01-03-2009 16:27:39 13.7 C 4.86 g/m*3 13.7 C 0 km/h
446 01-03-2009 16:39:40 13.5 C 4.91 g/m*3 13.5 C 0 km/h
447 01-03-2009 16:51:39 13.3 C 4.97 g/m*3 13.3 C 0 km/h
448 01-03-2009 17:03:39 13.2 C 5.05 g/m*3 13.2 C 0 km/h
449 01-03-2009 17:15:40 13 C 4.99 g/m*3 13 C 0 km/h
450 01-03-2009 17:27:40 12.8 C 5.15 g/m*3 12.8 C 0 km/h
Sensor: Nr:Datum:Temp:Abs-Feuchte:Windchill:Wind:
Aussen-T/F 451 01-03-2009 17:39:39 12.5 C 5.06 g/m*3 12.5 C 0 km/h
452 01-03-2009 17:51:39 12.4 C 5.24 g/m*3 12.4 C 0 km/h
453 01-03-2009 18:03:38 11.8 C 5.58 g/m*3 11.8 C 0 km/h
454 01-03-2009 18:15:39 11.4 C 5.65 g/m*3 11.4 C 0 km/h
455 01-03-2009 18:27:39 11.2 C 5.68 g/m*3 11.2 C 0 km/h
456 01-03-2009 18:39:38 11.1 C 5.54 g/m*3 11.1 C 0 km/h
457 01-03-2009 18:51:38 10.9 C 5.67 g/m*3 10.9 C 0 km/h
458 01-03-2009 19:03:38 10.9 C 5.77 g/m*3 10.9 C 0 km/h
459 01-03-2009 19:15:38 11 C 5.61 g/m*3 11 C 0 km/h
460 01-03-2009 19:27:38 11 C 5.61 g/m*3 11 C 0 km/h
461 01-03-2009 19:39:38 11.2 C 5.57 g/m*3 11.2 C 0 km/h
462 01-03-2009 19:51:38 11.5 C 5.37 g/m*3 11.5 C 0 km/h
463 01-03-2009 20:03:38 11.9 C 5.3 g/m*3 11.9 C 0 km/h
464 01-03-2009 20:15:37 12 C 5.12 g/m*3 12 C 0 km/h
465 01-03-2009 20:27:37 12 C 5.12 g/m*3 12 C 0 km/h
466 01-03-2009 20:39:37 11.8 C 5.16 g/m*3 11.8 C 0 km/h
467 01-03-2009 20:51:37 11.8 C 5.16 g/m*3 11.8 C 0 km/h
468 01-03-2009 21:03:37 11.7 C 5.12 g/m*3 11.7 C 0 km/h
469 01-03-2009 21:15:37 11.8 C 5.16 g/m*3 11.8 C 0 km/h
470 01-03-2009 21:27:37 11.6 C 5.2 g/m*3 11.6 C 0 km/h
471 01-03-2009 21:39:37 11.4 C 5.23 g/m*3 11.4 C 0 km/h
472 01-03-2009 21:51:36 11.4 C 5.23 g/m*3 11.4 C 0 km/h
473 01-03-2009 22:03:36 11.1 C 5.54 g/m*3 11.1 C 0 km/h
474 01-03-2009 22:15:37 10.5 C 6.01 g/m*3 10.5 C 0 km/h
475 01-03-2009 22:27:37 10.1 C 6.34 g/m*3 10.1 C 0 km/h
Sensor: Nr:Datum:Temp:Abs-Feuchte:Windchill:Wind:
Aussen-T/F 476 01-03-2009 22:40:37 9.8 C 6.49 g/m*3 9.8 C 0 km/h
477 01-03-2009 22:52:37 9.7 C 6.45 g/m*3 9.7 C 0 km/h
478 01-03-2009 23:04:37 9.5 C 6.55 g/m*3 9.5 C 0 km/h
479 01-03-2009 23:16:37 9.5 C 6.64 g/m*3 9.5 C 0 km/h
480 01-03-2009 23:28:37 9.6 C 6.5 g/m*3 9.6 C 0 km/h
481 01-03-2009 23:40:37 9.8 C 6.31 g/m*3 9.8 C 0 km/h
482 01-03-2009 23:52:37 9.8 C 6.31 g/m*3 9.8 C 0 km/h
483 02-03-2009 00:04:37 9.8 C 6.22 g/m*3 9.8 C 0 km/h
484 02-03-2009 00:16:38 9.8 C 6.31 g/m*3 9.8 C 0 km/h
485 02-03-2009 00:28:38 9.5 C 6.46 g/m*3 9.5 C 0 km/h
486 02-03-2009 00:40:38 9.2 C 6.52 g/m*3 9.2 C 0 km/h
487 02-03-2009 00:52:38 9.1 C 6.57 g/m*3 9.1 C 0 km/h
488 02-03-2009 01:04:38 9.1 C 6.57 g/m*3 9.1 C 0 km/h
489 02-03-2009 01:16:38 9.1 C 6.57 g/m*3 9.1 C 0 km/h
490 02-03-2009 01:28:38 9.1 C 6.57 g/m*3 9.1 C 0 km/h
491 02-03-2009 01:40:38 9.1 C 6.48 g/m*3 9.1 C 0 km/h
492 02-03-2009 01:52:38 9 C 6.61 g/m*3 9 C 0 km/h
493 02-03-2009 02:04:38 8.9 C 6.66 g/m*3 8.9 C 0 km/h
494 02-03-2009 02:16:38 8.8 C 6.7 g/m*3 8.8 C 0 km/h
495 02-03-2009 02:28:38 8.7 C 6.75 g/m*3 8.7 C 0 km/h
496 02-03-2009 02:40:38 8.6 C 6.7 g/m*3 8.6 C 0 km/h
497 02-03-2009 02:52:38 8.6 C 6.79 g/m*3 8.6 C 0 km/h
498 02-03-2009 03:04:38 8.7 C 6.92 g/m*3 8.7 C 0 km/h
499 02-03-2009 03:16:38 8.5 C 7 g/m*3 8.5 C 0 km/h
500 02-03-2009 03:28:38 8.5 C 7 g/m*3 8.5 C 0 km/h
Sensor: Nr:Datum:Temp:Abs-Feuchte:Windchill:Wind:
Aussen-T/F 501 02-03-2009 03:40:38 8.5 C 7.09 g/m*3 8.5 C 0 km/h
502 02-03-2009 03:52:38 8.4 C 7.04 g/m*3 8.4 C 0 km/h
503 02-03-2009 04:04:39 8.4 C 7.13 g/m*3 8.4 C 0 km/h
504 02-03-2009 04:16:39 8.4 C 7.21 g/m*3 8.4 C 0 km/h
505 02-03-2009 04:28:39 8.3 C 7.25 g/m*3 8.3 C 0 km/h
506 02-03-2009 04:40:39 8.3 C 7.25 g/m*3 8.3 C 0 km/h
507 02-03-2009 04:52:39 8.3 C 7.33 g/m*3 8.3 C 0 km/h
508 02-03-2009 05:04:39 8.2 C 7.29 g/m*3 8.2 C 0 km/h
509 02-03-2009 05:16:39 8.2 C 7.29 g/m*3 8.2 C 0 km/h
510 02-03-2009 05:28:39 8.2 C 7.29 g/m*3 8.2 C 0 km/h
511 02-03-2009 05:40:39 8.1 C 7.24 g/m*3 8.1 C 0 km/h
512 02-03-2009 05:52:39 8.1 C 7.16 g/m*3 8.1 C 0 km/h
513 02-03-2009 06:04:39 8.2 C 7.2 g/m*3 8.2 C 0 km/h
514 02-03-2009 06:16:39 8.2 C 7.12 g/m*3 8.2 C 0 km/h
515 02-03-2009 06:28:39 8.2 C 7.12 g/m*3 8.2 C 0 km/h
516 02-03-2009 06:40:39 8.1 C 7.07 g/m*3 8.1 C 0 km/h
517 02-03-2009 06:52:39 8.2 C 7.12 g/m*3 8.2 C 0 km/h
518 02-03-2009 07:04:37 8.2 C 7.2 g/m*3 8.2 C 0 km/h
519 02-03-2009 07:16:37 8.4 C 7.21 g/m*3 8.4 C 0 km/h
520 02-03-2009 07:28:37 8.4 C 7.13 g/m*3 8.4 C 0 km/h
521 02-03-2009 07:40:37 8.4 C 7.04 g/m*3 8.4 C 0 km/h
522 02-03-2009 07:52:38 8.3 C 6.91 g/m*3 8.3 C 0 km/h
523 02-03-2009 08:04:37 8.3 C 7 g/m*3 8.3 C 0 km/h
524 02-03-2009 08:16:36 8.3 C 7 g/m*3 8.3 C 0 km/h
525 02-03-2009 08:28:37 8.2 C 7.03 g/m*3 8.2 C 0 km/h
Sensor: Nr:Datum:Temp:Abs-Feuchte:Windchill:Wind:
Aussen-T/F 526 02-03-2009 08:40:36 8.2 C 7.03 g/m*3 8.2 C 0 km/h
527 02-03-2009 08:52:36 8.1 C 6.99 g/m*3 8.1 C 0 km/h
528 02-03-2009 09:04:36 8.1 C 7.07 g/m*3 8.1 C 0 km/h
529 02-03-2009 09:16:35 8.1 C 7.07 g/m*3 8.1 C 0 km/h
530 02-03-2009 09:28:35 8.1 C 7.07 g/m*3 8.1 C 0 km/h
531 02-03-2009 09:40:36 8.1 C 7.16 g/m*3 8.1 C 0 km/h
532 02-03-2009 09:52:35 8.1 C 7.16 g/m*3 8.1 C 0 km/h
533 02-03-2009 10:04:35 8.1 C 7.24 g/m*3 8.1 C 0 km/h
534 02-03-2009 10:16:36 8.2 C 7.29 g/m*3 8.2 C 0 km/h
535 02-03-2009 10:28:36 8 C 7.19 g/m*3 8 C 0 km/h
536 02-03-2009 10:40:35 8.1 C 7.07 g/m*3 8.1 C 0 km/h
537 02-03-2009 10:52:35 8.2 C 7.03 g/m*3 8.2 C 0 km/h
538 02-03-2009 11:04:35 8.2 C 6.95 g/m*3 8.2 C 0 km/h
539 02-03-2009 11:16:35 8.1 C 6.82 g/m*3 8.1 C 0 km/h
540 02-03-2009 11:28:35 8 C 6.7 g/m*3 8 C 0 km/h
541 02-03-2009 11:40:34 8 C 6.7 g/m*3 8 C 0 km/h
542 02-03-2009 11:52:35 8.2 C 6.87 g/m*3 8.2 C 0 km/h
543 02-03-2009 12:04:34 8.6 C 6.96 g/m*3 8.6 C 0 km/h
544 02-03-2009 12:16:34 8.8 C 6.7 g/m*3 8.8 C 0 km/h
545 02-03-2009 12:28:34 8.9 C 6.31 g/m*3 8.9 C 0 km/h
546 02-03-2009 12:40:34 8.7 C 6.05 g/m*3 8.7 C 0 km/h
547 02-03-2009 12:52:34 9.5 C 6.1 g/m*3 9.5 C 0 km/h
548 02-03-2009 13:04:34 9.2 C 5.45 g/m*3 9.2 C 0 km/h
549 02-03-2009 13:16:33 9 C 5.2 g/m*3 9 C 0 km/h
550 02-03-2009 13:28:33 9.3 C 5.3 g/m*3 9.3 C 0 km/h
Sensor: Nr:Datum:Temp:Abs-Feuchte:Windchill:Wind:
Aussen-T/F 551 02-03-2009 13:40:34 9.8 C 5.38 g/m*3 9.8 C 0 km/h
552 02-03-2009 13:52:33 10.6 C 5.08 g/m*3 10.6 C 0 km/h
553 02-03-2009 14:04:33 10.1 C 4.54 g/m*3 10.1 C 0 km/h
554 02-03-2009 14:16:33 10.2 C 4.57 g/m*3 10.2 C 0 km/h
555 02-03-2009 14:28:33 10.7 C 4.62 g/m*3 10.7 C 0 km/h
556 02-03-2009 14:40:33 10.4 C 4.43 g/m*3 10.4 C 0 km/h
557 02-03-2009 14:52:32 10.4 C 4.53 g/m*3 10.4 C 0 km/h
558 02-03-2009 15:04:33 10.3 C 4.31 g/m*3 10.3 C 0 km/h
559 02-03-2009 15:16:33 10.3 C 4.31 g/m*3 10.3 C 0 km/h
560 02-03-2009 15:28:33 10.2 C 4.28 g/m*3 10.2 C 0 km/h
561 02-03-2009 15:40:32 10.8 C 4.45 g/m*3 10.8 C 0 km/h
562 02-03-2009 15:52:32 10.7 C 4.42 g/m*3 10.7 C 0 km/h
563 02-03-2009 16:04:32 10.5 C 4.27 g/m*3 10.5 C 0 km/h
564 02-03-2009 16:16:32 10.3 C 4.31 g/m*3 10.3 C 0 km/h
565 02-03-2009 16:28:33 10 C 4.32 g/m*3 10 C 0 km/h
566 02-03-2009 16:40:31 10 C 4.32 g/m*3 10 C 0 km/h
567 02-03-2009 16:52:32 9.8 C 4.36 g/m*3 9.8 C 0 km/h
568 02-03-2009 17:04:31 9.7 C 4.61 g/m*3 9.7 C 0 km/h
569 02-03-2009 17:16:31 9.5 C 4.55 g/m*3 9.5 C 0 km/h
570 02-03-2009 17:28:31 9.2 C 4.46 g/m*3 9.2 C 0 km/h
571 02-03-2009 17:40:32 8.9 C 4.56 g/m*3 8.9 C 0 km/h
572 02-03-2009 17:52:31 8.5 C 4.53 g/m*3 8.5 C 0 km/h
573 02-03-2009 18:04:31 8.3 C 4.55 g/m*3 8.3 C 0 km/h
574 02-03-2009 18:16:31 8.1 C 4.66 g/m*3 8.1 C 0 km/h
575 02-03-2009 18:28:31 7.8 C 4.65 g/m*3 7.8 C 0 km/h
Sensor: Nr:Datum:Temp:Abs-Feuchte:Windchill:Wind:
Aussen-T/F 576 02-03-2009 18:40:30 7.8 C 4.65 g/m*3 7.8 C 0 km/h
577 02-03-2009 18:52:31 7.5 C 4.64 g/m*3 7.5 C 0 km/h
578 02-03-2009 19:04:30 7.6 C 4.59 g/m*3 7.6 C 0 km/h
579 02-03-2009 19:16:30 7.5 C 4.48 g/m*3 7.5 C 0 km/h
580 02-03-2009 19:28:30 7.3 C 4.5 g/m*3 7.3 C 0 km/h
581 02-03-2009 19:40:30 7.1 C 4.52 g/m*3 7.1 C 0 km/h
582 02-03-2009 19:52:30 6.8 C 4.51 g/m*3 6.8 C 0 km/h
583 02-03-2009 20:04:29 6.4 C 4.47 g/m*3 6.4 C 0 km/h
584 02-03-2009 20:16:30 6 C 4.43 g/m*3 6 C 0 km/h
585 02-03-2009 20:28:30 5.8 C 4.51 g/m*3 5.8 C 0 km/h
586 02-03-2009 20:40:30 5.4 C 4.4 g/m*3 5.4 C 0 km/h
587 02-03-2009 20:52:29 5.1 C 4.45 g/m*3 5.1 C 0 km/h
588 02-03-2009 21:04:29 4.8 C 4.49 g/m*3 4.8 C 0 km/h
589 02-03-2009 21:16:29 4.6 C 4.5 g/m*3 4.6 C 0 km/h
590 02-03-2009 21:28:29 4.4 C 4.51 g/m*3 4.4 C 0 km/h
591 02-03-2009 21:40:29 4.1 C 4.48 g/m*3 4.1 C 0 km/h
592 02-03-2009 21:52:29 3.9 C 4.55 g/m*3 3.9 C 0 km/h
593 02-03-2009 22:04:29 3.7 C 4.55 g/m*3 3.7 C 0 km/h
594 02-03-2009 22:16:28 3.7 C 4.55 g/m*3 3.7 C 0 km/h
595 02-03-2009 22:28:28 3.5 C 4.55 g/m*3 3.5 C 0 km/h
596 02-03-2009 22:40:29 3.4 C 4.52 g/m*3 3.4 C 0 km/h
597 02-03-2009 22:53:29 3 C 4.52 g/m*3 3 C 0 km/h
598 02-03-2009 23:05:29 2.8 C 4.58 g/m*3 2.8 C 0 km/h
599 02-03-2009 23:17:29 2.7 C 4.54 g/m*3 2.7 C 0 km/h
600 02-03-2009 23:29:29 2.9 C 4.72 g/m*3 2.9 C 0 km/h
Sensor: Nr:Datum:Temp:Abs-Feuchte:Windchill:Wind:
Aussen-T/F 601 02-03-2009 23:41:29 3.1 C 4.73 g/m*3 3.1 C 0 km/h
602 02-03-2009 23:53:29 2.8 C 4.63 g/m*3 2.8 C 0 km/h
603 03-03-2009 00:05:29 2.6 C 4.57 g/m*3 2.6 C 0 km/h
604 03-03-2009 00:17:30 2.9 C 4.67 g/m*3 2.9 C 0 km/h
605 03-03-2009 00:29:30 3.1 C 4.61 g/m*3 3.1 C 0 km/h
606 03-03-2009 00:41:30 3 C 4.52 g/m*3 3 C 0 km/h
607 03-03-2009 00:53:30 2.9 C 4.55 g/m*3 2.9 C 0 km/h
608 03-03-2009 01:05:30 3 C 4.52 g/m*3 3 C 0 km/h
609 03-03-2009 01:17:30 3 C 4.46 g/m*3 3 C 0 km/h
610 03-03-2009 01:29:30 3.1 C 4.43 g/m*3 3.1 C 0 km/h
611 03-03-2009 01:41:30 3 C 4.4 g/m*3 3 C 0 km/h
612 03-03-2009 01:53:30 2.8 C 4.4 g/m*3 2.8 C 0 km/h
613 03-03-2009 02:05:30 2.6 C 4.34 g/m*3 2.6 C 0 km/h
614 03-03-2009 02:17:30 2.4 C 4.28 g/m*3 2.4 C 0 km/h
615 03-03-2009 02:29:30 2.3 C 4.31 g/m*3 2.3 C 0 km/h
616 03-03-2009 02:41:30 2.2 C 4.28 g/m*3 2.2 C 0 km/h
617 03-03-2009 02:53:30 2.1 C 4.36 g/m*3 2.1 C 0 km/h
618 03-03-2009 03:05:30 1.9 C 4.42 g/m*3 1.9 C 0 km/h
619 03-03-2009 03:17:30 1.6 C 4.27 g/m*3 1.6 C 0 km/h
620 03-03-2009 03:29:30 1.5 C 4.3 g/m*3 1.5 C 0 km/h
621 03-03-2009 03:41:30 1.5 C 4.35 g/m*3 1.5 C 0 km/h
622 03-03-2009 03:53:30 1.2 C 4.31 g/m*3 1.2 C 0 km/h
623 03-03-2009 04:05:31 1.2 C 4.31 g/m*3 1.2 C 0 km/h
624 03-03-2009 04:17:31 1.5 C 4.46 g/m*3 1.5 C 0 km/h
625 03-03-2009 04:29:31 1.4 C 4.43 g/m*3 1.4 C 0 km/h
Sensor: Nr:Datum:Temp:Abs-Feuchte:Windchill:Wind:
Aussen-T/F 626 03-03-2009 04:41:31 1.3 C 4.4 g/m*3 1.3 C 0 km/h
627 03-03-2009 04:53:31 1 C 4.26 g/m*3 1 C 0 km/h
628 03-03-2009 05:05:31 0.7 C 4.22 g/m*3 0.7 C 0 km/h
629 03-03-2009 05:17:31 0.5 C 4.16 g/m*3 0.5 C 0 km/h
630 03-03-2009 05:29:31 0.3 C 4.11 g/m*3 0.3 C 0 km/h
631 03-03-2009 05:41:31 0.3 C 4.11 g/m*3 0.3 C 0 km/h
632 03-03-2009 05:53:31 0.1 C 4.1 g/m*3 0.1 C 0 km/h
633 03-03-2009 06:05:31 0 C 4.07 g/m*3 0 C 0 km/h
634 03-03-2009 06:17:31 -0.1 C 4.04 g/m*3 -0.1 C 0 km/h
635 03-03-2009 06:29:31 0 C 4.07 g/m*3 0 C 0 km/h
636 03-03-2009 06:41:31 -0.1 C 4.04 g/m*3 -0.1 C 0 km/h
637 03-03-2009 06:53:31 -0.2 C 4.01 g/m*3 -0.2 C 0 km/h
638 03-03-2009 07:05:29 -0.3 C 3.99 g/m*3 -0.3 C 0 km/h
639 03-03-2009 07:17:28 -0.4 C 3.96 g/m*3 -0.4 C 0 km/h
640 03-03-2009 07:29:28 -0.4 C 3.96 g/m*3 -0.4 C 0 km/h
641 03-03-2009 07:41:29 -0.4 C 4.01 g/m*3 -0.4 C 0 km/h
642 03-03-2009 07:53:28 -0.4 C 4.01 g/m*3 -0.4 C 0 km/h
643 03-03-2009 08:05:28 -0.3 C 4.03 g/m*3 -0.3 C 0 km/h
644 03-03-2009 08:17:28 -0.2 C 4.11 g/m*3 -0.2 C 0 km/h
645 03-03-2009 08:29:28 -0.1 C 4.14 g/m*3 -0.1 C 0 km/h
646 03-03-2009 08:41:28 0.1 C 4.24 g/m*3 0.1 C 0 km/h
647 03-03-2009 08:53:27 0.4 C 4.33 g/m*3 0.4 C 0 km/h
648 03-03-2009 09:05:28 0.9 C 4.48 g/m*3 0.9 C 0 km/h
649 03-03-2009 09:17:27 1.2 C 4.47 g/m*3 1.2 C 0 km/h
650 03-03-2009 09:29:27 1.2 C 4.42 g/m*3 1.2 C 0 km/h
Sensor: Nr:Datum:Temp:Abs-Feuchte:Windchill:Wind:
Aussen-T/F 651 03-03-2009 09:41:28 1.3 C 4.4 g/m*3 1.3 C 0 km/h
652 03-03-2009 09:53:27 1.7 C 4.52 g/m*3 1.7 C 0 km/h
653 03-03-2009 10:05:27 2.1 C 4.59 g/m*3 2.1 C 0 km/h
654 03-03-2009 10:17:27 2.6 C 4.69 g/m*3 2.6 C 0 km/h
655 03-03-2009 10:29:27 3.1 C 4.79 g/m*3 3.1 C 0 km/h
656 03-03-2009 10:41:27 3.7 C 4.8 g/m*3 3.7 C 0 km/h
657 03-03-2009 10:53:27 4.3 C 4.8 g/m*3 4.3 C 0 km/h
658 03-03-2009 11:05:26 5 C 4.62 g/m*3 5 C 0 km/h
659 03-03-2009 11:17:27 5.3 C 4.71 g/m*3 5.3 C 0 km/h
660 03-03-2009 11:29:27 6.4 C 4.4 g/m*3 6.4 C 0 km/h
661 03-03-2009 11:41:26 6.7 C 4.41 g/m*3 6.7 C 0 km/h
662 03-03-2009 11:53:26 7.2 C 4.32 g/m*3 7.2 C 0 km/h
663 03-03-2009 12:05:26 7.6 C 4.27 g/m*3 7.6 C 0 km/h
664 03-03-2009 12:17:27 8 C 4.13 g/m*3 8 C 0 km/h
665 03-03-2009 12:29:27 8.2 C 3.85 g/m*3 8.2 C 0 km/h
666 03-03-2009 12:41:26 8.7 C 3.89 g/m*3 8.7 C 0 km/h
667 03-03-2009 12:53:26 9 C 3.61 g/m*3 9 C 0 km/h
668 03-03-2009 13:05:26 9.3 C 3.5 g/m*3 9.3 C 0 km/h
669 03-03-2009 13:17:25 9.6 C 3.21 g/m*3 9.6 C 0 km/h
670 03-03-2009 13:29:25 9.8 C 3.06 g/m*3 9.8 C 0 km/h
671 03-03-2009 13:41:25 10.5 C 3.01 g/m*3 10.5 C 0 km/h
672 03-03-2009 13:53:25 10.8 C 2.97 g/m*3 10.8 C 0 km/h
673 03-03-2009 14:05:25 11.1 C 2.82 g/m*3 11.1 C 0 km/h
674 03-03-2009 14:17:24 11 C 2.7 g/m*3 11 C 0 km/h
675 03-03-2009 14:29:24 10.7 C 2.55 g/m*3 10.7 C 0 km/h
Sensor: Nr:Datum:Temp:Abs-Feuchte:Windchill:Wind:
Aussen-T/F 676 03-03-2009 14:41:25 11 C 2.5 g/m*3 11 C 0 km/h
677 03-03-2009 14:53:24 11.8 C 2.53 g/m*3 11.8 C 0 km/h
678 03-03-2009 15:05:24 11.3 C 2.24 g/m*3 11.3 C 0 km/h
679 03-03-2009 15:17:24 11 C 2.6 g/m*3 11 C 0 km/h
680 03-03-2009 15:29:24 11.5 C 2.79 g/m*3 11.5 C 0 km/h
681 03-03-2009 15:41:24 11.6 C 2.6 g/m*3 11.6 C 0 km/h
682 03-03-2009 15:53:24 11.2 C 2.33 g/m*3 11.2 C 0 km/h
683 03-03-2009 16:05:23 10.6 C 2.44 g/m*3 10.6 C 0 km/h
684 03-03-2009 16:17:24 10.4 C 2.51 g/m*3 10.4 C 0 km/h
685 03-03-2009 16:29:24 10.5 C 2.52 g/m*3 10.5 C 0 km/h
686 03-03-2009 16:41:23 10.6 C 2.54 g/m*3 10.6 C 0 km/h
687 03-03-2009 16:53:23 10.1 C 2.36 g/m*3 10.1 C 0 km/h
688 03-03-2009 17:05:24 9.9 C 2.61 g/m*3 9.9 C 0 km/h
689 03-03-2009 17:17:23 10.2 C 2.66 g/m*3 10.2 C 0 km/h
690 03-03-2009 17:29:23 10.5 C 2.62 g/m*3 10.5 C 0 km/h
691 03-03-2009 17:41:23 10.2 C 2.47 g/m*3 10.2 C 0 km/h
692 03-03-2009 17:53:23 9.7 C 2.58 g/m*3 9.7 C 0 km/h
693 03-03-2009 18:05:23 9.1 C 2.75 g/m*3 9.1 C 0 km/h
694 03-03-2009 18:17:22 8.2 C 2.93 g/m*3 8.2 C 0 km/h
695 03-03-2009 18:29:22 7.5 C 3.04 g/m*3 7.5 C 0 km/h
696 03-03-2009 18:41:23 6.9 C 3.16 g/m*3 6.9 C 0 km/h
697 03-03-2009 18:53:22 6.6 C 3.25 g/m*3 6.6 C 0 km/h
698 03-03-2009 19:05:22 6.4 C 3.2 g/m*3 6.4 C 0 km/h
699 03-03-2009 19:17:22 6.5 C 3.37 g/m*3 6.5 C 0 km/h
700 03-03-2009 19:29:22 6.8 C 3.21 g/m*3 6.8 C 0 km/h
Sensor: Nr:Datum:Temp:Abs-Feuchte:Windchill:Wind:
Aussen-T/F 701 03-03-2009 19:41:22 6.7 C 3.27 g/m*3 6.7 C 0 km/h
702 03-03-2009 19:53:22 6.5 C 3.3 g/m*3 6.5 C 0 km/h
703 03-03-2009 20:05:21 6.4 C 3.28 g/m*3 6.4 C 0 km/h
704 03-03-2009 20:17:22 6.4 C 3.2 g/m*3 6.4 C 0 km/h
705 03-03-2009 20:29:22 6.3 C 3.11 g/m*3 6.3 C 0 km/h
706 03-03-2009 20:41:21 6.1 C 3.14 g/m*3 6.1 C 0 km/h
707 03-03-2009 20:53:21 6.2 C 3.09 g/m*3 6.2 C 0 km/h
708 03-03-2009 21:05:21 6.4 C 3.05 g/m*3 6.4 C 0 km/h
709 03-03-2009 21:17:21 6 C 2.9 g/m*3 6 C 0 km/h
710 03-03-2009 21:29:21 5.9 C 2.96 g/m*3 5.9 C 0 km/h
711 03-03-2009 21:41:20 5.8 C 2.94 g/m*3 5.8 C 0 km/h
712 03-03-2009 21:53:21 5.8 C 2.87 g/m*3 5.8 C 0 km/h
713 03-03-2009 22:05:20 5.7 C 3.13 g/m*3 5.7 C 0 km/h
714 03-03-2009 22:17:20 5.8 C 3.01 g/m*3 5.8 C 0 km/h
715 03-03-2009 22:29:20 6 C 2.98 g/m*3 6 C 0 km/h
716 03-03-2009 22:41:20 5.9 C 3.03 g/m*3 5.9 C 0 km/h
717 03-03-2009 22:54:21 6 C 2.98 g/m*3 6 C 0 km/h
718 03-03-2009 23:06:22 6.2 C 2.94 g/m*3 6.2 C 0 km/h
719 03-03-2009 23:18:22 6.4 C 3.05 g/m*3 6.4 C 0 km/h
720 03-03-2009 23:30:22 6.2 C 3.09 g/m*3 6.2 C 0 km/h
721 03-03-2009 23:42:22 6.4 C 3.13 g/m*3 6.4 C 0 km/h
722 03-03-2009 23:54:22 5.9 C 3.24 g/m*3 5.9 C 0 km/h
723 04-03-2009 00:06:22 5.5 C 3.23 g/m*3 5.5 C 0 km/h
724 04-03-2009 00:18:22 5 C 3.26 g/m*3 5 C 0 km/h
725 04-03-2009 00:30:22 4.5 C 3.48 g/m*3 4.5 C 0 km/h
Sensor: Nr:Datum:Temp:Abs-Feuchte:Windchill:Wind:
Aussen-T/F 726 04-03-2009 00:42:22 4.4 C 3.53 g/m*3 4.4 C 0 km/h
727 04-03-2009 00:54:22 4.2 C 3.61 g/m*3 4.2 C 0 km/h
728 04-03-2009 01:06:22 4.3 C 3.63 g/m*3 4.3 C 0 km/h
729 04-03-2009 01:18:22 4.1 C 3.71 g/m*3 4.1 C 0 km/h
730 04-03-2009 01:30:22 3.9 C 3.79 g/m*3 3.9 C 0 km/h
731 04-03-2009 01:42:22 3.7 C 3.8 g/m*3 3.7 C 0 km/h
732 04-03-2009 01:54:22 3.6 C 3.78 g/m*3 3.6 C 0 km/h
733 04-03-2009 02:06:22 3.4 C 3.79 g/m*3 3.4 C 0 km/h
734 04-03-2009 02:18:22 3.3 C 3.88 g/m*3 3.3 C 0 km/h
735 04-03-2009 02:30:22 3.2 C 3.86 g/m*3 3.2 C 0 km/h
736 04-03-2009 02:42:22 3.2 C 3.92 g/m*3 3.2 C 0 km/h
737 04-03-2009 02:54:22 3.1 C 3.95 g/m*3 3.1 C 0 km/h
738 04-03-2009 03:06:23 2.9 C 3.9 g/m*3 2.9 C 0 km/h
739 04-03-2009 03:18:23 2.7 C 3.9 g/m*3 2.7 C 0 km/h
740 04-03-2009 03:30:23 2.7 C 3.96 g/m*3 2.7 C 0 km/h
741 04-03-2009 03:42:23 2.8 C 4.05 g/m*3 2.8 C 0 km/h
742 04-03-2009 03:54:23 2.8 C 4.05 g/m*3 2.8 C 0 km/h
743 04-03-2009 04:06:23 2.8 C 4.11 g/m*3 2.8 C 0 km/h
744 04-03-2009 04:18:23 2.6 C 4.05 g/m*3 2.6 C 0 km/h
745 04-03-2009 04:30:23 2.5 C 4.02 g/m*3 2.5 C 0 km/h
746 04-03-2009 04:42:23 2.5 C 4.08 g/m*3 2.5 C 0 km/h
747 04-03-2009 04:54:23 2.4 C 4.05 g/m*3 2.4 C 0 km/h
748 04-03-2009 05:06:23 2.5 C 4.14 g/m*3 2.5 C 0 km/h
749 04-03-2009 05:18:23 2.7 C 4.14 g/m*3 2.7 C 0 km/h
750 04-03-2009 05:30:23 3 C 4.1 g/m*3 3 C 0 km/h
Sensor: Nr:Datum:Temp:Abs-Feuchte:Windchill:Wind:
Aussen-T/F 751 04-03-2009 05:42:23 3.1 C 4.07 g/m*3 3.1 C 0 km/h
752 04-03-2009 05:54:23 3.2 C 4.04 g/m*3 3.2 C 0 km/h
753 04-03-2009 06:06:23 3.4 C 4.03 g/m*3 3.4 C 0 km/h
754 04-03-2009 06:18:23 3.5 C 4.06 g/m*3 3.5 C 0 km/h
755 04-03-2009 06:30:23 3.5 C 4 g/m*3 3.5 C 0 km/h
756 04-03-2009 06:42:23 3.4 C 4.03 g/m*3 3.4 C 0 km/h
757 04-03-2009 06:54:23 3.5 C 4 g/m*3 3.5 C 0 km/h
758 04-03-2009 07:06:20 3.6 C 4.02 g/m*3 3.6 C 0 km/h
759 04-03-2009 07:18:21 3.7 C 4.05 g/m*3 3.7 C 0 km/h
760 04-03-2009 07:30:21 3.8 C 4.02 g/m*3 3.8 C 0 km/h
761 04-03-2009 07:42:21 3.7 C 4.05 g/m*3 3.7 C 0 km/h
762 04-03-2009 07:54:20 3.8 C 4.08 g/m*3 3.8 C 0 km/h
763 04-03-2009 08:06:21 3.9 C 4.04 g/m*3 3.9 C 0 km/h
764 04-03-2009 08:18:20 4 C 4.07 g/m*3 4 C 0 km/h
765 04-03-2009 08:30:20 4.1 C 4.03 g/m*3 4.1 C 0 km/h
766 04-03-2009 08:42:20 4.2 C 4.06 g/m*3 4.2 C 0 km/h
767 04-03-2009 08:54:19 4.2 C 4.06 g/m*3 4.2 C 0 km/h
768 04-03-2009 09:06:20 4.2 C 4.06 g/m*3 4.2 C 0 km/h
769 04-03-2009 09:18:19 4 C 3.94 g/m*3 4 C 0 km/h
770 04-03-2009 09:30:20 4.1 C 3.97 g/m*3 4.1 C 0 km/h
771 04-03-2009 09:42:21 4.3 C 3.96 g/m*3 4.3 C 0 km/h
772 04-03-2009 09:54:19 4.9 C 3.98 g/m*3 4.9 C 0 km/h
773 04-03-2009 10:06:19 5.4 C 3.91 g/m*3 5.4 C 0 km/h
774 04-03-2009 10:18:18 5.9 C 3.89 g/m*3 5.9 C 0 km/h
775 04-03-2009 10:30:19 6.1 C 3.87 g/m*3 6.1 C 0 km/h
Sensor: Nr:Datum:Temp:Abs-Feuchte:Windchill:Wind:
Aussen-T/F 776 04-03-2009 10:42:19 6.8 C 3.82 g/m*3 6.8 C 0 km/h
777 04-03-2009 10:54:18 7.5 C 3.76 g/m*3 7.5 C 0 km/h
778 04-03-2009 11:06:18 8 C 3.64 g/m*3 8 C 0 km/h
779 04-03-2009 11:18:19 8.3 C 3.62 g/m*3 8.3 C 0 km/h
780 04-03-2009 11:30:18 8.6 C 3.61 g/m*3 8.6 C 0 km/h
781 04-03-2009 11:42:18 8.8 C 3.66 g/m*3 8.8 C 0 km/h
782 04-03-2009 11:54:18 9.1 C 3.73 g/m*3 9.1 C 0 km/h
783 04-03-2009 12:06:18 9.4 C 3.71 g/m*3 9.4 C 0 km/h
784 04-03-2009 12:18:18 9.9 C 3.73 g/m*3 9.9 C 0 km/h
785 04-03-2009 12:30:18 10.3 C 3.54 g/m*3 10.3 C 0 km/h
786 04-03-2009 12:42:18 10.7 C 3.63 g/m*3 10.7 C 0 km/h
787 04-03-2009 12:54:18 11.1 C 3.63 g/m*3 11.1 C 0 km/h
788 04-03-2009 13:06:18 11.8 C 3.37 g/m*3 11.8 C 0 km/h
789 04-03-2009 13:18:17 12.2 C 3.02 g/m*3 12.2 C 0 km/h
790 04-03-2009 13:30:17 12.2 C 3.24 g/m*3 12.2 C 0 km/h
791 04-03-2009 13:42:17 11.5 C 3.41 g/m*3 11.5 C 0 km/h
792 04-03-2009 13:54:17 11.7 C 3.45 g/m*3 11.7 C 0 km/h
793 04-03-2009 14:06:17 12 C 3.41 g/m*3 12 C 0 km/h
794 04-03-2009 14:18:16 12.4 C 3.39 g/m*3 12.4 C 0 km/h
795 04-03-2009 14:30:17 12.3 C 3.26 g/m*3 12.3 C 0 km/h
796 04-03-2009 14:42:17 12.7 C 3.34 g/m*3 12.7 C 0 km/h
797 04-03-2009 14:54:16 12.9 C 3.38 g/m*3 12.9 C 0 km/h
798 04-03-2009 15:06:16 13 C 3.18 g/m*3 13 C 0 km/h
799 04-03-2009 15:18:17 13.3 C 3.23 g/m*3 13.3 C 0 km/h
800 04-03-2009 15:30:16 12.9 C 3.16 g/m*3 12.9 C 0 km/h
Sensor: Nr:Datum:Temp:Abs-Feuchte:Windchill:Wind:
Aussen-T/F 801 04-03-2009 15:42:16 12.3 C 3.26 g/m*3 12.3 C 0 km/h
802 04-03-2009 15:54:16 11.9 C 3.39 g/m*3 11.9 C 0 km/h
803 04-03-2009 16:06:16 11.9 C 3.39 g/m*3 11.9 C 0 km/h
804 04-03-2009 16:18:16 12.7 C 3.23 g/m*3 12.7 C 0 km/h
805 04-03-2009 16:30:15 12.3 C 3.37 g/m*3 12.3 C 0 km/h
806 04-03-2009 16:42:15 12.2 C 3.24 g/m*3 12.2 C 0 km/h
807 04-03-2009 16:54:15 11.9 C 3.39 g/m*3 11.9 C 0 km/h
808 04-03-2009 17:06:15 11.7 C 3.24 g/m*3 11.7 C 0 km/h
809 04-03-2009 17:18:15 11.6 C 3.22 g/m*3 11.6 C 0 km/h
810 04-03-2009 17:30:15 11.4 C 3.18 g/m*3 11.4 C 0 km/h
811 04-03-2009 17:42:15 11.3 C 3.16 g/m*3 11.3 C 0 km/h
812 04-03-2009 17:54:15 11.1 C 3.12 g/m*3 11.1 C 0 km/h
813 04-03-2009 18:06:15 11 C 3.2 g/m*3 11 C 0 km/h
814 04-03-2009 18:18:14 10.8 C 3.26 g/m*3 10.8 C 0 km/h
815 04-03-2009 18:30:14 10.3 C 3.35 g/m*3 10.3 C 0 km/h
816 04-03-2009 18:42:15 9.7 C 3.6 g/m*3 9.7 C 0 km/h
817 04-03-2009 18:54:14 9 C 3.7 g/m*3 9 C 0 km/h
818 04-03-2009 19:06:14 8.9 C 3.77 g/m*3 8.9 C 0 km/h
819 04-03-2009 19:18:13 8.7 C 3.89 g/m*3 8.7 C 0 km/h
820 04-03-2009 19:30:14 8.8 C 3.74 g/m*3 8.8 C 0 km/h
821 04-03-2009 19:42:14 8.6 C 3.87 g/m*3 8.6 C 0 km/h
822 04-03-2009 19:54:13 8.9 C 3.85 g/m*3 8.9 C 0 km/h
823 04-03-2009 20:06:13 8.9 C 3.94 g/m*3 8.9 C 0 km/h
824 04-03-2009 20:18:14 9 C 3.97 g/m*3 9 C 0 km/h
825 04-03-2009 20:30:13 9 C 4.06 g/m*3 9 C 0 km/h
Sensor: Nr:Datum:Temp:Abs-Feuchte:Windchill:Wind:
Aussen-T/F 826 04-03-2009 20:42:13 8.9 C 4.2 g/m*3 8.9 C 0 km/h
827 04-03-2009 20:54:13 8.8 C 4.26 g/m*3 8.8 C 0 km/h
828 04-03-2009 21:06:13 8.6 C 4.38 g/m*3 8.6 C 0 km/h
829 04-03-2009 21:18:13 8.5 C 4.44 g/m*3 8.5 C 0 km/h
830 04-03-2009 21:30:13 8.4 C 4.41 g/m*3 8.4 C 0 km/h
831 04-03-2009 21:42:13 8.4 C 4.33 g/m*3 8.4 C 0 km/h
832 04-03-2009 21:54:13 8.5 C 4.35 g/m*3 8.5 C 0 km/h
833 04-03-2009 22:06:12 8.5 C 4.27 g/m*3 8.5 C 0 km/h
834 04-03-2009 22:19:15 8.6 C 4.3 g/m*3 8.6 C 0 km/h
835 04-03-2009 22:31:15 8.4 C 4.33 g/m*3 8.4 C 0 km/h
836 04-03-2009 22:43:15 8.7 C 4.15 g/m*3 8.7 C 0 km/h
837 04-03-2009 22:55:15 8.7 C 4.32 g/m*3 8.7 C 0 km/h
838 04-03-2009 23:07:15 8.6 C 4.3 g/m*3 8.6 C 0 km/h
839 04-03-2009 23:19:15 8.4 C 4.33 g/m*3 8.4 C 0 km/h
840 04-03-2009 23:31:15 8.3 C 4.38 g/m*3 8.3 C 0 km/h
841 04-03-2009 23:43:15 8.1 C 4.41 g/m*3 8.1 C 0 km/h
842 04-03-2009 23:55:15 8 C 4.55 g/m*3 8 C 0 km/h
843 05-03-2009 00:07:15 7.9 C 4.6 g/m*3 7.9 C 0 km/h
844 05-03-2009 00:19:15 7.9 C 4.68 g/m*3 7.9 C 0 km/h
845 05-03-2009 00:31:15 7.8 C 4.9 g/m*3 7.8 C 0 km/h
846 05-03-2009 00:43:15 7.6 C 4.99 g/m*3 7.6 C 0 km/h
847 05-03-2009 00:55:15 7.5 C 5.12 g/m*3 7.5 C 0 km/h
848 05-03-2009 01:07:15 7.6 C 5.08 g/m*3 7.6 C 0 km/h
849 05-03-2009 01:19:15 7.6 C 4.99 g/m*3 7.6 C 0 km/h
850 05-03-2009 01:31:16 7.6 C 4.91 g/m*3 7.6 C 0 km/h
Sensor: Nr:Datum:Temp:Abs-Feuchte:Windchill:Wind:
Aussen-T/F 851 05-03-2009 01:43:16 7.6 C 4.91 g/m*3 7.6 C 0 km/h
852 05-03-2009 01:55:16 7.6 C 4.91 g/m*3 7.6 C 0 km/h
853 05-03-2009 02:07:16 7.6 C 4.91 g/m*3 7.6 C 0 km/h
854 05-03-2009 02:19:16 7.6 C 4.91 g/m*3 7.6 C 0 km/h
855 05-03-2009 02:31:16 7.6 C 4.91 g/m*3 7.6 C 0 km/h
856 05-03-2009 02:43:16 7.6 C 4.91 g/m*3 7.6 C 0 km/h
857 05-03-2009 02:55:16 7.5 C 4.96 g/m*3 7.5 C 0 km/h
858 05-03-2009 03:07:16 7.5 C 4.88 g/m*3 7.5 C 0 km/h
859 05-03-2009 03:19:16 7.6 C 4.91 g/m*3 7.6 C 0 km/h
860 05-03-2009 03:31:16 7.6 C 4.91 g/m*3 7.6 C 0 km/h
861 05-03-2009 03:43:16 7.5 C 4.88 g/m*3 7.5 C 0 km/h
862 05-03-2009 03:55:16 7.4 C 4.93 g/m*3 7.4 C 0 km/h
863 05-03-2009 04:07:16 7.3 C 4.98 g/m*3 7.3 C 0 km/h
864 05-03-2009 04:19:16 7.1 C 5.07 g/m*3 7.1 C 0 km/h
865 05-03-2009 04:31:16 7.1 C 5.15 g/m*3 7.1 C 0 km/h
866 05-03-2009 04:43:16 7 C 5.11 g/m*3 7 C 0 km/h
867 05-03-2009 04:55:16 6.7 C 5.24 g/m*3 6.7 C 0 km/h
868 05-03-2009 05:07:16 6.4 C 5.29 g/m*3 6.4 C 0 km/h
869 05-03-2009 05:19:16 6.1 C 5.33 g/m*3 6.1 C 0 km/h
870 05-03-2009 05:31:17 6 C 5.37 g/m*3 6 C 0 km/h
871 05-03-2009 05:43:17 5.7 C 5.48 g/m*3 5.7 C 0 km/h
872 05-03-2009 05:55:17 5.5 C 5.62 g/m*3 5.5 C 0 km/h
873 05-03-2009 06:07:17 5.4 C 5.65 g/m*3 5.4 C 0 km/h
874 05-03-2009 06:19:17 5.2 C 5.58 g/m*3 5.2 C 0 km/h
875 05-03-2009 06:31:17 5.1 C 5.54 g/m*3 5.1 C 0 km/h
Sensor: Nr:Datum:Temp:Abs-Feuchte:Windchill:Wind:
Aussen-T/F 876 05-03-2009 06:43:17 5 C 5.57 g/m*3 5 C 0 km/h
877 05-03-2009 06:55:17 4.9 C 5.67 g/m*3 4.9 C 0 km/h
878 05-03-2009 07:07:14 4.9 C 5.74 g/m*3 4.9 C 0 km/h
879 05-03-2009 07:19:14 4.8 C 5.7 g/m*3 4.8 C 0 km/h
880 05-03-2009 07:31:14 4.7 C 5.73 g/m*3 4.7 C 0 km/h
881 05-03-2009 07:43:14 4.7 C 5.73 g/m*3 4.7 C 0 km/h
882 05-03-2009 07:55:14 4.6 C 5.69 g/m*3 4.6 C 0 km/h
883 05-03-2009 08:07:13 4.6 C 5.69 g/m*3 4.6 C 0 km/h
884 05-03-2009 08:19:14 4.4 C 5.62 g/m*3 4.4 C 0 km/h
885 05-03-2009 08:31:14 4.2 C 5.48 g/m*3 4.2 C 0 km/h
886 05-03-2009 08:43:14 3.9 C 5.37 g/m*3 3.9 C 0 km/h
887 05-03-2009 08:55:13 3.6 C 5.26 g/m*3 3.6 C 0 km/h
888 05-03-2009 09:07:14 3.4 C 5.19 g/m*3 3.4 C 0 km/h
889 05-03-2009 09:19:13 3.4 C 5.19 g/m*3 3.4 C 0 km/h
890 05-03-2009 09:31:13 3.5 C 5.29 g/m*3 3.5 C 0 km/h
891 05-03-2009 09:43:13 3.2 C 5.18 g/m*3 3.2 C 0 km/h
892 05-03-2009 09:55:13 3.2 C 5.18 g/m*3 3.2 C 0 km/h
893 05-03-2009 10:07:13 3.1 C 5.15 g/m*3 3.1 C 0 km/h
894 05-03-2009 10:19:12 3 C 5.11 g/m*3 3 C 0 km/h
895 05-03-2009 10:31:12 3.1 C 5.15 g/m*3 3.1 C 0 km/h
896 05-03-2009 10:43:12 3.1 C 5.21 g/m*3 3.1 C 0 km/h
897 05-03-2009 10:55:12 2.7 C 5.07 g/m*3 2.7 C 0 km/h
898 05-03-2009 11:07:12 2.7 C 5.07 g/m*3 2.7 C 0 km/h
899 05-03-2009 11:19:12 2.6 C 5.03 g/m*3 2.6 C 0 km/h
900 05-03-2009 11:31:12 2.6 C 5.03 g/m*3 2.6 C 0 km/h
Sensor: Nr:Datum:Temp:Abs-Feuchte:Windchill:Wind:
Aussen-T/F 901 05-03-2009 11:43:12 2.5 C 5 g/m*3 2.5 C 0 km/h
902 05-03-2009 11:55:12 2.6 C 5.03 g/m*3 2.6 C 0 km/h
903 05-03-2009 12:07:11 2.6 C 5.09 g/m*3 2.6 C 0 km/h
904 05-03-2009 12:19:12 2.8 C 5.16 g/m*3 2.8 C 0 km/h
905 05-03-2009 12:31:11 2.6 C 5.09 g/m*3 2.6 C 0 km/h
906 05-03-2009 12:43:11 2.8 C 5.16 g/m*3 2.8 C 0 km/h
907 05-03-2009 12:55:11 3.1 C 5.27 g/m*3 3.1 C 0 km/h
908 05-03-2009 13:07:11 2.9 C 5.2 g/m*3 2.9 C 0 km/h
909 05-03-2009 13:19:11 2.9 C 5.2 g/m*3 2.9 C 0 km/h
910 05-03-2009 13:31:11 2.9 C 5.2 g/m*3 2.9 C 0 km/h
911 05-03-2009 13:43:11 3 C 5.17 g/m*3 3 C 0 km/h
912 05-03-2009 13:55:10 3 C 5.17 g/m*3 3 C 0 km/h
913 05-03-2009 14:07:11 3 C 5.17 g/m*3 3 C 0 km/h
914 05-03-2009 14:19:10 2.9 C 5.2 g/m*3 2.9 C 0 km/h
915 05-03-2009 14:31:10 3 C 5.23 g/m*3 3 C 0 km/h
916 05-03-2009 14:43:10 3 C 5.23 g/m*3 3 C 0 km/h
917 05-03-2009 14:55:10 3.1 C 5.27 g/m*3 3.1 C 0 km/h
918 05-03-2009 15:07:10 3 C 5.23 g/m*3 3 C 0 km/h
919 05-03-2009 15:19:10 3.1 C 5.27 g/m*3 3.1 C 0 km/h
920 05-03-2009 15:31:09 3 C 5.23 g/m*3 3 C 0 km/h
921 05-03-2009 15:43:09 3.1 C 5.27 g/m*3 3.1 C 0 km/h
922 05-03-2009 15:55:09 3.2 C 5.36 g/m*3 3.2 C 0 km/h
923 05-03-2009 16:07:09 3.3 C 5.4 g/m*3 3.3 C 0 km/h
924 05-03-2009 16:19:10 3.2 C 5.36 g/m*3 3.2 C 0 km/h
925 05-03-2009 16:31:09 3.3 C 5.4 g/m*3 3.3 C 0 km/h
Sensor: Nr:Datum:Temp:Abs-Feuchte:Windchill:Wind:
Aussen-T/F 926 05-03-2009 16:43:09 3.4 C 5.44 g/m*3 3.4 C 0 km/h
927 05-03-2009 16:55:09 3.5 C 5.47 g/m*3 3.5 C 0 km/h
928 05-03-2009 17:07:08 3.6 C 5.51 g/m*3 3.6 C 0 km/h
929 05-03-2009 17:19:09 3.6 C 5.51 g/m*3 3.6 C 0 km/h
930 05-03-2009 17:31:09 3.6 C 5.51 g/m*3 3.6 C 0 km/h
931 05-03-2009 17:43:09 3.7 C 5.55 g/m*3 3.7 C 0 km/h
932 05-03-2009 17:55:08 3.7 C 5.55 g/m*3 3.7 C 0 km/h
933 05-03-2009 18:07:08 4 C 5.53 g/m*3 4 C 0 km/h
934 05-03-2009 18:19:09 4 C 5.53 g/m*3 4 C 0 km/h
935 05-03-2009 18:31:08 4 C 5.53 g/m*3 4 C 0 km/h
936 05-03-2009 18:43:08 3.9 C 5.56 g/m*3 3.9 C 0 km/h
937 05-03-2009 18:55:08 4 C 5.59 g/m*3 4 C 0 km/h
938 05-03-2009 19:07:08 4 C 5.59 g/m*3 4 C 0 km/h
939 05-03-2009 19:19:07 4 C 5.66 g/m*3 4 C 0 km/h
940 05-03-2009 19:31:08 4 C 5.66 g/m*3 4 C 0 km/h
941 05-03-2009 19:43:08 3.8 C 5.65 g/m*3 3.8 C 0 km/h
942 05-03-2009 19:55:07 3.8 C 5.65 g/m*3 3.8 C 0 km/h
943 05-03-2009 20:07:07 3.7 C 5.61 g/m*3 3.7 C 0 km/h
944 05-03-2009 20:19:07 3.7 C 5.55 g/m*3 3.7 C 0 km/h
945 05-03-2009 20:31:07 3.6 C 5.51 g/m*3 3.6 C 0 km/h
946 05-03-2009 20:43:07 3.6 C 5.57 g/m*3 3.6 C 0 km/h
947 05-03-2009 20:55:06 3.6 C 5.57 g/m*3 3.6 C 0 km/h
948 05-03-2009 21:07:07 3.5 C 5.53 g/m*3 3.5 C 0 km/h
949 05-03-2009 21:19:06 3.5 C 5.53 g/m*3 3.5 C 0 km/h
950 05-03-2009 21:31:06 3.5 C 5.53 g/m*3 3.5 C 0 km/h
Sensor: Nr:Datum:Temp:Abs-Feuchte:Windchill:Wind:
Aussen-T/F 951 05-03-2009 21:43:07 3.4 C 5.5 g/m*3 3.4 C 0 km/h
952 05-03-2009 21:55:06 3.4 C 5.56 g/m*3 3.4 C 0 km/h
953 05-03-2009 22:07:06 3.4 C 5.56 g/m*3 3.4 C 0 km/h
954 05-03-2009 22:19:05 3.4 C 5.56 g/m*3 3.4 C 0 km/h
955 05-03-2009 22:32:06 3.3 C 5.46 g/m*3 3.3 C 0 km/h
956 05-03-2009 22:44:06 3.2 C 5.42 g/m*3 3.2 C 0 km/h
957 05-03-2009 22:56:07 3.1 C 5.39 g/m*3 3.1 C 0 km/h
958 05-03-2009 23:08:07 3 C 5.35 g/m*3 3 C 0 km/h
959 05-03-2009 23:20:07 3 C 5.35 g/m*3 3 C 0 km/h
960 05-03-2009 23:32:07 2.8 C 5.28 g/m*3 2.8 C 0 km/h
961 05-03-2009 23:44:07 2.8 C 5.28 g/m*3 2.8 C 0 km/h
962 05-03-2009 23:56:07 2.8 C 5.28 g/m*3 2.8 C 0 km/h
963 06-03-2009 00:08:07 2.9 C 5.37 g/m*3 2.9 C 0 km/h
964 06-03-2009 00:20:07 3 C 5.35 g/m*3 3 C 0 km/h
965 06-03-2009 00:32:07 3 C 5.35 g/m*3 3 C 0 km/h
966 06-03-2009 00:44:07 3 C 5.35 g/m*3 3 C 0 km/h
967 06-03-2009 00:56:07 3 C 5.41 g/m*3 3 C 0 km/h
968 06-03-2009 01:08:07 3.1 C 5.45 g/m*3 3.1 C 0 km/h
969 06-03-2009 01:20:07 3.1 C 5.45 g/m*3 3.1 C 0 km/h
970 06-03-2009 01:32:07 3.2 C 5.48 g/m*3 3.2 C 0 km/h
971 06-03-2009 01:44:07 3.2 C 5.48 g/m*3 3.2 C 0 km/h
972 06-03-2009 01:56:07 3.2 C 5.48 g/m*3 3.2 C 0 km/h
973 06-03-2009 02:08:07 3.2 C 5.48 g/m*3 3.2 C 0 km/h
974 06-03-2009 02:20:07 3.3 C 5.52 g/m*3 3.3 C 0 km/h
975 06-03-2009 02:32:07 3.3 C 5.52 g/m*3 3.3 C 0 km/h
Sensor: Nr:Datum:Temp:Abs-Feuchte:Windchill:Wind:
Aussen-T/F 976 06-03-2009 02:44:07 3.3 C 5.52 g/m*3 3.3 C 0 km/h
977 06-03-2009 02:56:08 3.4 C 5.56 g/m*3 3.4 C 0 km/h
978 06-03-2009 03:08:08 3.4 C 5.56 g/m*3 3.4 C 0 km/h
979 06-03-2009 03:20:08 3.4 C 5.56 g/m*3 3.4 C 0 km/h
980 06-03-2009 03:32:08 3.4 C 5.56 g/m*3 3.4 C 0 km/h
981 06-03-2009 03:44:08 3.5 C 5.6 g/m*3 3.5 C 0 km/h
982 06-03-2009 03:56:08 3.5 C 5.6 g/m*3 3.5 C 0 km/h
983 06-03-2009 04:08:08 3.5 C 5.6 g/m*3 3.5 C 0 km/h
984 06-03-2009 04:20:08 3.4 C 5.56 g/m*3 3.4 C 0 km/h
985 06-03-2009 04:32:08 3.4 C 5.56 g/m*3 3.4 C 0 km/h
986 06-03-2009 04:44:08 3.3 C 5.46 g/m*3 3.3 C 0 km/h
987 06-03-2009 04:56:08 3.3 C 5.46 g/m*3 3.3 C 0 km/h
988 06-03-2009 05:08:08 3.3 C 5.46 g/m*3 3.3 C 0 km/h
989 06-03-2009 05:20:08 3.3 C 5.52 g/m*3 3.3 C 0 km/h
990 06-03-2009 05:32:08 3.3 C 5.52 g/m*3 3.3 C 0 km/h
991 06-03-2009 05:44:08 3.3 C 5.52 g/m*3 3.3 C 0 km/h
992 06-03-2009 05:56:08 3.4 C 5.62 g/m*3 3.4 C 0 km/h
993 06-03-2009 06:08:08 3.5 C 5.66 g/m*3 3.5 C 0 km/h
994 06-03-2009 06:20:08 3.6 C 5.69 g/m*3 3.6 C 0 km/h
995 06-03-2009 06:32:08 3.5 C 5.66 g/m*3 3.5 C 0 km/h
996 06-03-2009 06:44:08 3.6 C 5.69 g/m*3 3.6 C 0 km/h
997 06-03-2009 06:56:08 3.6 C 5.69 g/m*3 3.6 C 0 km/h
998 06-03-2009 07:08:06 3.5 C 5.66 g/m*3 3.5 C 0 km/h
999 06-03-2009 07:20:06 3.5 C 5.66 g/m*3 3.5 C 0 km/h
1000 06-03-2009 07:32:06 3.3 C 5.52 g/m*3 3.3 C 0 km/h
Sensor: Nr:Datum:Temp:Abs-Feuchte:Windchill:Wind:
Aussen-T/F 1001 06-03-2009 07:44:06 3.3 C 5.58 g/m*3 3.3 C 0 km/h
1002 06-03-2009 07:56:06 3.3 C 5.58 g/m*3 3.3 C 0 km/h
1003 06-03-2009 08:08:05 3.3 C 5.52 g/m*3 3.3 C 0 km/h
1004 06-03-2009 08:20:05 3.3 C 5.52 g/m*3 3.3 C 0 km/h
1005 06-03-2009 08:32:05 3.3 C 5.52 g/m*3 3.3 C 0 km/h
1006 06-03-2009 08:44:05 3.2 C 5.42 g/m*3 3.2 C 0 km/h
1007 06-03-2009 08:56:05 3.3 C 5.46 g/m*3 3.3 C 0 km/h
1008 06-03-2009 09:08:05 3.3 C 5.46 g/m*3 3.3 C 0 km/h
1009 06-03-2009 09:20:05 3.4 C 5.5 g/m*3 3.4 C 0 km/h
1010 06-03-2009 09:32:05 3.4 C 5.44 g/m*3 3.4 C 0 km/h
1011 06-03-2009 09:44:05 3.5 C 5.47 g/m*3 3.5 C 0 km/h
1012 06-03-2009 09:56:05 3.6 C 5.51 g/m*3 3.6 C 0 km/h
1013 06-03-2009 10:08:05 3.6 C 5.51 g/m*3 3.6 C 0 km/h
1014 06-03-2009 10:20:04 3.7 C 5.48 g/m*3 3.7 C 0 km/h
1015 06-03-2009 10:32:04 3.9 C 5.56 g/m*3 3.9 C 0 km/h
1016 06-03-2009 10:44:04 3.8 C 5.52 g/m*3 3.8 C 0 km/h
1017 06-03-2009 10:56:04 3.8 C 5.52 g/m*3 3.8 C 0 km/h
1018 06-03-2009 11:08:04 3.9 C 5.62 g/m*3 3.9 C 0 km/h
1019 06-03-2009 11:20:03 4 C 5.59 g/m*3 4 C 0 km/h
1020 06-03-2009 11:32:04 4.1 C 5.63 g/m*3 4.1 C 0 km/h
1021 06-03-2009 11:44:03 4.1 C 5.63 g/m*3 4.1 C 0 km/h
1022 06-03-2009 11:56:03 4.2 C 5.67 g/m*3 4.2 C 0 km/h
1023 06-03-2009 12:08:03 4.2 C 5.61 g/m*3 4.2 C 0 km/h
1024 06-03-2009 12:20:04 4.3 C 5.71 g/m*3 4.3 C 0 km/h
1025 06-03-2009 12:32:03 4.3 C 5.71 g/m*3 4.3 C 0 km/h
Sensor: Nr:Datum:Temp:Abs-Feuchte:Windchill:Wind:
Aussen-T/F 1026 06-03-2009 12:44:03 4.4 C 5.68 g/m*3 4.4 C 0 km/h
1027 06-03-2009 12:56:03 4.4 C 5.68 g/m*3 4.4 C 0 km/h
1028 06-03-2009 13:08:03 4.5 C 5.65 g/m*3 4.5 C 0 km/h
1029 06-03-2009 13:20:03 4.6 C 5.62 g/m*3 4.6 C 0 km/h
1030 06-03-2009 13:32:02 5 C 5.57 g/m*3 5 C 0 km/h
1031 06-03-2009 13:44:02 5 C 5.57 g/m*3 5 C 0 km/h
1032 06-03-2009 13:56:03 4.8 C 5.57 g/m*3 4.8 C 0 km/h
1033 06-03-2009 14:08:02 4.7 C 5.6 g/m*3 4.7 C 0 km/h
1034 06-03-2009 14:20:02 4.7 C 5.6 g/m*3 4.7 C 0 km/h
1035 06-03-2009 14:32:02 4.8 C 5.57 g/m*3 4.8 C 0 km/h
1036 06-03-2009 14:44:02 4.9 C 5.54 g/m*3 4.9 C 0 km/h
1037 06-03-2009 14:56:02 4.9 C 5.6 g/m*3 4.9 C 0 km/h
1038 06-03-2009 15:08:02 4.8 C 5.5 g/m*3 4.8 C 0 km/h
1039 06-03-2009 15:20:01 4.8 C 5.5 g/m*3 4.8 C 0 km/h
1040 06-03-2009 15:32:01 4.9 C 5.54 g/m*3 4.9 C 0 km/h
1041 06-03-2009 15:44:01 4.9 C 5.54 g/m*3 4.9 C 0 km/h
1042 06-03-2009 15:56:01 4.7 C 5.46 g/m*3 4.7 C 0 km/h
1043 06-03-2009 16:08:01 4.7 C 5.46 g/m*3 4.7 C 0 km/h
1044 06-03-2009 16:20:00 4.6 C 5.43 g/m*3 4.6 C 0 km/h
1045 06-03-2009 16:32:01 4.6 C 5.43 g/m*3 4.6 C 0 km/h
1046 06-03-2009 16:44:00 4.5 C 5.46 g/m*3 4.5 C 0 km/h
1047 06-03-2009 16:56:00 4.4 C 5.48 g/m*3 4.4 C 0 km/h
1048 06-03-2009 17:08:00 4.4 C 5.48 g/m*3 4.4 C 0 km/h
1049 06-03-2009 17:20:01 4.3 C 5.45 g/m*3 4.3 C 0 km/h
1050 06-03-2009 17:32:00 4.2 C 5.35 g/m*3 4.2 C 0 km/h
Sensor: Nr:Datum:Temp:Abs-Feuchte:Windchill:Wind:
Aussen-T/F 1051 06-03-2009 17:44:00 4.2 C 5.35 g/m*3 4.2 C 0 km/h
1052 06-03-2009 17:56:00 4.2 C 5.41 g/m*3 4.2 C 0 km/h
1053 06-03-2009 18:08:00 4.2 C 5.35 g/m*3 4.2 C 0 km/h
1054 06-03-2009 18:20:00 4.1 C 5.25 g/m*3 4.1 C 0 km/h
1055 06-03-2009 18:32:00 4 C 5.28 g/m*3 4 C 0 km/h
1056 06-03-2009 18:44:00 4 C 5.34 g/m*3 4 C 0 km/h
1057 06-03-2009 18:56:00 3.9 C 5.37 g/m*3 3.9 C 0 km/h
1058 06-03-2009 19:08:00 3.9 C 5.31 g/m*3 3.9 C 0 km/h
1059 06-03-2009 19:20:59 4 C 5.21 g/m*3 4 C 0 km/h
1060 06-03-2009 19:32:59 4 C 5.21 g/m*3 4 C 0 km/h
1061 06-03-2009 19:44:59 4 C 5.28 g/m*3 4 C 0 km/h
1062 06-03-2009 19:56:59 3.9 C 5.31 g/m*3 3.9 C 0 km/h
1063 06-03-2009 20:08:59 3.8 C 5.27 g/m*3 3.8 C 0 km/h
1064 06-03-2009 20:20:58 3.8 C 5.27 g/m*3 3.8 C 0 km/h
1065 06-03-2009 20:32:59 3.8 C 5.21 g/m*3 3.8 C 0 km/h
1066 06-03-2009 20:44:58 4 C 5.09 g/m*3 4 C 0 km/h
1067 06-03-2009 20:56:58 3.9 C 5.12 g/m*3 3.9 C 0 km/h
1068 06-03-2009 21:08:59 3.8 C 5.02 g/m*3 3.8 C 0 km/h
1069 06-03-2009 21:20:58 3.7 C 4.86 g/m*3 3.7 C 0 km/h
1070 06-03-2009 21:32:58 3.7 C 4.74 g/m*3 3.7 C 0 km/h
1071 06-03-2009 21:44:58 3.8 C 4.52 g/m*3 3.8 C 0 km/h
1072 06-03-2009 21:56:58 3.8 C 4.39 g/m*3 3.8 C 0 km/h
1073 06-03-2009 22:08:58 3.8 C 4.27 g/m*3 3.8 C 0 km/h
1074 06-03-2009 22:21:57 3.7 C 4.24 g/m*3 3.7 C 0 km/h
1075 06-03-2009 22:33:57 3.8 C 4.2 g/m*3 3.8 C 0 km/h
Sensor: Nr:Datum:Temp:Abs-Feuchte:Windchill:Wind:
Aussen-T/F 1076 06-03-2009 22:45:57 3.8 C 4.27 g/m*3 3.8 C 0 km/h
1077 06-03-2009 22:57:57 3.8 C 4.2 g/m*3 3.8 C 0 km/h
1078 06-03-2009 23:09:57 3.8 C 4.14 g/m*3 3.8 C 0 km/h
1079 06-03-2009 23:21:57 3.7 C 4.11 g/m*3 3.7 C 0 km/h
1080 06-03-2009 23:33:57 3.8 C 4.08 g/m*3 3.8 C 0 km/h
1081 06-03-2009 23:45:57 3.8 C 4.08 g/m*3 3.8 C 0 km/h
1082 06-03-2009 23:57:57 3.8 C 4.02 g/m*3 3.8 C 0 km/h
1083 07-03-2009 00:09:58 3.7 C 3.99 g/m*3 3.7 C 0 km/h
1084 07-03-2009 00:21:58 3.8 C 3.89 g/m*3 3.8 C 0 km/h
1085 07-03-2009 00:33:58 3.8 C 3.83 g/m*3 3.8 C 0 km/h
1086 07-03-2009 00:45:58 3.8 C 3.76 g/m*3 3.8 C 0 km/h
1087 07-03-2009 00:57:58 3.7 C 3.8 g/m*3 3.7 C 0 km/h
1088 07-03-2009 01:09:58 3.6 C 3.9 g/m*3 3.6 C 0 km/h
1089 07-03-2009 01:21:58 3.6 C 3.84 g/m*3 3.6 C 0 km/h
1090 07-03-2009 01:33:58 3.6 C 3.84 g/m*3 3.6 C 0 km/h
1091 07-03-2009 01:45:58 3.5 C 3.81 g/m*3 3.5 C 0 km/h
1092 07-03-2009 01:57:58 3.4 C 3.85 g/m*3 3.4 C 0 km/h
1093 07-03-2009 02:09:58 3.4 C 3.85 g/m*3 3.4 C 0 km/h
1094 07-03-2009 02:21:58 3.4 C 3.85 g/m*3 3.4 C 0 km/h
1095 07-03-2009 02:33:58 3.3 C 3.82 g/m*3 3.3 C 0 km/h
1096 07-03-2009 02:45:58 3.3 C 3.88 g/m*3 3.3 C 0 km/h
1097 07-03-2009 02:57:58 3.2 C 3.86 g/m*3 3.2 C 0 km/h
1098 07-03-2009 03:09:58 3.1 C 3.89 g/m*3 3.1 C 0 km/h
1099 07-03-2009 03:21:58 3.2 C 3.86 g/m*3 3.2 C 0 km/h
1100 07-03-2009 03:33:58 3.2 C 3.86 g/m*3 3.2 C 0 km/h
Sensor: Nr:Datum:Temp:Abs-Feuchte:Windchill:Wind:
Aussen-T/F 1101 07-03-2009 03:45:58 3.2 C 3.86 g/m*3 3.2 C 0 km/h
1102 07-03-2009 03:57:58 3.2 C 3.86 g/m*3 3.2 C 0 km/h
1103 07-03-2009 04:09:59 3.2 C 3.86 g/m*3 3.2 C 0 km/h
1104 07-03-2009 04:21:59 3.2 C 3.86 g/m*3 3.2 C 0 km/h
1105 07-03-2009 04:33:59 3.1 C 3.83 g/m*3 3.1 C 0 km/h
1106 07-03-2009 04:45:59 3.1 C 3.83 g/m*3 3.1 C 0 km/h
1107 07-03-2009 04:57:59 3.2 C 3.8 g/m*3 3.2 C 0 km/h
1108 07-03-2009 05:09:59 3.2 C 3.8 g/m*3 3.2 C 0 km/h
1109 07-03-2009 05:21:59 3.2 C 3.74 g/m*3 3.2 C 0 km/h
1110 07-03-2009 05:33:59 3.1 C 3.77 g/m*3 3.1 C 0 km/h
1111 07-03-2009 05:45:59 3 C 3.75 g/m*3 3 C 0 km/h
1112 07-03-2009 05:57:59 3 C 3.69 g/m*3 3 C 0 km/h
1113 07-03-2009 06:09:59 3 C 3.63 g/m*3 3 C 0 km/h
1114 07-03-2009 06:21:58 3 C 3.57 g/m*3 3 C 0 km/h
1115 07-03-2009 06:33:57 3 C 3.63 g/m*3 3 C 0 km/h
1116 07-03-2009 06:45:57 3 C 3.63 g/m*3 3 C 0 km/h
1117 07-03-2009 06:57:57 3 C 3.63 g/m*3 3 C 0 km/h
1118 07-03-2009 07:09:57 2.9 C 3.66 g/m*3 2.9 C 0 km/h
1119 07-03-2009 07:21:57 2.9 C 3.72 g/m*3 2.9 C 0 km/h
1120 07-03-2009 07:33:57 2.7 C 3.73 g/m*3 2.7 C 0 km/h
1121 07-03-2009 07:45:57 2.6 C 3.76 g/m*3 2.6 C 0 km/h
1122 07-03-2009 07:57:57 2.7 C 3.79 g/m*3 2.7 C 0 km/h
1123 07-03-2009 08:09:57 2.7 C 3.73 g/m*3 2.7 C 0 km/h
1124 07-03-2009 08:21:56 2.7 C 3.73 g/m*3 2.7 C 0 km/h
1125 07-03-2009 08:33:56 2.6 C 3.65 g/m*3 2.6 C 0 km/h
Sensor: Nr:Datum:Temp:Abs-Feuchte:Windchill:Wind:
Aussen-T/F 1126 07-03-2009 08:45:56 2.6 C 3.65 g/m*3 2.6 C 0 km/h
1127 07-03-2009 08:57:56 2.7 C 3.67 g/m*3 2.7 C 0 km/h
1128 07-03-2009 09:09:56 2.7 C 3.67 g/m*3 2.7 C 0 km/h
1129 07-03-2009 09:21:56 3 C 3.69 g/m*3 3 C 0 km/h
1130 07-03-2009 09:33:56 3.3 C 3.7 g/m*3 3.3 C 0 km/h
1131 07-03-2009 09:45:56 3.2 C 3.62 g/m*3 3.2 C 0 km/h
1132 07-03-2009 09:57:56 3.1 C 3.71 g/m*3 3.1 C 0 km/h
1133 07-03-2009 10:09:56 3.2 C 3.8 g/m*3 3.2 C 0 km/h
1134 07-03-2009 10:21:55 3.5 C 3.87 g/m*3 3.5 C 0 km/h
1135 07-03-2009 10:33:55 3.9 C 3.85 g/m*3 3.9 C 0 km/h
1136 07-03-2009 10:45:55 4.5 C 3.94 g/m*3 4.5 C 0 km/h
1137 07-03-2009 10:57:55 5 C 3.87 g/m*3 5 C 0 km/h
1138 07-03-2009 11:09:55 5.1 C 3.97 g/m*3 5.1 C 0 km/h
1139 07-03-2009 11:21:54 5.9 C 3.97 g/m*3 5.9 C 0 km/h
1140 07-03-2009 11:33:55 6.6 C 3.85 g/m*3 6.6 C 0 km/h
1141 07-03-2009 11:45:54 7.2 C 3.77 g/m*3 7.2 C 0 km/h
1142 07-03-2009 11:57:54 7.4 C 3.9 g/m*3 7.4 C 0 km/h
1143 07-03-2009 12:09:54 7.5 C 3.76 g/m*3 7.5 C 0 km/h
1144 07-03-2009 12:21:55 7.6 C 3.63 g/m*3 7.6 C 0 km/h
1145 07-03-2009 12:33:54 7.8 C 3.59 g/m*3 7.8 C 0 km/h
1146 07-03-2009 12:45:54 8.2 C 3.43 g/m*3 8.2 C 0 km/h
1147 07-03-2009 12:57:54 7.9 C 3.37 g/m*3 7.9 C 0 km/h
1148 07-03-2009 13:09:54 8.5 C 3.24 g/m*3 8.5 C 0 km/h
1149 07-03-2009 13:21:54 8.4 C 3.22 g/m*3 8.4 C 0 km/h
1150 07-03-2009 13:33:54 9 C 3.26 g/m*3 9 C 0 km/h
Sensor: Nr:Datum:Temp:Abs-Feuchte:Windchill:Wind:
Aussen-T/F 1151 07-03-2009 13:45:53 8.5 C 3.07 g/m*3 8.5 C 0 km/h
1152 07-03-2009 13:57:53 9.4 C 3.26 g/m*3 9.4 C 0 km/h
1153 07-03-2009 14:09:54 10 C 3.01 g/m*3 10 C 0 km/h
1154 07-03-2009 14:21:53 10.8 C 3.06 g/m*3 10.8 C 0 km/h
1155 07-03-2009 14:33:53 11.3 C 2.96 g/m*3 11.3 C 0 km/h
1156 07-03-2009 14:45:53 11.4 C 2.77 g/m*3 11.4 C 0 km/h
1157 07-03-2009 14:57:53 11.3 C 2.86 g/m*3 11.3 C 0 km/h
1158 07-03-2009 15:09:53 11.8 C 2.74 g/m*3 11.8 C 0 km/h
1159 07-03-2009 15:21:52 11.9 C 2.65 g/m*3 11.9 C 0 km/h
1160 07-03-2009 15:33:52 11 C 3.2 g/m*3 11 C 0 km/h
1161 07-03-2009 15:45:52 10.8 C 3.36 g/m*3 10.8 C 0 km/h
1162 07-03-2009 15:57:52 11 C 3 g/m*3 11 C 0 km/h
1163 07-03-2009 16:09:52 10.7 C 2.75 g/m*3 10.7 C 0 km/h
1164 07-03-2009 16:21:52 10.2 C 2.85 g/m*3 10.2 C 0 km/h
1165 07-03-2009 16:33:52 10.4 C 2.89 g/m*3 10.4 C 0 km/h
1166 07-03-2009 16:45:52 10.6 C 2.73 g/m*3 10.6 C 0 km/h
1167 07-03-2009 16:57:52 10.4 C 2.6 g/m*3 10.4 C 0 km/h
1168 07-03-2009 17:09:51 9.6 C 3.57 g/m*3 9.6 C 0 km/h
1169 07-03-2009 17:21:52 9.2 C 3.75 g/m*3 9.2 C 0 km/h
1170 07-03-2009 17:33:51 8.7 C 3.89 g/m*3 8.7 C 0 km/h
1171 07-03-2009 17:45:51 8.4 C 3.99 g/m*3 8.4 C 0 km/h
1172 07-03-2009 17:57:51 8 C 4.05 g/m*3 8 C 0 km/h
1173 07-03-2009 18:09:51 7.8 C 4.08 g/m*3 7.8 C 0 km/h
1174 07-03-2009 18:21:51 7.5 C 4.16 g/m*3 7.5 C 0 km/h
1175 07-03-2009 18:33:51 7.2 C 4.16 g/m*3 7.2 C 0 km/h
Sensor: Nr:Datum:Temp:Abs-Feuchte:Windchill:Wind:
Aussen-T/F 1176 07-03-2009 18:45:50 6.8 C 4.21 g/m*3 6.8 C 0 km/h
1177 07-03-2009 18:57:50 6.4 C 4.17 g/m*3 6.4 C 0 km/h
1178 07-03-2009 19:09:51 6.2 C 4.27 g/m*3 6.2 C 0 km/h
1179 07-03-2009 19:21:50 5.8 C 4.3 g/m*3 5.8 C 0 km/h
1180 07-03-2009 19:33:50 5.6 C 4.31 g/m*3 5.6 C 0 km/h
1181 07-03-2009 19:45:50 5.3 C 4.23 g/m*3 5.3 C 0 km/h
1182 07-03-2009 19:57:50 5.3 C 4.3 g/m*3 5.3 C 0 km/h
1183 07-03-2009 20:09:50 5.2 C 4.27 g/m*3 5.2 C 0 km/h
1184 07-03-2009 20:21:49 5.6 C 4.38 g/m*3 5.6 C 0 km/h
1185 07-03-2009 20:33:50 6 C 4.28 g/m*3 6 C 0 km/h
1186 07-03-2009 20:45:50 6 C 4.21 g/m*3 6 C 0 km/h
1187 07-03-2009 20:57:50 5.9 C 4.25 g/m*3 5.9 C 0 km/h
1188 07-03-2009 21:09:50 5.9 C 4.25 g/m*3 5.9 C 0 km/h
1189 07-03-2009 21:21:49 5.9 C 4.25 g/m*3 5.9 C 0 km/h
1190 07-03-2009 21:33:49 6 C 4.14 g/m*3 6 C 0 km/h
1191 07-03-2009 21:45:49 6.1 C 4.09 g/m*3 6.1 C 0 km/h
1192 07-03-2009 21:57:49 6.2 C 4.04 g/m*3 6.2 C 0 km/h
1193 07-03-2009 22:09:49 6.4 C 4.1 g/m*3 6.4 C 0 km/h
1194 07-03-2009 22:21:48 6.2 C 4.04 g/m*3 6.2 C 0 km/h
1195 07-03-2009 22:33:49 6.4 C 4.1 g/m*3 6.4 C 0 km/h
1196 07-03-2009 22:46:50 6.4 C 4.17 g/m*3 6.4 C 0 km/h
1197 07-03-2009 22:58:50 6.2 C 4.19 g/m*3 6.2 C 0 km/h
1198 07-03-2009 23:10:50 6.3 C 4.22 g/m*3 6.3 C 0 km/h
1199 07-03-2009 23:22:50 6.3 C 4.29 g/m*3 6.3 C 0 km/h
1200 07-03-2009 23:34:50 6.5 C 4.12 g/m*3 6.5 C 0 km/h
Sensor: Nr:Datum:Temp:Abs-Feuchte:Windchill:Wind:
Aussen-T/F 1201 07-03-2009 23:46:50 6.5 C 4.2 g/m*3 6.5 C 0 km/h
1202 07-03-2009 23:58:50 6.4 C 4.25 g/m*3 6.4 C 0 km/h
1203 08-03-2009 00:10:50 6.3 C 4.22 g/m*3 6.3 C 0 km/h
1204 08-03-2009 00:22:50 6.4 C 4.25 g/m*3 6.4 C 0 km/h
1205 08-03-2009 00:34:50 6.3 C 4.22 g/m*3 6.3 C 0 km/h
1206 08-03-2009 00:46:50 6.3 C 4.29 g/m*3 6.3 C 0 km/h
1207 08-03-2009 00:58:51 6.1 C 4.31 g/m*3 6.1 C 0 km/h
1208 08-03-2009 01:10:51 5.9 C 4.4 g/m*3 5.9 C 0 km/h
1209 08-03-2009 01:22:51 6.1 C 4.38 g/m*3 6.1 C 0 km/h
1210 08-03-2009 01:34:51 6.3 C 4.44 g/m*3 6.3 C 0 km/h
1211 08-03-2009 01:46:51 6.3 C 4.44 g/m*3 6.3 C 0 km/h
1212 08-03-2009 01:58:51 6.5 C 4.35 g/m*3 6.5 C 0 km/h
1213 08-03-2009 02:10:51 6.4 C 4.4 g/m*3 6.4 C 0 km/h
1214 08-03-2009 02:22:51 6.4 C 4.4 g/m*3 6.4 C 0 km/h
1215 08-03-2009 02:34:51 6.4 C 4.4 g/m*3 6.4 C 0 km/h
1216 08-03-2009 02:46:51 6.5 C 4.57 g/m*3 6.5 C 0 km/h
1217 08-03-2009 02:58:51 6.7 C 4.64 g/m*3 6.7 C 0 km/h
1218 08-03-2009 03:10:51 6.6 C 4.6 g/m*3 6.6 C 0 km/h
1219 08-03-2009 03:22:51 6.6 C 4.68 g/m*3 6.6 C 0 km/h
1220 08-03-2009 03:34:51 6.7 C 4.71 g/m*3 6.7 C 0 km/h
1221 08-03-2009 03:46:51 6.9 C 4.77 g/m*3 6.9 C 0 km/h
1222 08-03-2009 03:58:51 7 C 4.65 g/m*3 7 C 0 km/h
1223 08-03-2009 04:10:51 7.1 C 4.76 g/m*3 7.1 C 0 km/h
1224 08-03-2009 04:22:51 7.1 C 4.76 g/m*3 7.1 C 0 km/h
1225 08-03-2009 04:34:51 7.1 C 4.76 g/m*3 7.1 C 0 km/h
Sensor: Nr:Datum:Temp:Abs-Feuchte:Windchill:Wind:
Aussen-T/F 1226 08-03-2009 04:46:52 7.2 C 4.79 g/m*3 7.2 C 0 km/h
1227 08-03-2009 04:58:52 7.2 C 4.79 g/m*3 7.2 C 0 km/h
1228 08-03-2009 05:10:52 7.2 C 4.71 g/m*3 7.2 C 0 km/h
1229 08-03-2009 05:22:52 7.3 C 4.74 g/m*3 7.3 C 0 km/h
1230 08-03-2009 05:34:52 7.2 C 4.71 g/m*3 7.2 C 0 km/h
1231 08-03-2009 05:46:52 7.3 C 4.74 g/m*3 7.3 C 0 km/h
1232 08-03-2009 05:58:52 7.3 C 4.74 g/m*3 7.3 C 0 km/h
1233 08-03-2009 06:10:52 7.2 C 4.79 g/m*3 7.2 C 0 km/h
1234 08-03-2009 06:22:52 7.2 C 4.71 g/m*3 7.2 C 0 km/h
1235 08-03-2009 06:34:52 7.3 C 4.82 g/m*3 7.3 C 0 km/h
1236 08-03-2009 06:46:52 7.3 C 4.82 g/m*3 7.3 C 0 km/h
1237 08-03-2009 06:58:52 7.3 C 4.9 g/m*3 7.3 C 0 km/h
1238 08-03-2009 07:10:52 7.3 C 4.9 g/m*3 7.3 C 0 km/h
1239 08-03-2009 07:22:52 7.3 C 4.98 g/m*3 7.3 C 0 km/h
1240 08-03-2009 07:34:52 7.3 C 4.98 g/m*3 7.3 C 0 km/h
1241 08-03-2009 07:46:49 7.3 C 5.06 g/m*3 7.3 C 0 km/h
1242 08-03-2009 07:58:49 7.4 C 5.17 g/m*3 7.4 C 0 km/h
1243 08-03-2009 08:10:50 7.5 C 5.2 g/m*3 7.5 C 0 km/h
1244 08-03-2009 08:22:50 7.8 C 5.3 g/m*3 7.8 C 0 km/h
1245 08-03-2009 08:34:49 8 C 5.21 g/m*3 8 C 0 km/h
1246 08-03-2009 08:46:49 8.1 C 5.16 g/m*3 8.1 C 0 km/h
1247 08-03-2009 08:58:49 8 C 5.21 g/m*3 8 C 0 km/h
1248 08-03-2009 09:10:49 8 C 5.21 g/m*3 8 C 0 km/h
1249 08-03-2009 09:22:49 8.2 C 5.28 g/m*3 8.2 C 0 km/h
1250 08-03-2009 09:34:48 8.2 C 5.28 g/m*3 8.2 C 0 km/h
Sensor: Nr:Datum:Temp:Abs-Feuchte:Windchill:Wind:
Aussen-T/F 1251 08-03-2009 09:46:49 8.2 C 5.28 g/m*3 8.2 C 0 km/h
1252 08-03-2009 09:58:49 8.2 C 5.28 g/m*3 8.2 C 0 km/h
1253 08-03-2009 10:10:48 8.3 C 5.31 g/m*3 8.3 C 0 km/h
1254 08-03-2009 10:22:48 8.3 C 5.31 g/m*3 8.3 C 0 km/h
1255 08-03-2009 10:34:48 8.3 C 5.39 g/m*3 8.3 C 0 km/h
1256 08-03-2009 10:46:48 8.5 C 5.46 g/m*3 8.5 C 0 km/h
1257 08-03-2009 10:58:48 8.5 C 5.55 g/m*3 8.5 C 0 km/h
1258 08-03-2009 11:10:47 8.5 C 5.64 g/m*3 8.5 C 0 km/h
1259 08-03-2009 11:22:48 8.5 C 5.64 g/m*3 8.5 C 0 km/h
1260 08-03-2009 11:34:48 8.7 C 5.71 g/m*3 8.7 C 0 km/h
1261 08-03-2009 11:46:47 8.6 C 5.67 g/m*3 8.6 C 0 km/h
1262 08-03-2009 11:58:47 8.6 C 5.76 g/m*3 8.6 C 0 km/h
1263 08-03-2009 12:10:48 8.8 C 5.83 g/m*3 8.8 C 0 km/h
1264 08-03-2009 12:22:47 9.1 C 5.68 g/m*3 9.1 C 0 km/h
1265 08-03-2009 12:34:47 9.3 C 5.66 g/m*3 9.3 C 0 km/h
1266 08-03-2009 12:46:46 9.3 C 5.57 g/m*3 9.3 C 0 km/h
1267 08-03-2009 12:58:46 9.1 C 5.77 g/m*3 9.1 C 0 km/h
1268 08-03-2009 13:10:47 8.9 C 6.13 g/m*3 8.9 C 0 km/h
1269 08-03-2009 13:22:46 8.7 C 6.31 g/m*3 8.7 C 0 km/h
1270 08-03-2009 13:34:46 8.9 C 6.48 g/m*3 8.9 C 0 km/h
1271 08-03-2009 13:46:47 9.6 C 6.32 g/m*3 9.6 C 0 km/h
1272 08-03-2009 13:58:47 10.2 C 6.09 g/m*3 10.2 C 0 km/h
1273 08-03-2009 14:10:46 10.2 C 6 g/m*3 10.2 C 0 km/h
1274 08-03-2009 14:22:46 10.1 C 5.96 g/m*3 10.1 C 0 km/h
1275 08-03-2009 14:34:46 10.4 C 5.98 g/m*3 10.4 C 0 km/h
Sensor: Nr:Datum:Temp:Abs-Feuchte:Windchill:Wind:
Aussen-T/F 1276 08-03-2009 14:46:46 10.5 C 5.92 g/m*3 10.5 C 0 km/h
1277 08-03-2009 14:58:46 10.3 C 5.94 g/m*3 10.3 C 0 km/h
1278 08-03-2009 15:10:45 10.2 C 5.9 g/m*3 10.2 C 0 km/h
1279 08-03-2009 15:22:46 9.9 C 6.16 g/m*3 9.9 C 0 km/h
1280 08-03-2009 15:34:45 9.7 C 6.36 g/m*3 9.7 C 0 km/h
1281 08-03-2009 15:46:45 10.1 C 6.24 g/m*3 10.1 C 0 km/h
1282 08-03-2009 15:58:45 9.8 C 6.31 g/m*3 9.8 C 0 km/h
1283 08-03-2009 16:10:45 9.3 C 6.56 g/m*3 9.3 C 0 km/h
1284 08-03-2009 16:22:45 9 C 6.88 g/m*3 9 C 0 km/h
1285 08-03-2009 16:34:45 8.7 C 7.09 g/m*3 8.7 C 0 km/h
1286 08-03-2009 16:46:44 8.5 C 6.92 g/m*3 8.5 C 0 km/h
1287 08-03-2009 16:58:44 8.5 C 6.92 g/m*3 8.5 C 0 km/h
1288 08-03-2009 17:10:45 8.5 C 6.83 g/m*3 8.5 C 0 km/h
1289 08-03-2009 17:22:44 8.4 C 6.87 g/m*3 8.4 C 0 km/h
1290 08-03-2009 17:34:45 8.3 C 6.91 g/m*3 8.3 C 0 km/h
1291 08-03-2009 17:46:44 8.4 C 7.04 g/m*3 8.4 C 0 km/h
1292 08-03-2009 17:58:44 8.3 C 7.08 g/m*3 8.3 C 0 km/h
1293 08-03-2009 18:10:44 8.2 C 7.03 g/m*3 8.2 C 0 km/h
1294 08-03-2009 18:22:44 8.1 C 6.99 g/m*3 8.1 C 0 km/h
1295 08-03-2009 18:34:44 8.1 C 7.07 g/m*3 8.1 C 0 km/h
1296 08-03-2009 18:46:43 8.2 C 6.45 g/m*3 8.2 C 0 km/h
1297 08-03-2009 18:58:43 8.1 C 6.24 g/m*3 8.1 C 0 km/h
1298 08-03-2009 19:10:44 8.1 C 6.32 g/m*3 8.1 C 0 km/h
1299 08-03-2009 19:22:43 7.7 C 6.24 g/m*3 7.7 C 0 km/h
1300 08-03-2009 19:34:43 7.1 C 6.16 g/m*3 7.1 C 0 km/h
Sensor: Nr:Datum:Temp:Abs-Feuchte:Windchill:Wind:
Aussen-T/F 1301 08-03-2009 19:46:43 6.9 C 6.31 g/m*3 6.9 C 0 km/h
1302 08-03-2009 19:58:43 7 C 6.43 g/m*3 7 C 0 km/h
1303 08-03-2009 20:10:43 6.9 C 6.47 g/m*3 6.9 C 0 km/h
1304 08-03-2009 20:22:43 6.9 C 6.54 g/m*3 6.9 C 0 km/h
1305 08-03-2009 20:34:42 6.6 C 6.34 g/m*3 6.6 C 0 km/h
1306 08-03-2009 20:46:43 6.2 C 6.1 g/m*3 6.2 C 0 km/h
1307 08-03-2009 20:58:43 5.8 C 6.02 g/m*3 5.8 C 0 km/h
1308 08-03-2009 21:10:43 5.4 C 5.86 g/m*3 5.4 C 0 km/h
1309 08-03-2009 21:22:42 5.2 C 5.78 g/m*3 5.2 C 0 km/h
1310 08-03-2009 21:34:42 5.1 C 5.75 g/m*3 5.1 C 0 km/h
1311 08-03-2009 21:46:42 5.1 C 5.75 g/m*3 5.1 C 0 km/h
1312 08-03-2009 21:58:42 5 C 5.71 g/m*3 5 C 0 km/h
1313 08-03-2009 22:10:42 4.8 C 5.63 g/m*3 4.8 C 0 km/h
1314 08-03-2009 22:22:41 4.7 C 5.6 g/m*3 4.7 C 0 km/h
1315 08-03-2009 22:34:41 4.6 C 5.56 g/m*3 4.6 C 0 km/h
1316 08-03-2009 22:46:41 4.8 C 5.5 g/m*3 4.8 C 0 km/h
1317 08-03-2009 22:58:41 5.3 C 4.92 g/m*3 5.3 C 0 km/h
1318 08-03-2009 23:10:41 5.3 C 4.71 g/m*3 5.3 C 0 km/h
1319 08-03-2009 23:23:43 4.7 C 4.8 g/m*3 4.7 C 0 km/h
1320 08-03-2009 23:35:43 4.6 C 4.83 g/m*3 4.6 C 0 km/h
1321 08-03-2009 23:47:43 4.5 C 4.8 g/m*3 4.5 C 0 km/h
1322 08-03-2009 23:59:43 4.4 C 4.77 g/m*3 4.4 C 0 km/h
1323 09-03-2009 00:11:43 4.4 C 4.83 g/m*3 4.4 C 0 km/h
1324 09-03-2009 00:23:43 4.8 C 4.96 g/m*3 4.8 C 0 km/h
1325 09-03-2009 00:35:43 5.1 C 4.79 g/m*3 5.1 C 0 km/h
Sensor: Nr:Datum:Temp:Abs-Feuchte:Windchill:Wind:
Aussen-T/F 1326 09-03-2009 00:47:43 5 C 4.69 g/m*3 5 C 0 km/h
1327 09-03-2009 00:59:43 5 C 4.69 g/m*3 5 C 0 km/h
1328 09-03-2009 01:11:43 4.7 C 4.73 g/m*3 4.7 C 0 km/h
1329 09-03-2009 01:23:43 4.7 C 4.2 g/m*3 4.7 C 0 km/h
1330 09-03-2009 01:35:43 4.7 C 4.46 g/m*3 4.7 C 0 km/h
1331 09-03-2009 01:47:43 4.7 C 4.46 g/m*3 4.7 C 0 km/h
1332 09-03-2009 01:59:44 4.7 C 4.06 g/m*3 4.7 C 0 km/h
1333 09-03-2009 02:11:44 4.7 C 3.73 g/m*3 4.7 C 0 km/h
1334 09-03-2009 02:23:44 4.7 C 3.66 g/m*3 4.7 C 0 km/h
1335 09-03-2009 02:35:44 4.3 C 3.63 g/m*3 4.3 C 0 km/h
1336 09-03-2009 02:47:44 3.9 C 3.79 g/m*3 3.9 C 0 km/h
1337 09-03-2009 02:59:44 3.7 C 3.74 g/m*3 3.7 C 0 km/h
1338 09-03-2009 03:11:44 3.6 C 3.71 g/m*3 3.6 C 0 km/h
1339 09-03-2009 03:23:44 3.5 C 3.75 g/m*3 3.5 C 0 km/h
1340 09-03-2009 03:35:44 3.3 C 3.76 g/m*3 3.3 C 0 km/h
1341 09-03-2009 03:47:44 3.3 C 3.94 g/m*3 3.3 C 0 km/h
1342 09-03-2009 03:59:44 3.4 C 4.03 g/m*3 3.4 C 0 km/h
1343 09-03-2009 04:11:44 3.4 C 4.09 g/m*3 3.4 C 0 km/h
1344 09-03-2009 04:23:44 3.6 C 4.15 g/m*3 3.6 C 0 km/h
1345 09-03-2009 04:35:44 3.7 C 4.3 g/m*3 3.7 C 0 km/h
1346 09-03-2009 04:47:44 3.3 C 4.49 g/m*3 3.3 C 0 km/h
1347 09-03-2009 04:59:44 3.2 C 4.64 g/m*3 3.2 C 0 km/h
1348 09-03-2009 05:11:44 3.1 C 4.67 g/m*3 3.1 C 0 km/h
1349 09-03-2009 05:23:44 3.1 C 4.73 g/m*3 3.1 C 0 km/h
1350 09-03-2009 05:35:44 3 C 4.64 g/m*3 3 C 0 km/h
Sensor: Nr:Datum:Temp:Abs-Feuchte:Windchill:Wind:
Aussen-T/F 1351 09-03-2009 05:47:45 3.2 C 4.64 g/m*3 3.2 C 0 km/h
1352 09-03-2009 05:59:45 3.3 C 4.61 g/m*3 3.3 C 0 km/h
1353 09-03-2009 06:11:45 3.1 C 4.67 g/m*3 3.1 C 0 km/h
1354 09-03-2009 06:23:45 2.5 C 4.66 g/m*3 2.5 C 0 km/h
1355 09-03-2009 06:35:45 2.3 C 4.71 g/m*3 2.3 C 0 km/h
1356 09-03-2009 06:47:45 2.1 C 4.7 g/m*3 2.1 C 0 km/h
1357 09-03-2009 06:59:42 2.2 C 4.79 g/m*3 2.2 C 0 km/h
1358 09-03-2009 07:11:42 2.2 C 4.73 g/m*3 2.2 C 0 km/h
1359 09-03-2009 07:23:42 2.1 C 4.42 g/m*3 2.1 C 0 km/h
1360 09-03-2009 07:35:41 2.1 C 4.2 g/m*3 2.1 C 0 km/h
1361 09-03-2009 07:47:42 2 C 3.95 g/m*3 2 C 0 km/h
1362 09-03-2009 07:59:41 2.1 C 3.92 g/m*3 2.1 C 0 km/h
1363 09-03-2009 08:11:41 2.2 C 3.89 g/m*3 2.2 C 0 km/h
1364 09-03-2009 08:23:41 2.6 C 3.82 g/m*3 2.6 C 0 km/h
1365 09-03-2009 08:35:42 2.5 C 3.91 g/m*3 2.5 C 0 km/h
1366 09-03-2009 08:47:41 3 C 3.92 g/m*3 3 C 0 km/h
1367 09-03-2009 08:59:41 3.4 C 3.97 g/m*3 3.4 C 0 km/h
1368 09-03-2009 09:11:41 3.5 C 4 g/m*3 3.5 C 0 km/h
1369 09-03-2009 09:23:40 3.3 C 4 g/m*3 3.3 C 0 km/h
1370 09-03-2009 09:35:41 3.7 C 4.11 g/m*3 3.7 C 0 km/h
1371 09-03-2009 09:47:40 4.2 C 3.99 g/m*3 4.2 C 0 km/h
1372 09-03-2009 09:59:40 4.5 C 4.01 g/m*3 4.5 C 0 km/h
1373 09-03-2009 10:11:41 4.7 C 4.13 g/m*3 4.7 C 0 km/h
1374 09-03-2009 10:23:40 5.1 C 3.97 g/m*3 5.1 C 0 km/h
1375 09-03-2009 10:35:40 5.3 C 4.02 g/m*3 5.3 C 0 km/h
Sensor: Nr:Datum:Temp:Abs-Feuchte:Windchill:Wind:
Aussen-T/F 1376 09-03-2009 10:47:39 5.6 C 4.03 g/m*3 5.6 C 0 km/h
1377 09-03-2009 10:59:40 5.6 C 3.96 g/m*3 5.6 C 0 km/h
1378 09-03-2009 11:11:40 6 C 3.92 g/m*3 6 C 0 km/h
1379 09-03-2009 11:23:40 5.8 C 3.94 g/m*3 5.8 C 0 km/h
1380 09-03-2009 11:35:39 6.4 C 3.95 g/m*3 6.4 C 0 km/h
1381 09-03-2009 11:47:40 6.1 C 3.8 g/m*3 6.1 C 0 km/h
1382 09-03-2009 11:59:39 6.5 C 3.97 g/m*3 6.5 C 0 km/h
1383 09-03-2009 12:11:39 7.2 C 3.92 g/m*3 7.2 C 0 km/h
1384 09-03-2009 12:23:39 7 C 3.56 g/m*3 7 C 0 km/h
1385 09-03-2009 12:35:38 7 C 3.64 g/m*3 7 C 0 km/h
1386 09-03-2009 12:47:39 7.2 C 3.69 g/m*3 7.2 C 0 km/h
1387 09-03-2009 12:59:39 7.7 C 3.49 g/m*3 7.7 C 0 km/h
1388 09-03-2009 13:11:39 7.7 C 3.49 g/m*3 7.7 C 0 km/h
1389 09-03-2009 13:23:38 7.4 C 3.42 g/m*3 7.4 C 0 km/h
1390 09-03-2009 13:35:39 7.5 C 3.52 g/m*3 7.5 C 0 km/h
1391 09-03-2009 13:47:38 7.7 C 3.24 g/m*3 7.7 C 0 km/h
1392 09-03-2009 13:59:38 8 C 3.22 g/m*3 8 C 0 km/h
1393 09-03-2009 14:11:38 7.7 C 3.24 g/m*3 7.7 C 0 km/h
1394 09-03-2009 14:23:38 8.2 C 3.35 g/m*3 8.2 C 0 km/h
1395 09-03-2009 14:35:38 8.4 C 3.48 g/m*3 8.4 C 0 km/h
1396 09-03-2009 14:47:37 8.3 C 3.46 g/m*3 8.3 C 0 km/h
1397 09-03-2009 14:59:38 7.2 C 3.69 g/m*3 7.2 C 0 km/h
1398 09-03-2009 15:11:38 6.3 C 4 g/m*3 6.3 C 0 km/h
1399 09-03-2009 15:23:37 6.9 C 4.16 g/m*3 6.9 C 0 km/h
1400 09-03-2009 15:35:37 8.1 C 3.83 g/m*3 8.1 C 0 km/h
Sensor: Nr:Datum:Temp:Abs-Feuchte:Windchill:Wind:
Aussen-T/F 1401 09-03-2009 15:47:38 8.7 C 3.63 g/m*3 8.7 C 0 km/h
1402 09-03-2009 15:59:37 8.6 C 3.52 g/m*3 8.6 C 0 km/h
1403 09-03-2009 16:11:37 9.5 C 3.55 g/m*3 9.5 C 0 km/h
1404 09-03-2009 16:23:37 8.7 C 3.55 g/m*3 8.7 C 0 km/h
1405 09-03-2009 16:35:36 8.7 C 3.72 g/m*3 8.7 C 0 km/h
1406 09-03-2009 16:47:37 8.8 C 3.74 g/m*3 8.8 C 0 km/h
1407 09-03-2009 16:59:36 9.1 C 3.37 g/m*3 9.1 C 0 km/h
1408 09-03-2009 17:11:36 8.3 C 3.37 g/m*3 8.3 C 0 km/h
1409 09-03-2009 17:23:36 8 C 3.47 g/m*3 8 C 0 km/h
1410 09-03-2009 17:35:37 7.9 C 3.61 g/m*3 7.9 C 0 km/h
1411 09-03-2009 17:47:36 7.5 C 3.68 g/m*3 7.5 C 0 km/h
1412 09-03-2009 17:59:36 7.4 C 3.66 g/m*3 7.4 C 0 km/h
1413 09-03-2009 18:11:36 7.4 C 3.74 g/m*3 7.4 C 0 km/h
1414 09-03-2009 18:23:36 7.3 C 3.71 g/m*3 7.3 C 0 km/h
1415 09-03-2009 18:35:36 7 C 3.87 g/m*3 7 C 0 km/h
1416 09-03-2009 18:47:35 6.7 C 4.1 g/m*3 6.7 C 0 km/h
1417 09-03-2009 18:59:35 6.4 C 4.17 g/m*3 6.4 C 0 km/h
1418 09-03-2009 19:11:35 6.4 C 4.1 g/m*3 6.4 C 0 km/h
1419 09-03-2009 19:23:35 6.2 C 3.82 g/m*3 6.2 C 0 km/h
1420 09-03-2009 19:35:35 6 C 3.85 g/m*3 6 C 0 km/h
1421 09-03-2009 19:47:34 5.8 C 4.01 g/m*3 5.8 C 0 km/h
1422 09-03-2009 19:59:35 5.8 C 4.08 g/m*3 5.8 C 0 km/h
1423 09-03-2009 20:11:35 5.8 C 4.23 g/m*3 5.8 C 0 km/h
1424 09-03-2009 20:23:35 5.5 C 4.28 g/m*3 5.5 C 0 km/h
1425 09-03-2009 20:35:34 5.2 C 4.34 g/m*3 5.2 C 0 km/h
Sensor: Nr:Datum:Temp:Abs-Feuchte:Windchill:Wind:
Aussen-T/F 1426 09-03-2009 20:47:35 4.9 C 4.46 g/m*3 4.9 C 0 km/h
1427 09-03-2009 20:59:34 4.8 C 4.56 g/m*3 4.8 C 0 km/h
1428 09-03-2009 21:11:34 4.6 C 4.57 g/m*3 4.6 C 0 km/h
1429 09-03-2009 21:23:34 4.4 C 4.64 g/m*3 4.4 C 0 km/h
1430 09-03-2009 21:35:34 4 C 4.77 g/m*3 4 C 0 km/h
1431 09-03-2009 21:48:35 3.8 C 4.89 g/m*3 3.8 C 0 km/h
1432 09-03-2009 22:00:35 3.8 C 4.89 g/m*3 3.8 C 0 km/h
1433 09-03-2009 22:12:35 4.1 C 4.86 g/m*3 4.1 C 0 km/h
1434 09-03-2009 22:24:35 3.7 C 4.8 g/m*3 3.7 C 0 km/h
1435 09-03-2009 22:36:35 4 C 4.58 g/m*3 4 C 0 km/h
1436 09-03-2009 22:48:35 3.9 C 4.61 g/m*3 3.9 C 0 km/h
1437 09-03-2009 23:00:35 3.7 C 4.61 g/m*3 3.7 C 0 km/h
1438 09-03-2009 23:12:35 3.5 C 4.61 g/m*3 3.5 C 0 km/h
1439 09-03-2009 23:24:35 3.3 C 4.67 g/m*3 3.3 C 0 km/h
1440 09-03-2009 23:36:35 3.2 C 4.7 g/m*3 3.2 C 0 km/h
1441 09-03-2009 23:48:35 3.4 C 4.83 g/m*3 3.4 C 0 km/h
1442 10-03-2009 00:00:35 3.4 C 4.83 g/m*3 3.4 C 0 km/h
1443 10-03-2009 00:12:35 3.3 C 4.79 g/m*3 3.3 C 0 km/h
1444 10-03-2009 00:24:35 3.4 C 4.89 g/m*3 3.4 C 0 km/h
1445 10-03-2009 00:36:35 3.7 C 4.92 g/m*3 3.7 C 0 km/h
1446 10-03-2009 00:48:35 3.9 C 4.86 g/m*3 3.9 C 0 km/h
1447 10-03-2009 01:00:35 4.1 C 4.8 g/m*3 4.1 C 0 km/h
1448 10-03-2009 01:12:35 4.2 C 4.77 g/m*3 4.2 C 0 km/h
1449 10-03-2009 01:24:36 4.3 C 4.67 g/m*3 4.3 C 0 km/h
1450 10-03-2009 01:36:36 4.3 C 4.67 g/m*3 4.3 C 0 km/h
Sensor: Nr:Datum:Temp:Abs-Feuchte:Windchill:Wind:
Aussen-T/F 1451 10-03-2009 01:48:36 4.4 C 4.64 g/m*3 4.4 C 0 km/h
1452 10-03-2009 02:00:36 4.5 C 4.6 g/m*3 4.5 C 0 km/h
1453 10-03-2009 02:12:36 4.4 C 4.64 g/m*3 4.4 C 0 km/h
1454 10-03-2009 02:24:36 4.6 C 4.57 g/m*3 4.6 C 0 km/h
1455 10-03-2009 02:36:36 4.7 C 4.46 g/m*3 4.7 C 0 km/h
1456 10-03-2009 02:48:36 4.7 C 4.4 g/m*3 4.7 C 0 km/h
1457 10-03-2009 03:00:36 4.7 C 4.4 g/m*3 4.7 C 0 km/h
1458 10-03-2009 03:12:36 4.5 C 4.4 g/m*3 4.5 C 0 km/h
1459 10-03-2009 03:24:36 4.5 C 4.4 g/m*3 4.5 C 0 km/h
1460 10-03-2009 03:36:36 4.5 C 4.4 g/m*3 4.5 C 0 km/h
1461 10-03-2009 03:48:36 4.5 C 4.47 g/m*3 4.5 C 0 km/h
1462 10-03-2009 04:00:36 4.6 C 4.43 g/m*3 4.6 C 0 km/h
1463 10-03-2009 04:12:36 4.5 C 4.4 g/m*3 4.5 C 0 km/h
1464 10-03-2009 04:24:36 4.6 C 4.43 g/m*3 4.6 C 0 km/h
1465 10-03-2009 04:36:36 4.5 C 4.4 g/m*3 4.5 C 0 km/h
1466 10-03-2009 04:48:36 4.4 C 4.44 g/m*3 4.4 C 0 km/h
1467 10-03-2009 05:00:36 4.4 C 4.37 g/m*3 4.4 C 0 km/h
1468 10-03-2009 05:12:37 4.4 C 4.44 g/m*3 4.4 C 0 km/h
1469 10-03-2009 05:24:37 4.4 C 4.44 g/m*3 4.4 C 0 km/h
1470 10-03-2009 05:36:37 4.3 C 4.48 g/m*3 4.3 C 0 km/h
1471 10-03-2009 05:48:37 4.3 C 4.54 g/m*3 4.3 C 0 km/h
1472 10-03-2009 06:00:37 4.3 C 4.61 g/m*3 4.3 C 0 km/h
1473 10-03-2009 06:12:37 4.1 C 4.61 g/m*3 4.1 C 0 km/h
1474 10-03-2009 06:24:37 4.2 C 4.64 g/m*3 4.2 C 0 km/h
1475 10-03-2009 06:36:37 4.2 C 4.64 g/m*3 4.2 C 0 km/h
Sensor: Nr:Datum:Temp:Abs-Feuchte:Windchill:Wind:
Aussen-T/F 1476 10-03-2009 06:48:37 4.3 C 4.67 g/m*3 4.3 C 0 km/h
1477 10-03-2009 07:00:35 4.3 C 4.61 g/m*3 4.3 C 0 km/h
1478 10-03-2009 07:12:35 4.3 C 4.61 g/m*3 4.3 C 0 km/h
1479 10-03-2009 07:24:34 4.2 C 4.64 g/m*3 4.2 C 0 km/h
1480 10-03-2009 07:36:35 4.2 C 4.64 g/m*3 4.2 C 0 km/h
1481 10-03-2009 07:48:34 4.3 C 4.74 g/m*3 4.3 C 0 km/h
1482 10-03-2009 08:00:34 4.5 C 4.73 g/m*3 4.5 C 0 km/h
1483 10-03-2009 08:12:34 4.7 C 4.73 g/m*3 4.7 C 0 km/h
1484 10-03-2009 08:24:35 4.8 C 4.76 g/m*3 4.8 C 0 km/h
1485 10-03-2009 08:36:34 4.9 C 4.73 g/m*3 4.9 C 0 km/h
1486 10-03-2009 08:48:34 5 C 4.69 g/m*3 5 C 0 km/h
1487 10-03-2009 09:00:33 5 C 4.69 g/m*3 5 C 0 km/h
1488 10-03-2009 09:12:33 5.2 C 4.75 g/m*3 5.2 C 0 km/h
1489 10-03-2009 09:24:34 5.2 C 4.68 g/m*3 5.2 C 0 km/h
1490 10-03-2009 09:36:34 5.3 C 4.64 g/m*3 5.3 C 0 km/h
1491 10-03-2009 09:48:33 5.3 C 4.64 g/m*3 5.3 C 0 km/h
1492 10-03-2009 10:00:34 5.4 C 4.6 g/m*3 5.4 C 0 km/h
1493 10-03-2009 10:12:34 5.5 C 4.64 g/m*3 5.5 C 0 km/h
1494 10-03-2009 10:24:33 5.6 C 4.67 g/m*3 5.6 C 0 km/h
1495 10-03-2009 10:36:33 5.7 C 4.63 g/m*3 5.7 C 0 km/h
1496 10-03-2009 10:48:33 5.9 C 4.69 g/m*3 5.9 C 0 km/h
1497 10-03-2009 11:00:33 6.1 C 4.6 g/m*3 6.1 C 0 km/h
1498 10-03-2009 11:12:33 6.3 C 4.59 g/m*3 6.3 C 0 km/h
1499 10-03-2009 11:24:32 6.4 C 4.62 g/m*3 6.4 C 0 km/h
1500 10-03-2009 11:36:33 6.3 C 4.66 g/m*3 6.3 C 0 km/h
Sensor: Nr:Datum:Temp:Abs-Feuchte:Windchill:Wind:
Aussen-T/F 1501 10-03-2009 11:48:32 6.3 C 4.66 g/m*3 6.3 C 0 km/h
1502 10-03-2009 12:00:32 6.4 C 4.69 g/m*3 6.4 C 0 km/h
1503 10-03-2009 12:12:32 6.5 C 4.65 g/m*3 6.5 C 0 km/h
1504 10-03-2009 12:24:32 6.6 C 4.6 g/m*3 6.6 C 0 km/h
1505 10-03-2009 12:36:32 6.5 C 4.57 g/m*3 6.5 C 0 km/h
1506 10-03-2009 12:48:32 6.5 C 4.57 g/m*3 6.5 C 0 km/h
1507 10-03-2009 13:00:31 6.6 C 4.6 g/m*3 6.6 C 0 km/h
1508 10-03-2009 13:12:31 6.7 C 4.64 g/m*3 6.7 C 0 km/h
1509 10-03-2009 13:24:32 6.8 C 4.67 g/m*3 6.8 C 0 km/h
1510 10-03-2009 13:36:31 6.8 C 4.67 g/m*3 6.8 C 0 km/h
1511 10-03-2009 13:48:31 7 C 4.65 g/m*3 7 C 0 km/h
1512 10-03-2009 14:00:31 7.1 C 4.6 g/m*3 7.1 C 0 km/h
1513 10-03-2009 14:12:31 7.1 C 4.52 g/m*3 7.1 C 0 km/h
1514 10-03-2009 14:24:31 7.1 C 4.6 g/m*3 7.1 C 0 km/h
1515 10-03-2009 14:36:31 6.9 C 4.7 g/m*3 6.9 C 0 km/h
1516 10-03-2009 14:48:31 6.8 C 4.74 g/m*3 6.8 C 0 km/h
1517 10-03-2009 15:00:31 6.8 C 4.67 g/m*3 6.8 C 0 km/h
1518 10-03-2009 15:12:31 6.8 C 4.67 g/m*3 6.8 C 0 km/h
1519 10-03-2009 15:24:30 6.6 C 4.6 g/m*3 6.6 C 0 km/h
1520 10-03-2009 15:36:30 6.4 C 4.62 g/m*3 6.4 C 0 km/h
1521 10-03-2009 15:48:30 6.4 C 4.55 g/m*3 6.4 C 0 km/h
1522 10-03-2009 16:00:30 6.4 C 4.32 g/m*3 6.4 C 0 km/h
1523 10-03-2009 16:12:30 6.4 C 4.47 g/m*3 6.4 C 0 km/h
1524 10-03-2009 16:24:29 5.9 C 4.47 g/m*3 5.9 C 0 km/h
1525 10-03-2009 16:36:30 5.7 C 4.7 g/m*3 5.7 C 0 km/h
Sensor: Nr:Datum:Temp:Abs-Feuchte:Windchill:Wind:
Aussen-T/F 1526 10-03-2009 16:48:30 5.4 C 4.74 g/m*3 5.4 C 0 km/h
1527 10-03-2009 17:00:29 5.6 C 4.88 g/m*3 5.6 C 0 km/h
1528 10-03-2009 17:12:29 5.6 C 4.81 g/m*3 5.6 C 0 km/h
1529 10-03-2009 17:24:30 5.8 C 4.87 g/m*3 5.8 C 0 km/h
1530 10-03-2009 17:36:29 5.7 C 4.91 g/m*3 5.7 C 0 km/h
1531 10-03-2009 17:48:29 5.7 C 4.91 g/m*3 5.7 C 0 km/h
1532 10-03-2009 18:00:28 5.8 C 5.01 g/m*3 5.8 C 0 km/h
1533 10-03-2009 18:12:28 5.7 C 5.05 g/m*3 5.7 C 0 km/h
1534 10-03-2009 18:24:29 5.8 C 5.09 g/m*3 5.8 C 0 km/h
1535 10-03-2009 18:36:29 5.8 C 5.09 g/m*3 5.8 C 0 km/h
1536 10-03-2009 18:48:28 5.9 C 5.19 g/m*3 5.9 C 0 km/h
1537 10-03-2009 19:00:29 6 C 5.15 g/m*3 6 C 0 km/h
1538 10-03-2009 19:12:29 6 C 5.23 g/m*3 6 C 0 km/h
1539 10-03-2009 19:24:28 6 C 5.3 g/m*3 6 C 0 km/h
1540 10-03-2009 19:36:28 6 C 5.37 g/m*3 6 C 0 km/h
1541 10-03-2009 19:48:28 5.8 C 5.73 g/m*3 5.8 C 0 km/h
1542 10-03-2009 20:00:28 5.8 C 5.87 g/m*3 5.8 C 0 km/h
1543 10-03-2009 20:12:28 5.8 C 5.95 g/m*3 5.8 C 0 km/h
1544 10-03-2009 20:24:27 5.9 C 5.98 g/m*3 5.9 C 0 km/h
1545 10-03-2009 20:36:27 6.5 C 5.92 g/m*3 6.5 C 0 km/h
1546 10-03-2009 20:48:27 6.9 C 5.62 g/m*3 6.9 C 0 km/h
1547 10-03-2009 21:00:27 7.2 C 5.34 g/m*3 7.2 C 0 km/h
1548 10-03-2009 21:12:27 7.3 C 5.21 g/m*3 7.3 C 0 km/h
1549 10-03-2009 21:24:27 7.3 C 5.21 g/m*3 7.3 C 0 km/h
1550 10-03-2009 21:36:27 6.8 C 5.51 g/m*3 6.8 C 0 km/h
Sensor: Nr:Datum:Temp:Abs-Feuchte:Windchill:Wind:
Aussen-T/F 1551 10-03-2009 21:49:28 6.2 C 5.44 g/m*3 6.2 C 0 km/h
1552 10-03-2009 22:01:28 5.7 C 5.34 g/m*3 5.7 C 0 km/h
1553 10-03-2009 22:13:28 5.6 C 5.3 g/m*3 5.6 C 0 km/h
1554 10-03-2009 22:25:28 5.4 C 5.37 g/m*3 5.4 C 0 km/h
1555 10-03-2009 22:37:28 5.3 C 5.34 g/m*3 5.3 C 0 km/h
1556 10-03-2009 22:49:28 5.2 C 5.51 g/m*3 5.2 C 0 km/h
1557 10-03-2009 23:01:28 5.1 C 5.47 g/m*3 5.1 C 0 km/h
1558 10-03-2009 23:13:28 5.1 C 5.47 g/m*3 5.1 C 0 km/h
1559 10-03-2009 23:25:28 5.2 C 5.37 g/m*3 5.2 C 0 km/h
1560 10-03-2009 23:37:28 5.4 C 5.02 g/m*3 5.4 C 0 km/h
1561 10-03-2009 23:49:28 5.4 C 4.81 g/m*3 5.4 C 0 km/h
1562 11-03-2009 00:01:28 5.5 C 4.64 g/m*3 5.5 C 0 km/h
1563 11-03-2009 00:13:28 5.5 C 4.78 g/m*3 5.5 C 0 km/h
1564 11-03-2009 00:25:28 5.3 C 4.78 g/m*3 5.3 C 0 km/h
1565 11-03-2009 00:37:28 5.1 C 4.72 g/m*3 5.1 C 0 km/h
1566 11-03-2009 00:49:28 5 C 4.69 g/m*3 5 C 0 km/h
1567 11-03-2009 01:01:28 4.8 C 4.69 g/m*3 4.8 C 0 km/h
1568 11-03-2009 01:13:29 4.8 C 4.69 g/m*3 4.8 C 0 km/h
1569 11-03-2009 01:25:29 4.9 C 4.66 g/m*3 4.9 C 0 km/h
1570 11-03-2009 01:37:29 4.9 C 4.66 g/m*3 4.9 C 0 km/h
1571 11-03-2009 01:49:29 4.8 C 4.63 g/m*3 4.8 C 0 km/h
1572 11-03-2009 02:01:29 4.9 C 4.59 g/m*3 4.9 C 0 km/h
1573 11-03-2009 02:13:29 5 C 4.48 g/m*3 5 C 0 km/h
1574 11-03-2009 02:25:29 4.9 C 4.52 g/m*3 4.9 C 0 km/h
1575 11-03-2009 02:37:29 4.9 C 4.59 g/m*3 4.9 C 0 km/h
Sensor: Nr:Datum:Temp:Abs-Feuchte:Windchill:Wind:
Aussen-T/F 1576 11-03-2009 02:49:29 4.8 C 4.56 g/m*3 4.8 C 0 km/h
1577 11-03-2009 03:01:29 4.6 C 4.5 g/m*3 4.6 C 0 km/h
1578 11-03-2009 03:13:29 4.5 C 4.54 g/m*3 4.5 C 0 km/h
1579 11-03-2009 03:25:29 4.5 C 4.54 g/m*3 4.5 C 0 km/h
1580 11-03-2009 03:37:29 4.6 C 4.57 g/m*3 4.6 C 0 km/h
1581 11-03-2009 03:49:29 4.7 C 4.46 g/m*3 4.7 C 0 km/h
1582 11-03-2009 04:01:29 4.7 C 4.46 g/m*3 4.7 C 0 km/h
1583 11-03-2009 04:13:29 4.7 C 4.4 g/m*3 4.7 C 0 km/h
1584 11-03-2009 04:25:29 4.7 C 4.33 g/m*3 4.7 C 0 km/h
1585 11-03-2009 04:37:29 4.7 C 4.33 g/m*3 4.7 C 0 km/h
1586 11-03-2009 04:49:29 4.7 C 4.33 g/m*3 4.7 C 0 km/h
1587 11-03-2009 05:01:30 4.7 C 4.26 g/m*3 4.7 C 0 km/h
1588 11-03-2009 05:13:30 4.6 C 4.23 g/m*3 4.6 C 0 km/h
1589 11-03-2009 05:25:30 4.6 C 4.23 g/m*3 4.6 C 0 km/h
1590 11-03-2009 05:37:30 4.6 C 4.17 g/m*3 4.6 C 0 km/h
1591 11-03-2009 05:49:30 4.6 C 4.17 g/m*3 4.6 C 0 km/h
1592 11-03-2009 06:01:30 4.6 C 4.1 g/m*3 4.6 C 0 km/h
1593 11-03-2009 06:13:30 4.1 C 4.22 g/m*3 4.1 C 0 km/h
1594 11-03-2009 06:25:30 3.9 C 4.55 g/m*3 3.9 C 0 km/h
1595 11-03-2009 06:37:30 3.6 C 4.7 g/m*3 3.6 C 0 km/h
1596 11-03-2009 06:49:30 3.6 C 4.83 g/m*3 3.6 C 0 km/h
1597 11-03-2009 07:01:27 3.7 C 4.86 g/m*3 3.7 C 0 km/h
1598 11-03-2009 07:13:28 3.9 C 4.86 g/m*3 3.9 C 0 km/h
1599 11-03-2009 07:25:28 3.9 C 4.86 g/m*3 3.9 C 0 km/h
1600 11-03-2009 07:37:27 3.8 C 4.89 g/m*3 3.8 C 0 km/h
Sensor: Nr:Datum:Temp:Abs-Feuchte:Windchill:Wind:
Aussen-T/F 1601 11-03-2009 07:49:27 4 C 4.83 g/m*3 4 C 0 km/h
1602 11-03-2009 08:01:27 4.3 C 4.74 g/m*3 4.3 C 0 km/h
1603 11-03-2009 08:13:27 4.5 C 4.6 g/m*3 4.5 C 0 km/h
1604 11-03-2009 08:25:27 4.5 C 4.6 g/m*3 4.5 C 0 km/h
1605 11-03-2009 08:37:26 4.7 C 4.6 g/m*3 4.7 C 0 km/h
1606 11-03-2009 08:49:27 4.9 C 4.59 g/m*3 4.9 C 0 km/h
1607 11-03-2009 09:01:26 4.8 C 4.69 g/m*3 4.8 C 0 km/h
1608 11-03-2009 09:13:26 4.6 C 4.83 g/m*3 4.6 C 0 km/h
1609 11-03-2009 09:25:26 4.6 C 4.83 g/m*3 4.6 C 0 km/h
1610 11-03-2009 09:37:26 4.8 C 4.9 g/m*3 4.8 C 0 km/h
1611 11-03-2009 09:49:26 4.9 C 4.93 g/m*3 4.9 C 0 km/h
1612 11-03-2009 10:01:25 4.9 C 4.79 g/m*3 4.9 C 0 km/h
1613 11-03-2009 10:13:26 5 C 4.69 g/m*3 5 C 0 km/h
1614 11-03-2009 10:25:26 4.8 C 4.69 g/m*3 4.8 C 0 km/h
1615 11-03-2009 10:37:25 4.8 C 4.69 g/m*3 4.8 C 0 km/h
1616 11-03-2009 10:49:25 4.8 C 4.63 g/m*3 4.8 C 0 km/h
1617 11-03-2009 11:01:26 5.2 C 4.54 g/m*3 5.2 C 0 km/h
1618 11-03-2009 11:13:25 5.2 C 4.54 g/m*3 5.2 C 0 km/h
1619 11-03-2009 11:25:25 5.2 C 4.48 g/m*3 5.2 C 0 km/h
1620 11-03-2009 11:37:25 5.4 C 4.47 g/m*3 5.4 C 0 km/h
1621 11-03-2009 11:49:25 5.9 C 4.54 g/m*3 5.9 C 0 km/h
1622 11-03-2009 12:01:25 6.7 C 4.33 g/m*3 6.7 C 0 km/h
1623 11-03-2009 12:13:24 7.1 C 4.21 g/m*3 7.1 C 0 km/h
1624 11-03-2009 12:25:24 7.4 C 4.29 g/m*3 7.4 C 0 km/h
1625 11-03-2009 12:37:24 7.3 C 3.95 g/m*3 7.3 C 0 km/h
Sensor: Nr:Datum:Temp:Abs-Feuchte:Windchill:Wind:
Aussen-T/F 1626 11-03-2009 12:49:24 7.4 C 4.06 g/m*3 7.4 C 0 km/h
1627 11-03-2009 13:01:24 7.1 C 4.06 g/m*3 7.1 C 0 km/h
1628 11-03-2009 13:13:24 6.2 C 4.63 g/m*3 6.2 C 0 km/h
1629 11-03-2009 13:25:24 6.5 C 4.87 g/m*3 6.5 C 0 km/h
1630 11-03-2009 13:37:24 7.3 C 4.82 g/m*3 7.3 C 0 km/h
1631 11-03-2009 13:49:24 7.9 C 4.19 g/m*3 7.9 C 0 km/h
1632 11-03-2009 14:01:23 8 C 3.72 g/m*3 8 C 0 km/h
1633 11-03-2009 14:13:24 8.1 C 3.91 g/m*3 8.1 C 0 km/h
1634 11-03-2009 14:25:24 7.6 C 3.79 g/m*3 7.6 C 0 km/h
1635 11-03-2009 14:37:23 8.5 C 3.5 g/m*3 8.5 C 0 km/h
1636 11-03-2009 14:49:23 8.5 C 3.42 g/m*3 8.5 C 0 km/h
1637 11-03-2009 15:01:23 8.6 C 3.52 g/m*3 8.6 C 0 km/h
1638 11-03-2009 15:13:23 9.3 C 3.5 g/m*3 9.3 C 0 km/h
1639 11-03-2009 15:25:23 9.4 C 3.62 g/m*3 9.4 C 0 km/h
1640 11-03-2009 15:37:23 9.7 C 3.69 g/m*3 9.7 C 0 km/h
1641 11-03-2009 15:49:22 9.1 C 3.64 g/m*3 9.1 C 0 km/h
1642 11-03-2009 16:01:23 8.5 C 3.59 g/m*3 8.5 C 0 km/h
1643 11-03-2009 16:13:22 8.4 C 3.73 g/m*3 8.4 C 0 km/h
1644 11-03-2009 16:25:22 8.5 C 3.84 g/m*3 8.5 C 0 km/h
1645 11-03-2009 16:37:22 8.6 C 3.95 g/m*3 8.6 C 0 km/h
1646 11-03-2009 16:49:22 8.3 C 3.88 g/m*3 8.3 C 0 km/h
1647 11-03-2009 17:01:22 9.1 C 4.08 g/m*3 9.1 C 0 km/h
1648 11-03-2009 17:13:21 8.5 C 3.67 g/m*3 8.5 C 0 km/h
1649 11-03-2009 17:25:21 8.4 C 3.82 g/m*3 8.4 C 0 km/h
1650 11-03-2009 17:37:22 8.3 C 3.71 g/m*3 8.3 C 0 km/h
Sensor: Nr:Datum:Temp:Abs-Feuchte:Windchill:Wind:
Aussen-T/F 1651 11-03-2009 17:49:21 8.3 C 3.71 g/m*3 8.3 C 0 km/h
1652 11-03-2009 18:01:21 8.1 C 3.66 g/m*3 8.1 C 0 km/h
1653 11-03-2009 18:13:22 7.6 C 3.79 g/m*3 7.6 C 0 km/h
1654 11-03-2009 18:25:22 7.1 C 3.9 g/m*3 7.1 C 0 km/h
1655 11-03-2009 18:37:21 6.8 C 4.13 g/m*3 6.8 C 0 km/h
1656 11-03-2009 18:49:21 6.5 C 4.12 g/m*3 6.5 C 0 km/h
1657 11-03-2009 19:01:20 6.4 C 4.17 g/m*3 6.4 C 0 km/h
1658 11-03-2009 19:13:21 6.3 C 4.22 g/m*3 6.3 C 0 km/h
1659 11-03-2009 19:25:21 6.1 C 4.02 g/m*3 6.1 C 0 km/h
1660 11-03-2009 19:37:20 5.8 C 4.01 g/m*3 5.8 C 0 km/h
1661 11-03-2009 19:49:20 5.6 C 4.03 g/m*3 5.6 C 0 km/h
1662 11-03-2009 20:01:20 5.7 C 4.06 g/m*3 5.7 C 0 km/h
1663 11-03-2009 20:13:20 5.8 C 4.01 g/m*3 5.8 C 0 km/h
1664 11-03-2009 20:25:20 5.5 C 4 g/m*3 5.5 C 0 km/h
1665 11-03-2009 20:37:20 5.3 C 4.02 g/m*3 5.3 C 0 km/h
1666 11-03-2009 20:49:20 5.1 C 4.04 g/m*3 5.1 C 0 km/h
1667 11-03-2009 21:01:20 4.8 C 4.09 g/m*3 4.8 C 0 km/h
1668 11-03-2009 21:13:20 4.6 C 4.1 g/m*3 4.6 C 0 km/h
1669 11-03-2009 21:25:20 4.3 C 4.15 g/m*3 4.3 C 0 km/h
1670 11-03-2009 21:37:19 4.2 C 4.19 g/m*3 4.2 C 0 km/h
1671 11-03-2009 21:49:20 4 C 4.13 g/m*3 4 C 0 km/h
1672 11-03-2009 22:02:20 4.1 C 4.16 g/m*3 4.1 C 0 km/h
1673 11-03-2009 22:14:20 3.7 C 4.18 g/m*3 3.7 C 0 km/h
1674 11-03-2009 22:26:20 3.5 C 4.18 g/m*3 3.5 C 0 km/h
1675 11-03-2009 22:38:20 3.4 C 4.15 g/m*3 3.4 C 0 km/h
Sensor: Nr:Datum:Temp:Abs-Feuchte:Windchill:Wind:
Aussen-T/F 1676 11-03-2009 22:50:21 3.1 C 4.13 g/m*3 3.1 C 0 km/h
1677 11-03-2009 23:02:21 3.3 C 4.19 g/m*3 3.3 C 0 km/h
1678 11-03-2009 23:14:21 3 C 4.16 g/m*3 3 C 0 km/h
1679 11-03-2009 23:26:21 2.8 C 4.22 g/m*3 2.8 C 0 km/h
1680 11-03-2009 23:38:21 2.8 C 4.28 g/m*3 2.8 C 0 km/h
1681 11-03-2009 23:50:21 3.1 C 4.25 g/m*3 3.1 C 0 km/h
1682 12-03-2009 00:02:21 3.4 C 4.28 g/m*3 3.4 C 0 km/h
1683 12-03-2009 00:14:21 3.5 C 4.24 g/m*3 3.5 C 0 km/h
1684 12-03-2009 00:26:21 3.5 C 4.18 g/m*3 3.5 C 0 km/h
1685 12-03-2009 00:38:21 3.5 C 4.18 g/m*3 3.5 C 0 km/h
1686 12-03-2009 00:50:21 3.5 C 4.18 g/m*3 3.5 C 0 km/h
1687 12-03-2009 01:02:21 3.5 C 4.18 g/m*3 3.5 C 0 km/h
1688 12-03-2009 01:14:21 3.4 C 4.15 g/m*3 3.4 C 0 km/h
1689 12-03-2009 01:26:21 3.4 C 4.15 g/m*3 3.4 C 0 km/h
1690 12-03-2009 01:38:21 3.4 C 4.21 g/m*3 3.4 C 0 km/h
1691 12-03-2009 01:50:21 3.4 C 4.15 g/m*3 3.4 C 0 km/h
1692 12-03-2009 02:02:21 3.5 C 4.18 g/m*3 3.5 C 0 km/h
1693 12-03-2009 02:14:21 3.4 C 4.15 g/m*3 3.4 C 0 km/h
1694 12-03-2009 02:26:21 3.5 C 4.18 g/m*3 3.5 C 0 km/h
1695 12-03-2009 02:38:22 3.6 C 4.15 g/m*3 3.6 C 0 km/h
1696 12-03-2009 02:50:22 3.6 C 4.15 g/m*3 3.6 C 0 km/h
1697 12-03-2009 03:02:22 3.8 C 4.08 g/m*3 3.8 C 0 km/h
1698 12-03-2009 03:14:22 3.8 C 4.02 g/m*3 3.8 C 0 km/h
1699 12-03-2009 03:26:22 3.8 C 4.02 g/m*3 3.8 C 0 km/h
1700 12-03-2009 03:38:22 3.9 C 4.04 g/m*3 3.9 C 0 km/h
Sensor: Nr:Datum:Temp:Abs-Feuchte:Windchill:Wind:
Aussen-T/F 1701 12-03-2009 03:50:22 4.1 C 3.9 g/m*3 4.1 C 0 km/h
1702 12-03-2009 04:02:22 4 C 3.94 g/m*3 4 C 0 km/h
1703 12-03-2009 04:14:22 4 C 3.94 g/m*3 4 C 0 km/h
1704 12-03-2009 04:26:22 4.1 C 3.97 g/m*3 4.1 C 0 km/h
1705 12-03-2009 04:38:22 4.2 C 3.93 g/m*3 4.2 C 0 km/h
1706 12-03-2009 04:50:22 4.2 C 3.93 g/m*3 4.2 C 0 km/h
1707 12-03-2009 05:02:22 4.4 C 3.92 g/m*3 4.4 C 0 km/h
1708 12-03-2009 05:14:22 4.3 C 3.89 g/m*3 4.3 C 0 km/h
1709 12-03-2009 05:26:22 4.5 C 3.81 g/m*3 4.5 C 0 km/h
1710 12-03-2009 05:38:22 4.6 C 3.9 g/m*3 4.6 C 0 km/h
1711 12-03-2009 05:50:22 4.4 C 3.92 g/m*3 4.4 C 0 km/h
1712 12-03-2009 06:02:22 4.4 C 3.98 g/m*3 4.4 C 0 km/h
1713 12-03-2009 06:14:22 4.5 C 4.01 g/m*3 4.5 C 0 km/h
1714 12-03-2009 06:26:23 4.7 C 4 g/m*3 4.7 C 0 km/h
1715 12-03-2009 06:38:23 4.8 C 3.96 g/m*3 4.8 C 0 km/h
1716 12-03-2009 06:50:23 4.8 C 3.96 g/m*3 4.8 C 0 km/h
1717 12-03-2009 07:02:20 4.7 C 3.93 g/m*3 4.7 C 0 km/h
1718 12-03-2009 07:14:20 4.7 C 4 g/m*3 4.7 C 0 km/h
1719 12-03-2009 07:26:20 4.7 C 4 g/m*3 4.7 C 0 km/h
1720 12-03-2009 07:38:20 4.8 C 4.02 g/m*3 4.8 C 0 km/h
1721 12-03-2009 07:50:19 4.9 C 3.98 g/m*3 4.9 C 0 km/h
1722 12-03-2009 08:02:19 5 C 4.01 g/m*3 5 C 0 km/h
1723 12-03-2009 08:14:20 5.1 C 3.97 g/m*3 5.1 C 0 km/h
1724 12-03-2009 08:26:20 5.1 C 3.97 g/m*3 5.1 C 0 km/h
1725 12-03-2009 08:38:19 5.2 C 3.99 g/m*3 5.2 C 0 km/h
Sensor: Nr:Datum:Temp:Abs-Feuchte:Windchill:Wind:
Aussen-T/F 1726 12-03-2009 08:50:19 5.1 C 4.24 g/m*3 5.1 C 0 km/h
1727 12-03-2009 09:02:19 5 C 4.42 g/m*3 5 C 0 km/h
1728 12-03-2009 09:14:19 4.9 C 4.66 g/m*3 4.9 C 0 km/h
1729 12-03-2009 09:26:19 4.8 C 4.76 g/m*3 4.8 C 0 km/h
1730 12-03-2009 09:38:18 4.7 C 4.86 g/m*3 4.7 C 0 km/h
1731 12-03-2009 09:50:19 4.8 C 4.83 g/m*3 4.8 C 0 km/h
1732 12-03-2009 10:02:18 4.6 C 4.83 g/m*3 4.6 C 0 km/h
1733 12-03-2009 10:14:18 4.6 C 4.9 g/m*3 4.6 C 0 km/h
1734 12-03-2009 10:26:18 4.5 C 4.93 g/m*3 4.5 C 0 km/h
1735 12-03-2009 10:38:18 4.7 C 4.93 g/m*3 4.7 C 0 km/h
1736 12-03-2009 10:50:18 5.1 C 4.79 g/m*3 5.1 C 0 km/h
1737 12-03-2009 11:02:18 5.4 C 4.74 g/m*3 5.4 C 0 km/h
1738 12-03-2009 11:14:17 5.5 C 4.64 g/m*3 5.5 C 0 km/h
1739 12-03-2009 11:26:17 5.5 C 4.64 g/m*3 5.5 C 0 km/h
1740 12-03-2009 11:38:18 5.5 C 4.78 g/m*3 5.5 C 0 km/h
1741 12-03-2009 11:50:17 5.7 C 4.7 g/m*3 5.7 C 0 km/h
1742 12-03-2009 12:02:17 6.1 C 4.68 g/m*3 6.1 C 0 km/h
1743 12-03-2009 12:14:18 6.5 C 4.72 g/m*3 6.5 C 0 km/h
1744 12-03-2009 12:26:18 6.5 C 4.72 g/m*3 6.5 C 0 km/h
1745 12-03-2009 12:38:17 6.5 C 4.8 g/m*3 6.5 C 0 km/h
1746 12-03-2009 12:50:17 6.6 C 4.83 g/m*3 6.6 C 0 km/h
1747 12-03-2009 13:02:16 6.7 C 4.86 g/m*3 6.7 C 0 km/h
1748 12-03-2009 13:14:17 6.8 C 4.89 g/m*3 6.8 C 0 km/h
1749 12-03-2009 13:26:17 6.8 C 4.89 g/m*3 6.8 C 0 km/h
1750 12-03-2009 13:38:16 6.8 C 4.89 g/m*3 6.8 C 0 km/h
Sensor: Nr:Datum:Temp:Abs-Feuchte:Windchill:Wind:
Aussen-T/F 1751 12-03-2009 13:50:17 6.9 C 4.93 g/m*3 6.9 C 0 km/h
1752 12-03-2009 14:02:16 6.9 C 5 g/m*3 6.9 C 0 km/h
1753 12-03-2009 14:14:16 6.8 C 5.05 g/m*3 6.8 C 0 km/h
1754 12-03-2009 14:26:16 6.9 C 5.16 g/m*3 6.9 C 0 km/h
1755 12-03-2009 14:38:16 6.9 C 5.16 g/m*3 6.9 C 0 km/h
1756 12-03-2009 14:50:16 7 C 5.35 g/m*3 7 C 0 km/h
1757 12-03-2009 15:02:16 6.8 C 5.51 g/m*3 6.8 C 0 km/h
1758 12-03-2009 15:14:15 6.5 C 5.55 g/m*3 6.5 C 0 km/h
1759 12-03-2009 15:26:15 6.4 C 5.74 g/m*3 6.4 C 0 km/h
1760 12-03-2009 15:38:16 6.8 C 6.04 g/m*3 6.8 C 0 km/h
1761 12-03-2009 15:50:15 6.9 C 6 g/m*3 6.9 C 0 km/h
1762 12-03-2009 16:02:15 7 C 5.81 g/m*3 7 C 0 km/h
1763 12-03-2009 16:14:14 7.1 C 5.85 g/m*3 7.1 C 0 km/h
1764 12-03-2009 16:26:14 7.1 C 5.85 g/m*3 7.1 C 0 km/h
1765 12-03-2009 16:38:15 7.2 C 5.89 g/m*3 7.2 C 0 km/h
1766 12-03-2009 16:50:14 7.1 C 5.85 g/m*3 7.1 C 0 km/h
1767 12-03-2009 17:02:14 7.1 C 5.85 g/m*3 7.1 C 0 km/h
1768 12-03-2009 17:14:15 6.9 C 6 g/m*3 6.9 C 0 km/h
1769 12-03-2009 17:26:15 6.9 C 6.16 g/m*3 6.9 C 0 km/h
1770 12-03-2009 17:38:14 6.9 C 6.16 g/m*3 6.9 C 0 km/h
1771 12-03-2009 17:50:14 6.9 C 6.16 g/m*3 6.9 C 0 km/h
1772 12-03-2009 18:02:14 6.8 C 6.19 g/m*3 6.8 C 0 km/h
1773 12-03-2009 18:14:14 6.7 C 6.31 g/m*3 6.7 C 0 km/h
1774 12-03-2009 18:26:14 6.7 C 6.38 g/m*3 6.7 C 0 km/h
1775 12-03-2009 18:38:14 6.7 C 6.53 g/m*3 6.7 C 0 km/h
Sensor: Nr:Datum:Temp:Abs-Feuchte:Windchill:Wind:
Aussen-T/F 1776 12-03-2009 18:50:13 6.7 C 6.61 g/m*3 6.7 C 0 km/h
1777 12-03-2009 19:02:13 6.7 C 6.69 g/m*3 6.7 C 0 km/h
1778 12-03-2009 19:14:13 6.7 C 6.76 g/m*3 6.7 C 0 km/h
1779 12-03-2009 19:26:13 6.9 C 6.93 g/m*3 6.9 C 0 km/h
1780 12-03-2009 19:38:13 6.9 C 7.01 g/m*3 6.9 C 0 km/h
1781 12-03-2009 19:50:13 7.1 C 7.02 g/m*3 7.1 C 0 km/h
1782 12-03-2009 20:02:13 7.2 C 7.14 g/m*3 7.2 C 0 km/h
1783 12-03-2009 20:14:13 7.1 C 7.1 g/m*3 7.1 C 0 km/h
1784 12-03-2009 20:26:13 7.2 C 7.14 g/m*3 7.2 C 0 km/h
1785 12-03-2009 20:38:12 7.1 C 7.1 g/m*3 7.1 C 0 km/h
1786 12-03-2009 20:50:13 7.2 C 7.14 g/m*3 7.2 C 0 km/h
1787 12-03-2009 21:02:13 7.1 C 7.1 g/m*3 7.1 C 0 km/h
1788 12-03-2009 21:14:12 7.1 C 7.1 g/m*3 7.1 C 0 km/h
1789 12-03-2009 21:26:12 7.1 C 7.1 g/m*3 7.1 C 0 km/h
1790 12-03-2009 21:38:12 7.2 C 7.14 g/m*3 7.2 C 0 km/h
1791 12-03-2009 21:50:12 7.2 C 7.14 g/m*3 7.2 C 0 km/h
1792 12-03-2009 22:03:12 7.2 C 7.06 g/m*3 7.2 C 0 km/h
1793 12-03-2009 22:15:12 7.2 C 7.06 g/m*3 7.2 C 0 km/h
1794 12-03-2009 22:27:12 7.3 C 7.11 g/m*3 7.3 C 0 km/h
1795 12-03-2009 22:39:12 7.4 C 7.08 g/m*3 7.4 C 0 km/h
1796 12-03-2009 22:51:12 7.4 C 7 g/m*3 7.4 C 0 km/h
1797 12-03-2009 23:03:12 7.5 C 7.04 g/m*3 7.5 C 0 km/h
1798 12-03-2009 23:15:12 7.6 C 7.01 g/m*3 7.6 C 0 km/h
1799 12-03-2009 23:27:12 7.7 C 6.97 g/m*3 7.7 C 0 km/h
1800 12-03-2009 23:39:12 7.7 C 6.97 g/m*3 7.7 C 0 km/h
Sensor: Nr:Datum:Temp:Abs-Feuchte:Windchill:Wind:
Aussen-T/F 1801 12-03-2009 23:51:12 7.8 C 7.02 g/m*3 7.8 C 0 km/h
1802 13-03-2009 00:03:12 7.8 C 6.94 g/m*3 7.8 C 0 km/h
1803 13-03-2009 00:15:12 7.8 C 7.02 g/m*3 7.8 C 0 km/h
1804 13-03-2009 00:27:12 7.8 C 7.02 g/m*3 7.8 C 0 km/h
1805 13-03-2009 00:39:12 7.8 C 7.02 g/m*3 7.8 C 0 km/h
1806 13-03-2009 00:51:12 7.7 C 7.05 g/m*3 7.7 C 0 km/h
1807 13-03-2009 01:03:12 7.7 C 7.05 g/m*3 7.7 C 0 km/h
1808 13-03-2009 01:15:12 7.7 C 7.14 g/m*3 7.7 C 0 km/h
1809 13-03-2009 01:27:12 7.6 C 7.09 g/m*3 7.6 C 0 km/h
1810 13-03-2009 01:39:12 7.6 C 7.09 g/m*3 7.6 C 0 km/h
1811 13-03-2009 01:51:12 7.5 C 7.12 g/m*3 7.5 C 0 km/h
1812 13-03-2009 02:03:13 7.5 C 7.12 g/m*3 7.5 C 0 km/h
1813 13-03-2009 02:15:13 7.5 C 7.2 g/m*3 7.5 C 0 km/h
1814 13-03-2009 02:27:13 7.5 C 7.2 g/m*3 7.5 C 0 km/h
1815 13-03-2009 02:39:13 7.4 C 7.16 g/m*3 7.4 C 0 km/h
1816 13-03-2009 02:51:13 7.4 C 7.24 g/m*3 7.4 C 0 km/h
1817 13-03-2009 03:03:13 7.3 C 7.19 g/m*3 7.3 C 0 km/h
1818 13-03-2009 03:15:13 7.5 C 7.28 g/m*3 7.5 C 0 km/h
1819 13-03-2009 03:27:13 7.5 C 7.12 g/m*3 7.5 C 0 km/h
1820 13-03-2009 03:39:13 7.4 C 7 g/m*3 7.4 C 0 km/h
1821 13-03-2009 03:51:13 7.3 C 6.87 g/m*3 7.3 C 0 km/h
1822 13-03-2009 04:03:13 7.3 C 6.79 g/m*3 7.3 C 0 km/h
1823 13-03-2009 04:15:13 7.3 C 6.87 g/m*3 7.3 C 0 km/h
1824 13-03-2009 04:27:13 7.3 C 6.87 g/m*3 7.3 C 0 km/h
1825 13-03-2009 04:39:13 7.1 C 6.79 g/m*3 7.1 C 0 km/h
Sensor: Nr:Datum:Temp:Abs-Feuchte:Windchill:Wind:
Aussen-T/F 1826 13-03-2009 04:51:13 7.2 C 6.75 g/m*3 7.2 C 0 km/h
1827 13-03-2009 05:03:13 7.3 C 6.72 g/m*3 7.3 C 0 km/h
1828 13-03-2009 05:15:13 6.9 C 6.47 g/m*3 6.9 C 0 km/h
1829 13-03-2009 05:27:13 6.6 C 6.42 g/m*3 6.6 C 0 km/h
1830 13-03-2009 05:39:13 6.3 C 6.29 g/m*3 6.3 C 0 km/h
1831 13-03-2009 05:51:14 6.1 C 6.28 g/m*3 6.1 C 0 km/h
1832 13-03-2009 06:03:14 5.9 C 6.27 g/m*3 5.9 C 0 km/h
1833 13-03-2009 06:15:14 5.7 C 6.19 g/m*3 5.7 C 0 km/h
1834 13-03-2009 06:27:14 5.6 C 6.22 g/m*3 5.6 C 0 km/h
1835 13-03-2009 06:39:14 5.5 C 6.18 g/m*3 5.5 C 0 km/h
1836 13-03-2009 06:51:14 5.4 C 6.14 g/m*3 5.4 C 0 km/h
1837 13-03-2009 07:03:12 5.4 C 6.14 g/m*3 5.4 C 0 km/h
1838 13-03-2009 07:15:12 5.4 C 6.21 g/m*3 5.4 C 0 km/h
1839 13-03-2009 07:27:12 5.4 C 6.21 g/m*3 5.4 C 0 km/h
1840 13-03-2009 07:39:12 5.4 C 6.21 g/m*3 5.4 C 0 km/h
1841 13-03-2009 07:51:12 5.5 C 6.25 g/m*3 5.5 C 0 km/h
1842 13-03-2009 08:03:11 5.7 C 6.33 g/m*3 5.7 C 0 km/h
1843 13-03-2009 08:15:12 5.9 C 6.49 g/m*3 5.9 C 0 km/h
1844 13-03-2009 08:27:12 5.9 C 6.49 g/m*3 5.9 C 0 km/h
1845 13-03-2009 08:39:11 5.9 C 6.49 g/m*3 5.9 C 0 km/h
1846 13-03-2009 08:51:11 5.9 C 6.42 g/m*3 5.9 C 0 km/h
1847 13-03-2009 09:03:11 5.9 C 6.42 g/m*3 5.9 C 0 km/h
1848 13-03-2009 09:15:11 6.4 C 6.63 g/m*3 6.4 C 0 km/h
1849 13-03-2009 09:27:11 7.3 C 7.11 g/m*3 7.3 C 0 km/h
1850 13-03-2009 09:39:11 7.4 C 6.84 g/m*3 7.4 C 0 km/h
Sensor: Nr:Datum:Temp:Abs-Feuchte:Windchill:Wind:
Aussen-T/F 1851 13-03-2009 09:51:10 8 C 6.78 g/m*3 8 C 0 km/h
1852 13-03-2009 10:03:11 8.6 C 6.7 g/m*3 8.6 C 0 km/h
1853 13-03-2009 10:15:10 8.8 C 6.35 g/m*3 8.8 C 0 km/h
1854 13-03-2009 10:27:10 9.3 C 5.84 g/m*3 9.3 C 0 km/h
1855 13-03-2009 10:39:10 9.5 C 5.73 g/m*3 9.5 C 0 km/h
1856 13-03-2009 10:51:10 9.7 C 5.53 g/m*3 9.7 C 0 km/h
1857 13-03-2009 11:03:10 10 C 5.54 g/m*3 10 C 0 km/h
1858 13-03-2009 11:15:10 10.3 C 5.36 g/m*3 10.3 C 0 km/h
1859 13-03-2009 11:27:10 10.2 C 5.23 g/m*3 10.2 C 0 km/h
1860 13-03-2009 11:39:09 10.7 C 5.5 g/m*3 10.7 C 0 km/h
1861 13-03-2009 11:51:10 11.7 C 5.12 g/m*3 11.7 C 0 km/h
1862 13-03-2009 12:03:09 11.6 C 4.89 g/m*3 11.6 C 0 km/h
1863 13-03-2009 12:15:09 11.9 C 4.77 g/m*3 11.9 C 0 km/h
1864 13-03-2009 12:27:10 11.3 C 4.49 g/m*3 11.3 C 0 km/h
1865 13-03-2009 12:39:09 10.9 C 4.28 g/m*3 10.9 C 0 km/h
1866 13-03-2009 12:51:09 11.7 C 4.81 g/m*3 11.7 C 0 km/h
1867 13-03-2009 13:03:08 11.9 C 4.24 g/m*3 11.9 C 0 km/h
1868 13-03-2009 13:15:09 11.8 C 4.32 g/m*3 11.8 C 0 km/h
1869 13-03-2009 13:27:09 12.1 C 3.75 g/m*3 12.1 C 0 km/h
1870 13-03-2009 13:39:09 12.5 C 3.85 g/m*3 12.5 C 0 km/h
1871 13-03-2009 13:51:08 14.1 C 3.88 g/m*3 14.1 C 0 km/h
1872 13-03-2009 14:03:09 13.9 C 3.72 g/m*3 13.9 C 0 km/h
1873 13-03-2009 14:15:08 13.1 C 3.65 g/m*3 13.1 C 0 km/h
1874 13-03-2009 14:27:08 13.2 C 3.44 g/m*3 13.2 C 0 km/h
1875 13-03-2009 14:39:08 13.4 C 3.49 g/m*3 13.4 C 0 km/h
Sensor: Nr:Datum:Temp:Abs-Feuchte:Windchill:Wind:
Aussen-T/F 1876 13-03-2009 14:51:07 13.6 C 3.65 g/m*3 13.6 C 0 km/h
1877 13-03-2009 15:03:08 14 C 3.5 g/m*3 14 C 0 km/h
1878 13-03-2009 15:15:08 13.7 C 3.32 g/m*3 13.7 C 0 km/h
1879 13-03-2009 15:27:08 13.9 C 3.48 g/m*3 13.9 C 0 km/h
1880 13-03-2009 15:39:07 14.1 C 3.52 g/m*3 14.1 C 0 km/h
1881 13-03-2009 15:51:08 13.6 C 3.3 g/m*3 13.6 C 0 km/h
1882 13-03-2009 16:03:07 13.8 C 3.46 g/m*3 13.8 C 0 km/h
1883 13-03-2009 16:15:07 13.5 C 3.28 g/m*3 13.5 C 0 km/h
1884 13-03-2009 16:27:07 13.3 C 3.35 g/m*3 13.3 C 0 km/h
1885 13-03-2009 16:39:07 13.1 C 3.42 g/m*3 13.1 C 0 km/h
1886 13-03-2009 16:51:07 13.2 C 3.56 g/m*3 13.2 C 0 km/h
1887 13-03-2009 17:03:06 13 C 3.4 g/m*3 13 C 0 km/h
1888 13-03-2009 17:15:07 12.9 C 3.38 g/m*3 12.9 C 0 km/h
1889 13-03-2009 17:27:07 12.8 C 3.81 g/m*3 12.8 C 0 km/h
1890 13-03-2009 17:39:06 12.6 C 3.98 g/m*3 12.6 C 0 km/h
1891 13-03-2009 17:51:06 12.4 C 4.48 g/m*3 12.4 C 0 km/h
1892 13-03-2009 18:03:06 11.7 C 4.39 g/m*3 11.7 C 0 km/h
1893 13-03-2009 18:15:06 11.1 C 4.33 g/m*3 11.1 C 0 km/h
1894 13-03-2009 18:27:06 10.4 C 4.24 g/m*3 10.4 C 0 km/h
1895 13-03-2009 18:39:05 9.8 C 4.27 g/m*3 9.8 C 0 km/h
1896 13-03-2009 18:51:06 9.2 C 4.29 g/m*3 9.2 C 0 km/h
1897 13-03-2009 19:03:06 9 C 4.23 g/m*3 9 C 0 km/h
1898 13-03-2009 19:15:05 8.6 C 4.47 g/m*3 8.6 C 0 km/h
1899 13-03-2009 19:27:05 8.3 C 4.55 g/m*3 8.3 C 0 km/h
1900 13-03-2009 19:39:05 8.1 C 4.49 g/m*3 8.1 C 0 km/h
Sensor: Nr:Datum:Temp:Abs-Feuchte:Windchill:Wind:
Aussen-T/F 1901 13-03-2009 19:51:05 8 C 4.46 g/m*3 8 C 0 km/h
1902 13-03-2009 20:03:05 7.8 C 4.65 g/m*3 7.8 C 0 km/h
1903 13-03-2009 20:15:04 7.6 C 4.75 g/m*3 7.6 C 0 km/h
1904 13-03-2009 20:27:04 7.4 C 4.77 g/m*3 7.4 C 0 km/h
1905 13-03-2009 20:39:05 7.2 C 4.79 g/m*3 7.2 C 0 km/h
1906 13-03-2009 20:51:04 6.9 C 4.85 g/m*3 6.9 C 0 km/h
1907 13-03-2009 21:03:04 6.6 C 4.83 g/m*3 6.6 C 0 km/h
1908 13-03-2009 21:15:04 6.5 C 4.8 g/m*3 6.5 C 0 km/h
1909 13-03-2009 21:27:04 6.3 C 4.74 g/m*3 6.3 C 0 km/h
1910 13-03-2009 21:39:04 6.1 C 4.75 g/m*3 6.1 C 0 km/h
1911 13-03-2009 21:51:04 5.9 C 4.83 g/m*3 5.9 C 0 km/h
1912 13-03-2009 22:03:04 5.8 C 4.8 g/m*3 5.8 C 0 km/h
1913 13-03-2009 22:15:03 5.8 C 4.8 g/m*3 5.8 C 0 km/h
1914 13-03-2009 22:27:03 5.6 C 4.74 g/m*3 5.6 C 0 km/h
1915 13-03-2009 22:39:04 5.6 C 4.81 g/m*3 5.6 C 0 km/h
1916 13-03-2009 22:52:05 5.4 C 4.81 g/m*3 5.4 C 0 km/h
1917 13-03-2009 23:04:05 5.3 C 4.85 g/m*3 5.3 C 0 km/h
1918 13-03-2009 23:16:05 5.2 C 4.82 g/m*3 5.2 C 0 km/h
1919 13-03-2009 23:28:05 5 C 4.76 g/m*3 5 C 0 km/h
1920 13-03-2009 23:40:05 4.9 C 4.86 g/m*3 4.9 C 0 km/h
1921 13-03-2009 23:52:05 4.8 C 4.83 g/m*3 4.8 C 0 km/h
1922 14-03-2009 00:04:05 4.6 C 4.83 g/m*3 4.6 C 0 km/h
1923 14-03-2009 00:16:05 4.5 C 4.8 g/m*3 4.5 C 0 km/h
1924 14-03-2009 00:28:05 4.5 C 4.86 g/m*3 4.5 C 0 km/h
1925 14-03-2009 00:40:06 4.4 C 4.83 g/m*3 4.4 C 0 km/h
Sensor: Nr:Datum:Temp:Abs-Feuchte:Windchill:Wind:
Aussen-T/F 1926 14-03-2009 00:52:06 4.2 C 4.9 g/m*3 4.2 C 0 km/h
1927 14-03-2009 01:04:06 4.1 C 4.86 g/m*3 4.1 C 0 km/h
1928 14-03-2009 01:16:06 4 C 4.83 g/m*3 4 C 0 km/h
1929 14-03-2009 01:28:06 4 C 4.83 g/m*3 4 C 0 km/h
1930 14-03-2009 01:40:06 3.7 C 4.86 g/m*3 3.7 C 0 km/h
1931 14-03-2009 01:52:06 3.9 C 4.93 g/m*3 3.9 C 0 km/h
1932 14-03-2009 02:04:06 3.8 C 4.89 g/m*3 3.8 C 0 km/h
1933 14-03-2009 02:16:06 3.7 C 4.86 g/m*3 3.7 C 0 km/h
1934 14-03-2009 02:28:06 3.5 C 4.86 g/m*3 3.5 C 0 km/h
1935 14-03-2009 02:40:06 3.4 C 4.83 g/m*3 3.4 C 0 km/h
1936 14-03-2009 02:52:06 3.6 C 4.95 g/m*3 3.6 C 0 km/h
1937 14-03-2009 03:04:06 3.6 C 4.95 g/m*3 3.6 C 0 km/h
1938 14-03-2009 03:16:06 3.2 C 4.82 g/m*3 3.2 C 0 km/h
1939 14-03-2009 03:28:06 3.3 C 4.85 g/m*3 3.3 C 0 km/h
1940 14-03-2009 03:40:06 3.4 C 4.95 g/m*3 3.4 C 0 km/h
1941 14-03-2009 03:52:06 3.4 C 4.95 g/m*3 3.4 C 0 km/h
1942 14-03-2009 04:04:06 3.4 C 4.95 g/m*3 3.4 C 0 km/h
1943 14-03-2009 04:16:06 3.3 C 4.91 g/m*3 3.3 C 0 km/h
1944 14-03-2009 04:28:06 3 C 4.76 g/m*3 3 C 0 km/h
1945 14-03-2009 04:40:07 3 C 4.82 g/m*3 3 C 0 km/h
1946 14-03-2009 04:52:07 2.7 C 4.78 g/m*3 2.7 C 0 km/h
1947 14-03-2009 05:04:07 2.6 C 4.75 g/m*3 2.6 C 0 km/h
1948 14-03-2009 05:16:07 2.6 C 4.8 g/m*3 2.6 C 0 km/h
1949 14-03-2009 05:28:07 2.6 C 4.8 g/m*3 2.6 C 0 km/h
1950 14-03-2009 05:40:07 2.8 C 4.93 g/m*3 2.8 C 0 km/h
Sensor: Nr:Datum:Temp:Abs-Feuchte:Windchill:Wind:
Aussen-T/F 1951 14-03-2009 05:52:07 3 C 4.99 g/m*3 3 C 0 km/h
1952 14-03-2009 06:04:07 3.2 C 5.06 g/m*3 3.2 C 0 km/h
1953 14-03-2009 06:16:07 3.3 C 5.1 g/m*3 3.3 C 0 km/h
1954 14-03-2009 06:28:07 3.3 C 5.1 g/m*3 3.3 C 0 km/h
1955 14-03-2009 06:40:07 3.5 C 5.16 g/m*3 3.5 C 0 km/h
1956 14-03-2009 06:52:07 3.7 C 5.23 g/m*3 3.7 C 0 km/h
1957 14-03-2009 07:04:07 3.8 C 5.21 g/m*3 3.8 C 0 km/h
1958 14-03-2009 07:16:07 3.8 C 5.14 g/m*3 3.8 C 0 km/h
1959 14-03-2009 07:28:07 3.8 C 5.14 g/m*3 3.8 C 0 km/h
1960 14-03-2009 07:40:07 4.1 C 5.18 g/m*3 4.1 C 0 km/h
1961 14-03-2009 07:52:07 4.2 C 5.15 g/m*3 4.2 C 0 km/h
1962 14-03-2009 08:04:07 4.4 C 5.16 g/m*3 4.4 C 0 km/h
1963 14-03-2009 08:16:04 4.6 C 5.23 g/m*3 4.6 C 0 km/h
1964 14-03-2009 08:28:04 4.8 C 5.3 g/m*3 4.8 C 0 km/h
1965 14-03-2009 08:40:05 5.4 C 5.37 g/m*3 5.4 C 0 km/h
1966 14-03-2009 08:52:05 5.6 C 5.3 g/m*3 5.6 C 0 km/h
1967 14-03-2009 09:04:04 5.9 C 5.34 g/m*3 5.9 C 0 km/h
1968 14-03-2009 09:16:04 6.2 C 5.29 g/m*3 6.2 C 0 km/h
1969 14-03-2009 09:28:04 6.3 C 5.18 g/m*3 6.3 C 0 km/h
1970 14-03-2009 09:40:04 6.8 C 5.35 g/m*3 6.8 C 0 km/h
1971 14-03-2009 09:52:04 7.1 C 5.15 g/m*3 7.1 C 0 km/h
1972 14-03-2009 10:04:04 7.4 C 5.17 g/m*3 7.4 C 0 km/h
1973 14-03-2009 10:16:03 7.9 C 5.26 g/m*3 7.9 C 0 km/h
1974 14-03-2009 10:28:03 8.5 C 5.21 g/m*3 8.5 C 0 km/h
1975 14-03-2009 10:40:04 9.4 C 5.25 g/m*3 9.4 C 0 km/h
Sensor: Nr:Datum:Temp:Abs-Feuchte:Windchill:Wind:
Aussen-T/F 1976 14-03-2009 10:52:03 9.8 C 5.29 g/m*3 9.8 C 0 km/h
1977 14-03-2009 11:04:03 10.4 C 5.3 g/m*3 10.4 C 0 km/h
1978 14-03-2009 11:16:03 10.9 C 5.27 g/m*3 10.9 C 0 km/h
1979 14-03-2009 11:28:03 11.3 C 5.3 g/m*3 11.3 C 0 km/h
1980 14-03-2009 11:40:03 11.6 C 5.2 g/m*3 11.6 C 0 km/h
1981 14-03-2009 11:52:02 12.1 C 5.15 g/m*3 12.1 C 0 km/h
1982 14-03-2009 12:04:03 12.5 C 4.95 g/m*3 12.5 C 0 km/h
1983 14-03-2009 12:16:03 12.4 C 4.7 g/m*3 12.4 C 0 km/h
1984 14-03-2009 12:28:03 13 C 4.88 g/m*3 13 C 0 km/h
1985 14-03-2009 12:40:02 13.4 C 4.77 g/m*3 13.4 C 0 km/h
1986 14-03-2009 12:52:03 13.7 C 4.74 g/m*3 13.7 C 0 km/h
1987 14-03-2009 13:04:02 13.6 C 4.71 g/m*3 13.6 C 0 km/h
1988 14-03-2009 13:16:02 13.8 C 4.77 g/m*3 13.8 C 0 km/h
1989 14-03-2009 13:28:02 14.1 C 4.73 g/m*3 14.1 C 0 km/h
1990 14-03-2009 13:40:02 14.5 C 4.73 g/m*3 14.5 C 0 km/h
1991 14-03-2009 13:52:02 14.7 C 4.66 g/m*3 14.7 C 0 km/h
1992 14-03-2009 14:04:01 15.4 C 4.6 g/m*3 15.4 C 0 km/h
1993 14-03-2009 14:16:01 15.8 C 4.58 g/m*3 15.8 C 0 km/h
1994 14-03-2009 14:28:01 15.9 C 4.47 g/m*3 15.9 C 0 km/h
1995 14-03-2009 14:40:01 15.9 C 4.47 g/m*3 15.9 C 0 km/h
1996 14-03-2009 14:52:01 16.9 C 4.31 g/m*3 16.9 C 0 km/h
1997 14-03-2009 15:04:01 17.5 C 4.47 g/m*3 17.5 C 0 km/h
1998 14-03-2009 15:16:01 17 C 4.49 g/m*3 17 C 0 km/h
1999 14-03-2009 15:28:01 16.1 C 4.8 g/m*3 16.1 C 0 km/h
2000 14-03-2009 15:40:01 15.7 C 4.95 g/m*3 15.7 C 0 km/h
Sensor: Nr:Datum:Temp:Abs-Feuchte:Windchill:Wind:
Aussen-T/F 2001 14-03-2009 15:52:00 16.8 C 5 g/m*3 16.8 C 0 km/h
2002 14-03-2009 16:04:01 17.2 C 4.83 g/m*3 17.2 C 0 km/h
2003 14-03-2009 16:16:00 16.2 C 4.83 g/m*3 16.2 C 0 km/h
2004 14-03-2009 16:28:00 15.6 C 5.05 g/m*3 15.6 C 0 km/h
2005 14-03-2009 16:40:00 15.7 C 5.22 g/m*3 15.7 C 0 km/h
2006 14-03-2009 16:52:00 15.4 C 5.12 g/m*3 15.4 C 0 km/h
2007 14-03-2009 17:04:00 15.4 C 5.12 g/m*3 15.4 C 0 km/h
2008 14-03-2009 17:16:00 15.4 C 5.26 g/m*3 15.4 C 0 km/h
2009 14-03-2009 17:28:00 15.2 C 5.32 g/m*3 15.2 C 0 km/h
2010 14-03-2009 17:39:59 15 C 5.26 g/m*3 15 C 0 km/h
2011 14-03-2009 17:52:00 14.7 C 5.41 g/m*3 14.7 C 0 km/h
2012 14-03-2009 18:04:59 14.5 C 5.35 g/m*3 14.5 C 0 km/h
2013 14-03-2009 18:16:59 14.4 C 5.44 g/m*3 14.4 C 0 km/h
2014 14-03-2009 18:28:59 14.2 C 5.49 g/m*3 14.2 C 0 km/h
2015 14-03-2009 18:40:59 14.1 C 5.58 g/m*3 14.1 C 0 km/h
2016 14-03-2009 18:52:59 13.8 C 6.08 g/m*3 13.8 C 0 km/h
2017 14-03-2009 19:04:58 12.3 C 7.28 g/m*3 12.3 C 0 km/h
2018 14-03-2009 19:16:59 11.5 C 7.95 g/m*3 11.5 C 0 km/h
2019 14-03-2009 19:28:59 11.1 C 8.16 g/m*3 11.1 C 0 km/h
2020 14-03-2009 19:40:59 11.4 C 8.52 g/m*3 11.4 C 0 km/h
2021 14-03-2009 19:52:58 10.7 C 8.15 g/m*3 10.7 C 0 km/h
2022 14-03-2009 20:04:59 10.4 C 8 g/m*3 10.4 C 0 km/h
2023 14-03-2009 20:16:58 10.4 C 8.1 g/m*3 10.4 C 0 km/h
2024 14-03-2009 20:28:58 10.3 C 8.04 g/m*3 10.3 C 0 km/h
2025 14-03-2009 20:40:59 10.2 C 8.09 g/m*3 10.2 C 0 km/h
Sensor: Nr:Datum:Temp:Abs-Feuchte:Windchill:Wind:
Aussen-T/F 2026 14-03-2009 20:52:57 10 C 7.8 g/m*3 10 C 0 km/h
2027 14-03-2009 21:04:57 9.6 C 6.78 g/m*3 9.6 C 0 km/h
2028 14-03-2009 21:16:58 9.6 C 6.78 g/m*3 9.6 C 0 km/h
2029 14-03-2009 21:28:57 9.4 C 6.87 g/m*3 9.4 C 0 km/h
2030 14-03-2009 21:40:57 9.3 C 6.92 g/m*3 9.3 C 0 km/h
2031 14-03-2009 21:52:57 9.1 C 6.92 g/m*3 9.1 C 0 km/h
2032 14-03-2009 22:04:57 9 C 6.96 g/m*3 9 C 0 km/h
2033 14-03-2009 22:17:58 9 C 6.88 g/m*3 9 C 0 km/h
2034 14-03-2009 22:29:58 9.1 C 6.74 g/m*3 9.1 C 0 km/h
2035 14-03-2009 22:41:58 9.2 C 6.7 g/m*3 9.2 C 0 km/h
2036 14-03-2009 22:53:58 9.2 C 6.61 g/m*3 9.2 C 0 km/h
2037 14-03-2009 23:05:58 9.2 C 6.61 g/m*3 9.2 C 0 km/h
2038 14-03-2009 23:17:58 9.2 C 6.52 g/m*3 9.2 C 0 km/h
2039 14-03-2009 23:29:58 9.2 C 5.98 g/m*3 9.2 C 0 km/h
2040 14-03-2009 23:41:58 9.1 C 5.86 g/m*3 9.1 C 0 km/h
2041 14-03-2009 23:53:58 9.1 C 5.68 g/m*3 9.1 C 0 km/h
2042 15-03-2009 00:05:58 9.1 C 5.59 g/m*3 9.1 C 0 km/h
2043 15-03-2009 00:17:58 9.1 C 5.5 g/m*3 9.1 C 0 km/h
2044 15-03-2009 00:29:58 9 C 5.47 g/m*3 9 C 0 km/h
2045 15-03-2009 00:41:58 9.1 C 5.41 g/m*3 9.1 C 0 km/h
2046 15-03-2009 00:53:58 9 C 5.38 g/m*3 9 C 0 km/h
2047 15-03-2009 01:05:58 9 C 5.38 g/m*3 9 C 0 km/h
2048 15-03-2009 01:17:58 9 C 5.29 g/m*3 9 C 0 km/h
2049 15-03-2009 01:29:58 8.8 C 5.48 g/m*3 8.8 C 0 km/h
2050 15-03-2009 01:41:58 8.8 C 5.4 g/m*3 8.8 C 0 km/h
Sensor: Nr:Datum:Temp:Abs-Feuchte:Windchill:Wind:
Aussen-T/F 2051 15-03-2009 01:53:59 8.9 C 5.43 g/m*3 8.9 C 0 km/h
2052 15-03-2009 02:05:59 8.8 C 5.4 g/m*3 8.8 C 0 km/h
2053 15-03-2009 02:16:59 8.6 C 5.59 g/m*3 8.6 C 0 km/h
2054 15-03-2009 02:28:59 8.9 C 5.61 g/m*3 8.9 C 0 km/h
2055 15-03-2009 02:40:59 8.8 C 5.48 g/m*3 8.8 C 0 km/h
2056 15-03-2009 02:52:59 8.8 C 5.57 g/m*3 8.8 C 0 km/h
2057 15-03-2009 03:04:59 8.6 C 5.59 g/m*3 8.6 C 0 km/h
2058 15-03-2009 03:16:59 8.7 C 5.53 g/m*3 8.7 C 0 km/h
2059 15-03-2009 03:28:59 8.6 C 5.41 g/m*3 8.6 C 0 km/h
2060 15-03-2009 03:40:59 8.6 C 5.33 g/m*3 8.6 C 0 km/h
2061 15-03-2009 03:52:59 8.6 C 5.24 g/m*3 8.6 C 0 km/h
2062 15-03-2009 04:04:59 8.6 C 5.24 g/m*3 8.6 C 0 km/h
2063 15-03-2009 04:16:59 8.6 C 5.16 g/m*3 8.6 C 0 km/h
2064 15-03-2009 04:28:59 8.6 C 5.24 g/m*3 8.6 C 0 km/h
2065 15-03-2009 04:40:59 8.6 C 5.24 g/m*3 8.6 C 0 km/h
2066 15-03-2009 04:52:59 8.6 C 5.24 g/m*3 8.6 C 0 km/h
2067 15-03-2009 05:04:59 8.6 C 5.24 g/m*3 8.6 C 0 km/h
2068 15-03-2009 05:16:59 8.5 C 5.21 g/m*3 8.5 C 0 km/h
2069 15-03-2009 05:28:59 8.5 C 5.21 g/m*3 8.5 C 0 km/h
2070 15-03-2009 05:40:59 8.5 C 5.21 g/m*3 8.5 C 0 km/h
2071 15-03-2009 05:53:00 8.5 C 5.12 g/m*3 8.5 C 0 km/h
2072 15-03-2009 06:05:00 8.5 C 5.04 g/m*3 8.5 C 0 km/h
2073 15-03-2009 06:17:00 8.5 C 4.95 g/m*3 8.5 C 0 km/h
2074 15-03-2009 06:29:00 8.5 C 4.95 g/m*3 8.5 C 0 km/h
2075 15-03-2009 06:41:00 8.4 C 4.92 g/m*3 8.4 C 0 km/h
Sensor: Nr:Datum:Temp:Abs-Feuchte:Windchill:Wind:
Aussen-T/F 2076 15-03-2009 06:53:00 8.4 C 4.92 g/m*3 8.4 C 0 km/h
2077 15-03-2009 07:05:00 8.4 C 4.84 g/m*3 8.4 C 0 km/h
2078 15-03-2009 07:17:00 8.4 C 4.75 g/m*3 8.4 C 0 km/h
2079 15-03-2009 07:29:00 8.4 C 4.75 g/m*3 8.4 C 0 km/h
2080 15-03-2009 07:41:00 8.5 C 4.78 g/m*3 8.5 C 0 km/h
2081 15-03-2009 07:53:00 8.5 C 4.78 g/m*3 8.5 C 0 km/h
2082 15-03-2009 08:05:00 8.5 C 4.7 g/m*3 8.5 C 0 km/h
2083 15-03-2009 08:17:00 8.5 C 4.7 g/m*3 8.5 C 0 km/h
2084 15-03-2009 08:29:00 8.9 C 4.82 g/m*3 8.9 C 0 km/h
2085 15-03-2009 08:41:00 8.7 C 4.76 g/m*3 8.7 C 0 km/h
2086 15-03-2009 08:53:00 8.8 C 4.79 g/m*3 8.8 C 0 km/h
2087 15-03-2009 09:05:58 8.8 C 4.79 g/m*3 8.8 C 0 km/h
2088 15-03-2009 09:17:58 8.8 C 4.79 g/m*3 8.8 C 0 km/h
2089 15-03-2009 09:29:58 8.9 C 4.73 g/m*3 8.9 C 0 km/h
2090 15-03-2009 09:41:58 9.1 C 4.79 g/m*3 9.1 C 0 km/h
2091 15-03-2009 09:53:57 9.2 C 4.64 g/m*3 9.2 C 0 km/h
2092 15-03-2009 10:05:58 9.3 C 4.67 g/m*3 9.3 C 0 km/h
2093 15-03-2009 10:17:57 9.3 C 4.58 g/m*3 9.3 C 0 km/h
2094 15-03-2009 10:29:57 9.3 C 4.49 g/m*3 9.3 C 0 km/h
2095 15-03-2009 10:41:57 9.6 C 4.49 g/m*3 9.6 C 0 km/h
2096 15-03-2009 10:53:57 9.7 C 4.43 g/m*3 9.7 C 0 km/h
2097 15-03-2009 11:05:57 9.9 C 4.39 g/m*3 9.9 C 0 km/h
2098 15-03-2009 11:17:57 10.1 C 4.44 g/m*3 10.1 C 0 km/h
2099 15-03-2009 11:29:56 10.2 C 4.28 g/m*3 10.2 C 0 km/h
2100 15-03-2009 11:41:56 10.4 C 4.43 g/m*3 10.4 C 0 km/h
Sensor: Nr:Datum:Temp:Abs-Feuchte:Windchill:Wind:
Aussen-T/F 2101 15-03-2009 11:53:57 10.5 C 4.36 g/m*3 10.5 C 0 km/h
2102 15-03-2009 12:05:56 10.8 C 4.25 g/m*3 10.8 C 0 km/h
2103 15-03-2009 12:17:56 11.2 C 3.95 g/m*3 11.2 C 0 km/h
2104 15-03-2009 12:29:56 11.4 C 3.9 g/m*3 11.4 C 0 km/h
2105 15-03-2009 12:41:56 11.4 C 3.9 g/m*3 11.4 C 0 km/h
2106 15-03-2009 12:53:56 11.5 C 3.41 g/m*3 11.5 C 0 km/h
2107 15-03-2009 13:05:55 11.3 C 3.26 g/m*3 11.3 C 0 km/h
2108 15-03-2009 13:17:56 11.5 C 3.31 g/m*3 11.5 C 0 km/h
2109 15-03-2009 13:29:56 11.2 C 3.45 g/m*3 11.2 C 0 km/h
2110 15-03-2009 13:41:56 11.1 C 3.53 g/m*3 11.1 C 0 km/h
2111 15-03-2009 13:53:55 11 C 3.6 g/m*3 11 C 0 km/h
2112 15-03-2009 14:05:56 10.9 C 3.98 g/m*3 10.9 C 0 km/h
2113 15-03-2009 14:17:55 11.1 C 4.03 g/m*3 11.1 C 0 km/h
2114 15-03-2009 14:29:55 11 C 4 g/m*3 11 C 0 km/h
2115 15-03-2009 14:41:56 10.8 C 4.05 g/m*3 10.8 C 0 km/h
2116 15-03-2009 14:53:55 10.7 C 3.93 g/m*3 10.7 C 0 km/h
2117 15-03-2009 15:05:55 10.6 C 4.2 g/m*3 10.6 C 0 km/h
2118 15-03-2009 15:17:54 10.6 C 4.39 g/m*3 10.6 C 0 km/h
2119 15-03-2009 15:29:54 10.9 C 4.48 g/m*3 10.9 C 0 km/h
2120 15-03-2009 15:41:54 10.8 C 4.35 g/m*3 10.8 C 0 km/h
2121 15-03-2009 15:53:54 10.6 C 4.29 g/m*3 10.6 C 0 km/h
2122 15-03-2009 16:05:54 10.7 C 4.42 g/m*3 10.7 C 0 km/h
2123 15-03-2009 16:17:54 10.8 C 4.45 g/m*3 10.8 C 0 km/h
2124 15-03-2009 16:29:54 10.8 C 4.45 g/m*3 10.8 C 0 km/h
2125 15-03-2009 16:41:54 10.7 C 4.42 g/m*3 10.7 C 0 km/h
Sensor: Nr:Datum:Temp:Abs-Feuchte:Windchill:Wind:
Aussen-T/F 2126 15-03-2009 16:53:54 10.6 C 4.39 g/m*3 10.6 C 0 km/h
2127 15-03-2009 17:05:53 10.6 C 4.49 g/m*3 10.6 C 0 km/h
2128 15-03-2009 17:17:54 10.4 C 4.63 g/m*3 10.4 C 0 km/h
2129 15-03-2009 17:29:53 10.1 C 4.92 g/m*3 10.1 C 0 km/h
2130 15-03-2009 17:41:53 9.9 C 5.04 g/m*3 9.9 C 0 km/h
2131 15-03-2009 17:53:53 9.9 C 4.95 g/m*3 9.9 C 0 km/h
2132 15-03-2009 18:05:53 9.8 C 4.92 g/m*3 9.8 C 0 km/h
2133 15-03-2009 18:17:53 9.8 C 5.01 g/m*3 9.8 C 0 km/h
2134 15-03-2009 18:29:53 9.7 C 4.98 g/m*3 9.7 C 0 km/h
2135 15-03-2009 18:41:53 9.8 C 4.82 g/m*3 9.8 C 0 km/h
2136 15-03-2009 18:53:52 9.8 C 4.73 g/m*3 9.8 C 0 km/h
2137 15-03-2009 19:05:02 9.8 C 4.64 g/m*3 9.8 C 0 km/h
2138 15-03-2009 19:17:01 9.7 C 4.7 g/m*3 9.7 C 0 km/h
2139 15-03-2009 19:29:01 9.6 C 4.76 g/m*3 9.6 C 0 km/h
2140 15-03-2009 19:41:02 9.5 C 4.82 g/m*3 9.5 C 0 km/h
2141 15-03-2009 19:53:01 9.5 C 4.82 g/m*3 9.5 C 0 km/h
2142 15-03-2009 20:05:02 9.4 C 4.97 g/m*3 9.4 C 0 km/h
2143 15-03-2009 20:17:01 9.2 C 5 g/m*3 9.2 C 0 km/h
2144 15-03-2009 20:29:01 9.2 C 5.09 g/m*3 9.2 C 0 km/h
2145 15-03-2009 20:41:01 9.1 C 5.23 g/m*3 9.1 C 0 km/h
2146 15-03-2009 20:53:01 9 C 5.29 g/m*3 9 C 0 km/h
2147 15-03-2009 21:05:01 9 C 5.29 g/m*3 9 C 0 km/h
2148 15-03-2009 21:17:00 8.9 C 5.43 g/m*3 8.9 C 0 km/h
2149 15-03-2009 21:29:00 8.9 C 5.52 g/m*3 8.9 C 0 km/h
2150 15-03-2009 21:41:01 8.9 C 5.61 g/m*3 8.9 C 0 km/h
Sensor: Nr:Datum:Temp:Abs-Feuchte:Windchill:Wind:
Aussen-T/F 2151 15-03-2009 21:54:08 8.7 C 5.53 g/m*3 8.7 C 0 km/h
2152 15-03-2009 22:06:08 8.7 C 5.62 g/m*3 8.7 C 0 km/h
2153 15-03-2009 22:18:08 8.7 C 5.62 g/m*3 8.7 C 0 km/h
2154 15-03-2009 22:30:08 8.6 C 5.67 g/m*3 8.6 C 0 km/h
2155 15-03-2009 22:42:08 8.5 C 5.72 g/m*3 8.5 C 0 km/h
2156 15-03-2009 22:54:08 8.4 C 5.68 g/m*3 8.4 C 0 km/h
2157 15-03-2009 23:06:08 8.4 C 5.68 g/m*3 8.4 C 0 km/h
2158 15-03-2009 23:18:09 8.4 C 5.77 g/m*3 8.4 C 0 km/h
2159 15-03-2009 23:30:09 8.3 C 5.73 g/m*3 8.3 C 0 km/h
2160 15-03-2009 23:42:09 8.3 C 5.73 g/m*3 8.3 C 0 km/h
2161 15-03-2009 23:54:09 8.1 C 5.82 g/m*3 8.1 C 0 km/h
2162 16-03-2009 00:06:09 8 C 5.87 g/m*3 8 C 0 km/h
2163 16-03-2009 00:18:09 8.1 C 5.91 g/m*3 8.1 C 0 km/h
2164 16-03-2009 00:30:09 8.1 C 5.91 g/m*3 8.1 C 0 km/h
2165 16-03-2009 00:42:09 8.1 C 5.82 g/m*3 8.1 C 0 km/h
2166 16-03-2009 00:54:09 8.1 C 5.74 g/m*3 8.1 C 0 km/h
2167 16-03-2009 01:06:09 8.2 C 5.69 g/m*3 8.2 C 0 km/h
2168 16-03-2009 01:18:09 8 C 5.7 g/m*3 8 C 0 km/h
2169 16-03-2009 01:30:09 7.8 C 5.96 g/m*3 7.8 C 0 km/h
2170 16-03-2009 01:42:09 7.7 C 6.08 g/m*3 7.7 C 0 km/h
2171 16-03-2009 01:54:09 7.5 C 6.16 g/m*3 7.5 C 0 km/h
2172 16-03-2009 02:06:09 7.4 C 6.2 g/m*3 7.4 C 0 km/h
2173 16-03-2009 02:18:09 7.4 C 6.28 g/m*3 7.4 C 0 km/h
2174 16-03-2009 02:30:09 7.4 C 6.28 g/m*3 7.4 C 0 km/h
2175 16-03-2009 02:42:09 7.3 C 6.32 g/m*3 7.3 C 0 km/h
Sensor: Nr:Datum:Temp:Abs-Feuchte:Windchill:Wind:
Aussen-T/F 2176 16-03-2009 02:54:09 7.2 C 6.36 g/m*3 7.2 C 0 km/h
2177 16-03-2009 03:06:09 7.2 C 6.36 g/m*3 7.2 C 0 km/h
2178 16-03-2009 03:18:09 7.1 C 6.4 g/m*3 7.1 C 0 km/h
2179 16-03-2009 03:30:10 7.1 C 6.4 g/m*3 7.1 C 0 km/h
2180 16-03-2009 03:42:10 6.9 C 6.39 g/m*3 6.9 C 0 km/h
2181 16-03-2009 03:54:10 6.8 C 6.42 g/m*3 6.8 C 0 km/h
2182 16-03-2009 04:06:10 6.8 C 6.42 g/m*3 6.8 C 0 km/h
2183 16-03-2009 04:18:10 6.8 C 6.5 g/m*3 6.8 C 0 km/h
2184 16-03-2009 04:30:10 6.7 C 6.46 g/m*3 6.7 C 0 km/h
2185 16-03-2009 04:42:10 6.7 C 6.46 g/m*3 6.7 C 0 km/h
2186 16-03-2009 04:54:10 6.8 C 6.58 g/m*3 6.8 C 0 km/h
2187 16-03-2009 05:06:10 6.7 C 6.53 g/m*3 6.7 C 0 km/h
2188 16-03-2009 05:18:10 6.5 C 6.37 g/m*3 6.5 C 0 km/h
2189 16-03-2009 05:30:10 6.6 C 6.49 g/m*3 6.6 C 0 km/h
2190 16-03-2009 05:42:10 6.7 C 6.53 g/m*3 6.7 C 0 km/h
2191 16-03-2009 05:54:01 6.6 C 6.49 g/m*3 6.6 C 0 km/h
2192 16-03-2009 06:06:01 6.6 C 6.49 g/m*3 6.6 C 0 km/h
2193 16-03-2009 06:18:01 6.6 C 6.49 g/m*3 6.6 C 0 km/h
2194 16-03-2009 06:30:01 6.6 C 6.49 g/m*3 6.6 C 0 km/h
2195 16-03-2009 06:42:01 6.7 C 6.53 g/m*3 6.7 C 0 km/h
2196 16-03-2009 06:54:00 6.6 C 6.42 g/m*3 6.6 C 0 km/h
2197 16-03-2009 07:06:01 6.5 C 6.37 g/m*3 6.5 C 0 km/h
2198 16-03-2009 07:18:00 6.5 C 6.37 g/m*3 6.5 C 0 km/h
2199 16-03-2009 07:30:00 6.6 C 6.49 g/m*3 6.6 C 0 km/h
2200 16-03-2009 07:42:00 6.7 C 6.53 g/m*3 6.7 C 0 km/h
Sensor: Nr:Datum:Temp:Abs-Feuchte:Windchill:Wind:
Aussen-T/F 2201 16-03-2009 07:53:59 6.8 C 6.58 g/m*3 6.8 C 0 km/h
2202 16-03-2009 08:06:00 6.9 C 6.62 g/m*3 6.9 C 0 km/h
2203 16-03-2009 08:18:00 7 C 6.59 g/m*3 7 C 0 km/h
2204 16-03-2009 08:30:00 7 C 6.51 g/m*3 7 C 0 km/h
2205 16-03-2009 08:42:59 7.1 C 6.55 g/m*3 7.1 C 0 km/h
2206 16-03-2009 08:54:00 7.2 C 6.59 g/m*3 7.2 C 0 km/h
2207 16-03-2009 09:06:59 7.4 C 6.68 g/m*3 7.4 C 0 km/h
2208 16-03-2009 09:18:59 7.3 C 6.56 g/m*3 7.3 C 0 km/h
2209 16-03-2009 09:30:58 7.2 C 6.36 g/m*3 7.2 C 0 km/h
2210 16-03-2009 09:42:58 7.3 C 6.24 g/m*3 7.3 C 0 km/h
2211 16-03-2009 09:54:59 7.6 C 6.36 g/m*3 7.6 C 0 km/h
2212 16-03-2009 10:06:59 7.9 C 6.41 g/m*3 7.9 C 0 km/h
2213 16-03-2009 10:18:58 8.2 C 6.28 g/m*3 8.2 C 0 km/h
2214 16-03-2009 10:30:59 8.4 C 6.11 g/m*3 8.4 C 0 km/h
2215 16-03-2009 10:42:59 8.7 C 5.97 g/m*3 8.7 C 0 km/h
2216 16-03-2009 10:54:58 8.8 C 5.92 g/m*3 8.8 C 0 km/h
2217 16-03-2009 11:06:58 8.8 C 5.74 g/m*3 8.8 C 0 km/h
2218 16-03-2009 11:18:57 9.1 C 5.68 g/m*3 9.1 C 0 km/h
2219 16-03-2009 11:30:58 9.2 C 5.54 g/m*3 9.2 C 0 km/h
2220 16-03-2009 11:42:58 9.5 C 5.55 g/m*3 9.5 C 0 km/h
2221 16-03-2009 11:54:57 9.7 C 5.62 g/m*3 9.7 C 0 km/h
2222 16-03-2009 12:06:57 10 C 5.36 g/m*3 10 C 0 km/h
2223 16-03-2009 12:18:58 9.9 C 5.14 g/m*3 9.9 C 0 km/h
2224 16-03-2009 12:30:57 9.5 C 5.1 g/m*3 9.5 C 0 km/h
2225 16-03-2009 12:42:57 9.5 C 5.19 g/m*3 9.5 C 0 km/h
Sensor: Nr:Datum:Temp:Abs-Feuchte:Windchill:Wind:
Aussen-T/F 2226 16-03-2009 12:54:57 9.8 C 5.29 g/m*3 9.8 C 0 km/h
2227 16-03-2009 13:06:57 10 C 5.17 g/m*3 10 C 0 km/h
2228 16-03-2009 13:18:57 10.2 C 5.23 g/m*3 10.2 C 0 km/h
2229 16-03-2009 13:30:56 10.1 C 4.92 g/m*3 10.1 C 0 km/h
2230 16-03-2009 13:42:56 9.8 C 5.1 g/m*3 9.8 C 0 km/h
2231 16-03-2009 13:54:56 9.5 C 5.1 g/m*3 9.5 C 0 km/h
2232 16-03-2009 14:06:56 9.4 C 5.06 g/m*3 9.4 C 0 km/h
2233 16-03-2009 14:18:56 9.5 C 5.1 g/m*3 9.5 C 0 km/h
2234 16-03-2009 14:30:56 9.5 C 5.01 g/m*3 9.5 C 0 km/h
2235 16-03-2009 14:42:56 9.7 C 5.16 g/m*3 9.7 C 0 km/h
2236 16-03-2009 14:54:56 9.9 C 5.14 g/m*3 9.9 C 0 km/h
2237 16-03-2009 15:06:56 10 C 5.07 g/m*3 10 C 0 km/h
2238 16-03-2009 15:18:55 10.3 C 5.17 g/m*3 10.3 C 0 km/h
2239 16-03-2009 15:30:55 9.9 C 4.95 g/m*3 9.9 C 0 km/h
2240 16-03-2009 15:42:55 9.8 C 5.1 g/m*3 9.8 C 0 km/h
2241 16-03-2009 15:54:55 9.9 C 5.14 g/m*3 9.9 C 0 km/h
2242 16-03-2009 16:06:55 9.7 C 5.16 g/m*3 9.7 C 0 km/h
2243 16-03-2009 16:18:55 9.8 C 5.2 g/m*3 9.8 C 0 km/h
2244 16-03-2009 16:30:55 9.8 C 5.2 g/m*3 9.8 C 0 km/h
2245 16-03-2009 16:42:55 10 C 5.17 g/m*3 10 C 0 km/h
2246 16-03-2009 16:54:55 9.8 C 5.1 g/m*3 9.8 C 0 km/h
2247 16-03-2009 17:06:54 9.7 C 5.25 g/m*3 9.7 C 0 km/h
2248 16-03-2009 17:18:55 9.7 C 5.25 g/m*3 9.7 C 0 km/h
2249 16-03-2009 17:30:54 9.7 C 5.25 g/m*3 9.7 C 0 km/h
2250 16-03-2009 17:42:54 9.6 C 5.22 g/m*3 9.6 C 0 km/h
Sensor: Nr:Datum:Temp:Abs-Feuchte:Windchill:Wind:
Aussen-T/F 2251 16-03-2009 17:54:54 9.2 C 5.18 g/m*3 9.2 C 0 km/h
2252 16-03-2009 18:06:53 9.2 C 5.27 g/m*3 9.2 C 0 km/h
2253 16-03-2009 18:18:54 9.2 C 5.36 g/m*3 9.2 C 0 km/h
2254 16-03-2009 18:30:54 9 C 5.29 g/m*3 9 C 0 km/h
2255 16-03-2009 18:42:54 8.9 C 5.43 g/m*3 8.9 C 0 km/h
2256 16-03-2009 18:54:53 8.7 C 5.45 g/m*3 8.7 C 0 km/h
2257 16-03-2009 19:06:54 8.7 C 5.53 g/m*3 8.7 C 0 km/h
2258 16-03-2009 19:18:53 8.6 C 5.59 g/m*3 8.6 C 0 km/h
2259 16-03-2009 19:30:53 8.5 C 5.55 g/m*3 8.5 C 0 km/h
2260 16-03-2009 19:42:54 8.5 C 5.64 g/m*3 8.5 C 0 km/h
2261 16-03-2009 19:54:53 8.4 C 5.6 g/m*3 8.4 C 0 km/h
2262 16-03-2009 20:06:53 8.4 C 5.6 g/m*3 8.4 C 0 km/h
2263 16-03-2009 20:18:52 8.4 C 5.6 g/m*3 8.4 C 0 km/h
2264 16-03-2009 20:30:53 8.4 C 5.51 g/m*3 8.4 C 0 km/h
2265 16-03-2009 20:42:53 8.3 C 5.48 g/m*3 8.3 C 0 km/h
2266 16-03-2009 20:54:52 8.3 C 5.48 g/m*3 8.3 C 0 km/h
2267 16-03-2009 21:06:52 8.2 C 5.53 g/m*3 8.2 C 0 km/h
2268 16-03-2009 21:18:52 8.2 C 5.53 g/m*3 8.2 C 0 km/h
2269 16-03-2009 21:30:51 8.2 C 5.53 g/m*3 8.2 C 0 km/h
2270 16-03-2009 21:42:51 8.1 C 5.41 g/m*3 8.1 C 0 km/h
2271 16-03-2009 21:54:52 8.1 C 5.41 g/m*3 8.1 C 0 km/h
2272 16-03-2009 22:06:51 8.1 C 5.41 g/m*3 8.1 C 0 km/h
2273 16-03-2009 22:19:53 8 C 5.29 g/m*3 8 C 0 km/h
2274 16-03-2009 22:31:54 8 C 5.29 g/m*3 8 C 0 km/h
2275 16-03-2009 22:43:54 8 C 5.29 g/m*3 8 C 0 km/h
Sensor: Nr:Datum:Temp:Abs-Feuchte:Windchill:Wind:
Aussen-T/F 2276 16-03-2009 22:55:54 7.9 C 5.26 g/m*3 7.9 C 0 km/h
2277 16-03-2009 23:07:54 8 C 5.29 g/m*3 8 C 0 km/h
2278 16-03-2009 23:19:54 8 C 5.29 g/m*3 8 C 0 km/h
2279 16-03-2009 23:31:54 8 C 5.29 g/m*3 8 C 0 km/h
2280 16-03-2009 23:43:54 7.9 C 5.42 g/m*3 7.9 C 0 km/h
2281 16-03-2009 23:55:54 7.9 C 5.42 g/m*3 7.9 C 0 km/h
2282 17-03-2009 00:07:54 7.8 C 5.47 g/m*3 7.8 C 0 km/h
2283 17-03-2009 00:19:54 7.8 C 5.3 g/m*3 7.8 C 0 km/h
2284 17-03-2009 00:31:54 7.8 C 5.3 g/m*3 7.8 C 0 km/h
2285 17-03-2009 00:43:54 7.7 C 5.27 g/m*3 7.7 C 0 km/h
2286 17-03-2009 00:55:54 7.7 C 5.11 g/m*3 7.7 C 0 km/h
2287 17-03-2009 01:07:54 7.7 C 5.03 g/m*3 7.7 C 0 km/h
2288 17-03-2009 01:19:54 7.4 C 4.93 g/m*3 7.4 C 0 km/h
2289 17-03-2009 01:31:54 6.7 C 4.94 g/m*3 6.7 C 0 km/h
2290 17-03-2009 01:43:54 6.1 C 4.82 g/m*3 6.1 C 0 km/h
2291 17-03-2009 01:55:54 5.8 C 4.94 g/m*3 5.8 C 0 km/h
2292 17-03-2009 02:07:54 5.6 C 4.88 g/m*3 5.6 C 0 km/h
2293 17-03-2009 02:19:54 5.3 C 4.85 g/m*3 5.3 C 0 km/h
2294 17-03-2009 02:31:55 5.1 C 4.86 g/m*3 5.1 C 0 km/h
2295 17-03-2009 02:43:55 5 C 4.89 g/m*3 5 C 0 km/h
2296 17-03-2009 02:55:55 4.9 C 4.93 g/m*3 4.9 C 0 km/h
2297 17-03-2009 03:07:55 4.7 C 4.93 g/m*3 4.7 C 0 km/h
2298 17-03-2009 03:19:55 4.7 C 4.93 g/m*3 4.7 C 0 km/h
2299 17-03-2009 03:31:55 4.5 C 4.93 g/m*3 4.5 C 0 km/h
2300 17-03-2009 03:43:55 4.3 C 4.93 g/m*3 4.3 C 0 km/h
Sensor: Nr:Datum:Temp:Abs-Feuchte:Windchill:Wind:
Aussen-T/F 2301 17-03-2009 03:55:55 4.1 C 4.93 g/m*3 4.1 C 0 km/h
2302 17-03-2009 04:07:55 4 C 4.96 g/m*3 4 C 0 km/h
2303 17-03-2009 04:19:55 3.9 C 4.99 g/m*3 3.9 C 0 km/h
2304 17-03-2009 04:31:55 4 C 4.96 g/m*3 4 C 0 km/h
2305 17-03-2009 04:43:55 4 C 5.02 g/m*3 4 C 0 km/h
2306 17-03-2009 04:55:55 3.8 C 5.02 g/m*3 3.8 C 0 km/h
2307 17-03-2009 05:07:55 3.5 C 4.92 g/m*3 3.5 C 0 km/h
2308 17-03-2009 05:19:55 3.3 C 4.85 g/m*3 3.3 C 0 km/h
2309 17-03-2009 05:31:55 3.2 C 4.88 g/m*3 3.2 C 0 km/h
2310 17-03-2009 05:43:55 3.2 C 4.88 g/m*3 3.2 C 0 km/h
2311 17-03-2009 05:55:55 3.2 C 4.94 g/m*3 3.2 C 0 km/h
2312 17-03-2009 06:07:55 3 C 4.88 g/m*3 3 C 0 km/h
2313 17-03-2009 06:19:56 3 C 4.88 g/m*3 3 C 0 km/h
2314 17-03-2009 06:31:56 3 C 4.93 g/m*3 3 C 0 km/h
2315 17-03-2009 06:43:56 3.1 C 4.97 g/m*3 3.1 C 0 km/h
2316 17-03-2009 06:55:56 3.3 C 5.04 g/m*3 3.3 C 0 km/h
2317 17-03-2009 07:07:52 3.5 C 5.1 g/m*3 3.5 C 0 km/h
2318 17-03-2009 07:19:52 3.5 C 4.98 g/m*3 3.5 C 0 km/h
2319 17-03-2009 07:31:52 3.6 C 4.95 g/m*3 3.6 C 0 km/h
2320 17-03-2009 07:43:52 3.5 C 4.92 g/m*3 3.5 C 0 km/h
2321 17-03-2009 07:55:52 3.5 C 4.92 g/m*3 3.5 C 0 km/h
2322 17-03-2009 08:07:51 3.5 C 4.92 g/m*3 3.5 C 0 km/h
2323 17-03-2009 08:19:51 3.7 C 4.99 g/m*3 3.7 C 0 km/h
2324 17-03-2009 08:31:52 3.8 C 5.02 g/m*3 3.8 C 0 km/h
2325 17-03-2009 08:43:52 3.9 C 4.99 g/m*3 3.9 C 0 km/h
Sensor: Nr:Datum:Temp:Abs-Feuchte:Windchill:Wind:
Aussen-T/F 2326 17-03-2009 08:55:51 4.2 C 5.09 g/m*3 4.2 C 0 km/h
2327 17-03-2009 09:07:51 5 C 5.23 g/m*3 5 C 0 km/h
2328 17-03-2009 09:19:50 5.8 C 5.16 g/m*3 5.8 C 0 km/h
2329 17-03-2009 09:31:51 6.3 C 5.03 g/m*3 6.3 C 0 km/h
2330 17-03-2009 09:43:51 6.5 C 4.95 g/m*3 6.5 C 0 km/h
2331 17-03-2009 09:55:50 6.5 C 4.95 g/m*3 6.5 C 0 km/h
2332 17-03-2009 10:07:50 6.8 C 4.97 g/m*3 6.8 C 0 km/h
2333 17-03-2009 10:19:51 7.2 C 5.02 g/m*3 7.2 C 0 km/h
2334 17-03-2009 10:31:50 7.9 C 5.09 g/m*3 7.9 C 0 km/h
2335 17-03-2009 10:43:50 8.4 C 5.09 g/m*3 8.4 C 0 km/h
2336 17-03-2009 10:55:50 9 C 5.03 g/m*3 9 C 0 km/h
2337 17-03-2009 11:07:50 10.1 C 5.01 g/m*3 10.1 C 0 km/h
2338 17-03-2009 11:19:50 11.4 C 5.13 g/m*3 11.4 C 0 km/h
2339 17-03-2009 11:31:50 11.7 C 4.92 g/m*3 11.7 C 0 km/h
2340 17-03-2009 11:43:50 11.6 C 4.89 g/m*3 11.6 C 0 km/h
2341 17-03-2009 11:55:50 11.4 C 4.93 g/m*3 11.4 C 0 km/h
2342 17-03-2009 12:07:50 11.5 C 5.06 g/m*3 11.5 C 0 km/h
2343 17-03-2009 12:19:49 11.2 C 5.07 g/m*3 11.2 C 0 km/h
2344 17-03-2009 12:31:49 12 C 5.12 g/m*3 12 C 0 km/h
2345 17-03-2009 12:43:49 13.3 C 4.97 g/m*3 13.3 C 0 km/h
2346 17-03-2009 12:55:49 13.7 C 4.97 g/m*3 13.7 C 0 km/h
2347 17-03-2009 13:07:49 14.1 C 4.85 g/m*3 14.1 C 0 km/h
2348 17-03-2009 13:19:48 14.1 C 4.73 g/m*3 14.1 C 0 km/h
2349 17-03-2009 13:31:48 13.9 C 4.68 g/m*3 13.9 C 0 km/h
2350 17-03-2009 13:43:48 14.2 C 4.76 g/m*3 14.2 C 0 km/h
Sensor: Nr:Datum:Temp:Abs-Feuchte:Windchill:Wind:
Aussen-T/F 2351 17-03-2009 13:55:48 14.7 C 4.78 g/m*3 14.7 C 0 km/h
2352 17-03-2009 14:07:48 15.4 C 4.6 g/m*3 15.4 C 0 km/h
2353 17-03-2009 14:19:48 14.2 C 4.64 g/m*3 14.2 C 0 km/h
2354 17-03-2009 14:31:48 13.8 C 4.89 g/m*3 13.8 C 0 km/h
2355 17-03-2009 14:43:48 13.2 C 4.82 g/m*3 13.2 C 0 km/h
2356 17-03-2009 14:55:48 12.5 C 4.84 g/m*3 12.5 C 0 km/h
2357 17-03-2009 15:07:47 12.4 C 4.92 g/m*3 12.4 C 0 km/h
2358 17-03-2009 15:19:48 12.5 C 5.06 g/m*3 12.5 C 0 km/h
2359 17-03-2009 15:31:47 12.7 C 5.01 g/m*3 12.7 C 0 km/h
2360 17-03-2009 15:43:47 12.8 C 5.04 g/m*3 12.8 C 0 km/h
2361 17-03-2009 15:55:47 12.8 C 5.04 g/m*3 12.8 C 0 km/h
2362 17-03-2009 16:07:47 12.5 C 4.95 g/m*3 12.5 C 0 km/h
2363 17-03-2009 16:19:47 12.6 C 5.09 g/m*3 12.6 C 0 km/h
2364 17-03-2009 16:31:47 12.5 C 4.95 g/m*3 12.5 C 0 km/h
2365 17-03-2009 16:43:47 12.6 C 4.98 g/m*3 12.6 C 0 km/h
2366 17-03-2009 16:55:46 12.1 C 4.61 g/m*3 12.1 C 0 km/h
2367 17-03-2009 17:07:47 12 C 4.8 g/m*3 12 C 0 km/h
2368 17-03-2009 17:19:46 11.9 C 4.98 g/m*3 11.9 C 0 km/h
2369 17-03-2009 17:31:46 12.6 C 4.87 g/m*3 12.6 C 0 km/h
2370 17-03-2009 17:43:46 12.2 C 4.75 g/m*3 12.2 C 0 km/h
2371 17-03-2009 17:55:46 12 C 4.58 g/m*3 12 C 0 km/h
2372 17-03-2009 18:07:46 11.7 C 4.71 g/m*3 11.7 C 0 km/h
2373 17-03-2009 18:19:46 11.2 C 4.66 g/m*3 11.2 C 0 km/h
2374 17-03-2009 18:31:45 10.7 C 4.81 g/m*3 10.7 C 0 km/h
2375 17-03-2009 18:43:45 10.2 C 4.85 g/m*3 10.2 C 0 km/h
Sensor: Nr:Datum:Temp:Abs-Feuchte:Windchill:Wind:
Aussen-T/F 2376 17-03-2009 18:55:46 9.5 C 5.01 g/m*3 9.5 C 0 km/h
2377 17-03-2009 19:07:45 9.2 C 5 g/m*3 9.2 C 0 km/h
2378 17-03-2009 19:19:45 8.7 C 5.1 g/m*3 8.7 C 0 km/h
2379 17-03-2009 19:31:45 8.5 C 5.04 g/m*3 8.5 C 0 km/h
2380 17-03-2009 19:43:45 8.1 C 4.99 g/m*3 8.1 C 0 km/h
2381 17-03-2009 19:55:45 7.8 C 5.14 g/m*3 7.8 C 0 km/h
2382 17-03-2009 20:07:44 7.6 C 5.16 g/m*3 7.6 C 0 km/h
2383 17-03-2009 20:19:44 7.3 C 5.14 g/m*3 7.3 C 0 km/h
2384 17-03-2009 20:31:45 7.1 C 5.07 g/m*3 7.1 C 0 km/h
2385 17-03-2009 20:43:45 6.9 C 5.23 g/m*3 6.9 C 0 km/h
2386 17-03-2009 20:55:44 6.5 C 5.1 g/m*3 6.5 C 0 km/h
2387 17-03-2009 21:07:44 6.3 C 5.18 g/m*3 6.3 C 0 km/h
2388 17-03-2009 21:19:44 6.2 C 5.22 g/m*3 6.2 C 0 km/h
2389 17-03-2009 21:31:44 5.7 C 5.05 g/m*3 5.7 C 0 km/h
2390 17-03-2009 21:43:44 5.7 C 5.19 g/m*3 5.7 C 0 km/h
2391 17-03-2009 21:56:45 5.5 C 5.13 g/m*3 5.5 C 0 km/h
2392 17-03-2009 22:08:45 5.3 C 5.13 g/m*3 5.3 C 0 km/h
2393 17-03-2009 22:20:46 5.1 C 5.13 g/m*3 5.1 C 0 km/h
2394 17-03-2009 22:32:46 4.9 C 5.2 g/m*3 4.9 C 0 km/h
2395 17-03-2009 22:44:46 4.8 C 5.16 g/m*3 4.8 C 0 km/h
2396 17-03-2009 22:56:46 4.7 C 5.13 g/m*3 4.7 C 0 km/h
2397 17-03-2009 23:08:46 4.6 C 5.1 g/m*3 4.6 C 0 km/h
2398 17-03-2009 23:20:46 4.3 C 4.99 g/m*3 4.3 C 0 km/h
2399 17-03-2009 23:32:46 4.2 C 5.03 g/m*3 4.2 C 0 km/h
2400 17-03-2009 23:44:46 4 C 5.02 g/m*3 4 C 0 km/h
Sensor: Nr:Datum:Temp:Abs-Feuchte:Windchill:Wind:
Aussen-T/F 2401 17-03-2009 23:56:46 3.8 C 5.02 g/m*3 3.8 C 0 km/h
2402 18-03-2009 00:08:46 3.6 C 5.01 g/m*3 3.6 C 0 km/h
2403 18-03-2009 00:20:46 3.3 C 4.91 g/m*3 3.3 C 0 km/h
2404 18-03-2009 00:32:46 3.2 C 4.94 g/m*3 3.2 C 0 km/h
2405 18-03-2009 00:44:46 2.9 C 4.9 g/m*3 2.9 C 0 km/h
2406 18-03-2009 00:56:46 2.8 C 4.81 g/m*3 2.8 C 0 km/h
2407 18-03-2009 01:08:46 2.7 C 4.84 g/m*3 2.7 C 0 km/h
2408 18-03-2009 01:20:46 2.6 C 4.8 g/m*3 2.6 C 0 km/h
2409 18-03-2009 01:32:46 2.4 C 4.74 g/m*3 2.4 C 0 km/h
2410 18-03-2009 01:44:46 2.2 C 4.68 g/m*3 2.2 C 0 km/h
2411 18-03-2009 01:56:46 2.1 C 4.64 g/m*3 2.1 C 0 km/h
2412 18-03-2009 02:08:47 1.9 C 4.64 g/m*3 1.9 C 0 km/h
2413 18-03-2009 02:20:47 1.8 C 4.6 g/m*3 1.8 C 0 km/h
2414 18-03-2009 02:32:47 1.5 C 4.51 g/m*3 1.5 C 0 km/h
2415 18-03-2009 02:44:47 1.5 C 4.57 g/m*3 1.5 C 0 km/h
2416 18-03-2009 02:56:47 1.4 C 4.53 g/m*3 1.4 C 0 km/h
2417 18-03-2009 03:08:47 1.2 C 4.47 g/m*3 1.2 C 0 km/h
2418 18-03-2009 03:20:47 0.9 C 4.38 g/m*3 0.9 C 0 km/h
2419 18-03-2009 03:32:47 0.8 C 4.35 g/m*3 0.8 C 0 km/h
2420 18-03-2009 03:44:47 0.6 C 4.29 g/m*3 0.6 C 0 km/h
2421 18-03-2009 03:56:47 0.4 C 4.23 g/m*3 0.4 C 0 km/h
2422 18-03-2009 04:08:47 0.3 C 4.2 g/m*3 0.3 C 0 km/h
2423 18-03-2009 04:20:47 0.2 C 4.22 g/m*3 0.2 C 0 km/h
2424 18-03-2009 04:32:47 0.1 C 4.2 g/m*3 0.1 C 0 km/h
2425 18-03-2009 04:44:47 0.1 C 4.24 g/m*3 0.1 C 0 km/h
Sensor: Nr:Datum:Temp:Abs-Feuchte:Windchill:Wind:
Aussen-T/F 2426 18-03-2009 04:56:47 0 C 4.22 g/m*3 0 C 0 km/h
2427 18-03-2009 05:08:47 -0.1 C 4.19 g/m*3 -0.1 C 0 km/h
2428 18-03-2009 05:20:47 0 C 4.26 g/m*3 0 C 0 km/h
2429 18-03-2009 05:32:47 0 C 4.26 g/m*3 0 C 0 km/h
2430 18-03-2009 05:44:47 -0.1 C 4.23 g/m*3 -0.1 C 0 km/h
2431 18-03-2009 05:56:47 -0.2 C 4.21 g/m*3 -0.2 C 0 km/h
2432 18-03-2009 06:08:48 -0.2 C 4.21 g/m*3 -0.2 C 0 km/h
2433 18-03-2009 06:20:48 -0.1 C 4.28 g/m*3 -0.1 C 0 km/h
2434 18-03-2009 06:32:44 0 C 4.31 g/m*3 0 C 0 km/h
2435 18-03-2009 06:44:45 0 C 4.31 g/m*3 0 C 0 km/h
2436 18-03-2009 06:56:45 0.2 C 4.37 g/m*3 0.2 C 0 km/h
2437 18-03-2009 07:08:44 0.2 C 4.37 g/m*3 0.2 C 0 km/h
2438 18-03-2009 07:20:44 0.2 C 4.37 g/m*3 0.2 C 0 km/h
2439 18-03-2009 07:32:44 0.2 C 4.37 g/m*3 0.2 C 0 km/h
2440 18-03-2009 07:44:44 0.2 C 4.37 g/m*3 0.2 C 0 km/h
2441 18-03-2009 07:56:44 0.1 C 4.29 g/m*3 0.1 C 0 km/h
2442 18-03-2009 08:08:44 0.1 C 4.29 g/m*3 0.1 C 0 km/h
2443 18-03-2009 08:20:43 0.1 C 4.29 g/m*3 0.1 C 0 km/h
2444 18-03-2009 08:32:44 0.5 C 4.41 g/m*3 0.5 C 0 km/h
2445 18-03-2009 08:44:43 1.2 C 4.63 g/m*3 1.2 C 0 km/h
2446 18-03-2009 08:56:43 1.2 C 4.47 g/m*3 1.2 C 0 km/h
2447 18-03-2009 09:08:43 1.7 C 4.57 g/m*3 1.7 C 0 km/h
2448 18-03-2009 09:20:43 1.9 C 4.53 g/m*3 1.9 C 0 km/h
2449 18-03-2009 09:32:43 1.9 C 4.42 g/m*3 1.9 C 0 km/h
2450 18-03-2009 09:44:43 2.5 C 4.54 g/m*3 2.5 C 0 km/h
Sensor: Nr:Datum:Temp:Abs-Feuchte:Windchill:Wind:
Aussen-T/F 2451 18-03-2009 09:56:43 2.8 C 4.52 g/m*3 2.8 C 0 km/h
2452 18-03-2009 10:08:43 3.3 C 4.49 g/m*3 3.3 C 0 km/h
2453 18-03-2009 10:20:42 3.6 C 4.52 g/m*3 3.6 C 0 km/h
2454 18-03-2009 10:32:42 3.8 C 4.64 g/m*3 3.8 C 0 km/h
2455 18-03-2009 10:44:42 4.6 C 4.83 g/m*3 4.6 C 0 km/h
2456 18-03-2009 10:56:42 5.2 C 4.61 g/m*3 5.2 C 0 km/h
2457 18-03-2009 11:08:42 5.9 C 4.47 g/m*3 5.9 C 0 km/h
2458 18-03-2009 11:20:41 6.5 C 4.35 g/m*3 6.5 C 0 km/h
2459 18-03-2009 11:32:42 6.8 C 4.36 g/m*3 6.8 C 0 km/h
2460 18-03-2009 11:44:41 7.3 C 4.27 g/m*3 7.3 C 0 km/h
2461 18-03-2009 11:56:41 7.9 C 4.19 g/m*3 7.9 C 0 km/h
2462 18-03-2009 12:08:41 8.2 C 3.77 g/m*3 8.2 C 0 km/h
2463 18-03-2009 12:20:42 8.6 C 3.52 g/m*3 8.6 C 0 km/h
2464 18-03-2009 12:32:41 9.4 C 3.35 g/m*3 9.4 C 0 km/h
2465 18-03-2009 12:44:41 9.7 C 2.3 g/m*3 9.7 C 0 km/h
2466 18-03-2009 12:56:41 10.2 C 2.19 g/m*3 10.2 C 0 km/h
2467 18-03-2009 13:08:40 11 C 2 g/m*3 11 C 0 km/h
2468 18-03-2009 13:20:41 11.8 C 2.1 g/m*3 11.8 C 0 km/h
2469 18-03-2009 13:32:41 12.6 C 2.21 g/m*3 12.6 C 0 km/h
2470 18-03-2009 13:44:40 13 C 2.27 g/m*3 13 C 0 km/h
2471 18-03-2009 13:56:40 13.1 C 2.28 g/m*3 13.1 C 0 km/h
2472 18-03-2009 14:08:41 13.2 C 2.3 g/m*3 13.2 C 0 km/h
2473 18-03-2009 14:20:40 12.9 C 2.25 g/m*3 12.9 C 0 km/h
2474 18-03-2009 14:32:40 13.1 C 2.28 g/m*3 13.1 C 0 km/h
2475 18-03-2009 14:44:40 13.6 C 2.35 g/m*3 13.6 C 0 km/h
Sensor: Nr:Datum:Temp:Abs-Feuchte:Windchill:Wind:
Aussen-T/F 2476 18-03-2009 14:56:40 13.8 C 2.38 g/m*3 13.8 C 0 km/h
2477 18-03-2009 15:08:40 14.1 C 2.43 g/m*3 14.1 C 0 km/h
2478 18-03-2009 15:20:39 14 C 2.41 g/m*3 14 C 0 km/h
2479 18-03-2009 15:32:39 13.7 C 2.37 g/m*3 13.7 C 0 km/h
2480 18-03-2009 15:44:39 14.7 C 2.52 g/m*3 14.7 C 0 km/h
2481 18-03-2009 15:56:39 15.3 C 2.61 g/m*3 15.3 C 0 km/h
2482 18-03-2009 16:08:39 15.2 C 2.6 g/m*3 15.2 C 0 km/h
2483 18-03-2009 16:20:39 14.6 C 2.5 g/m*3 14.6 C 0 km/h
2484 18-03-2009 16:32:39 14.3 C 2.46 g/m*3 14.3 C 0 km/h
2485 18-03-2009 16:44:39 14 C 2.41 g/m*3 14 C 0 km/h
2486 18-03-2009 16:56:39 14.9 C 2.55 g/m*3 14.9 C 0 km/h
2487 18-03-2009 17:08:38 14.6 C 2.5 g/m*3 14.6 C 0 km/h
2488 18-03-2009 17:20:38 14.7 C 2.52 g/m*3 14.7 C 0 km/h
2489 18-03-2009 17:32:38 13.7 C 2.37 g/m*3 13.7 C 0 km/h
2490 18-03-2009 17:44:38 12.5 C 2.2 g/m*3 12.5 C 0 km/h
2491 18-03-2009 17:56:38 12.6 C 2.21 g/m*3 12.6 C 0 km/h
2492 18-03-2009 18:08:37 11.9 C 2.12 g/m*3 11.9 C 0 km/h
2493 18-03-2009 18:20:38 11.3 C 2.04 g/m*3 11.3 C 0 km/h
2494 18-03-2009 18:32:38 10.1 C 1.89 g/m*3 10.1 C 0 km/h
2495 18-03-2009 18:44:37 9.1 C 1.77 g/m*3 9.1 C 0 km/h
2496 18-03-2009 18:56:37 8.5 C 1.71 g/m*3 8.5 C 0 km/h
2497 18-03-2009 19:08:38 8.1 C 2.16 g/m*3 8.1 C 0 km/h
2498 18-03-2009 19:20:37 7.9 C 2.14 g/m*3 7.9 C 0 km/h
2499 18-03-2009 19:32:37 7.4 C 2.31 g/m*3 7.4 C 0 km/h
2500 18-03-2009 19:44:36 7.1 C 2.03 g/m*3 7.1 C 0 km/h
Sensor: Nr:Datum:Temp:Abs-Feuchte:Windchill:Wind:
Aussen-T/F 2501 18-03-2009 19:56:36 6.9 C 2.08 g/m*3 6.9 C 0 km/h
2502 18-03-2009 20:08:37 6.8 C 2.29 g/m*3 6.8 C 0 km/h
2503 18-03-2009 20:20:37 6.7 C 2.36 g/m*3 6.7 C 0 km/h
2504 18-03-2009 20:32:36 6.7 C 2.66 g/m*3 6.7 C 0 km/h
2505 18-03-2009 20:44:37 6.8 C 2.45 g/m*3 6.8 C 0 km/h
2506 18-03-2009 20:56:37 6.8 C 2.68 g/m*3 6.8 C 0 km/h
2507 18-03-2009 21:08:36 6.7 C 2.66 g/m*3 6.7 C 0 km/h
2508 18-03-2009 21:20:36 6.6 C 2.79 g/m*3 6.6 C 0 km/h
2509 18-03-2009 21:32:36 6.6 C 2.72 g/m*3 6.6 C 0 km/h
2510 18-03-2009 21:44:35 6.4 C 2.68 g/m*3 6.4 C 0 km/h
2511 18-03-2009 21:56:35 6 C 2.69 g/m*3 6 C 0 km/h
2512 18-03-2009 22:08:36 5.7 C 2.85 g/m*3 5.7 C 0 km/h
2513 18-03-2009 22:21:36 5.6 C 2.83 g/m*3 5.6 C 0 km/h
2514 18-03-2009 22:33:36 5.5 C 2.81 g/m*3 5.5 C 0 km/h
2515 18-03-2009 22:45:36 5.2 C 2.62 g/m*3 5.2 C 0 km/h
2516 18-03-2009 22:57:37 4.9 C 2.7 g/m*3 4.9 C 0 km/h
2517 18-03-2009 23:09:37 4.7 C 2.6 g/m*3 4.7 C 0 km/h
2518 18-03-2009 23:21:37 4.5 C 2.76 g/m*3 4.5 C 0 km/h
2519 18-03-2009 23:33:37 4.2 C 2.64 g/m*3 4.2 C 0 km/h
2520 18-03-2009 23:45:37 3.9 C 2.72 g/m*3 3.9 C 0 km/h
2521 18-03-2009 23:57:37 3.5 C 2.71 g/m*3 3.5 C 0 km/h
2522 19-03-2009 00:09:37 3.3 C 2.73 g/m*3 3.3 C 0 km/h
2523 19-03-2009 00:21:37 3.1 C 2.75 g/m*3 3.1 C 0 km/h
2524 19-03-2009 00:33:37 3 C 2.85 g/m*3 3 C 0 km/h
2525 19-03-2009 00:45:37 2.7 C 2.85 g/m*3 2.7 C 0 km/h
Sensor: Nr:Datum:Temp:Abs-Feuchte:Windchill:Wind:
Aussen-T/F 2526 19-03-2009 00:57:37 2.4 C 2.91 g/m*3 2.4 C 0 km/h
2527 19-03-2009 01:09:37 2.3 C 2.89 g/m*3 2.3 C 0 km/h
2528 19-03-2009 01:21:37 2.1 C 2.97 g/m*3 2.1 C 0 km/h
2529 19-03-2009 01:33:37 1.8 C 3.07 g/m*3 1.8 C 0 km/h
2530 19-03-2009 01:45:37 1.8 C 3.07 g/m*3 1.8 C 0 km/h
2531 19-03-2009 01:57:37 1.5 C 3.01 g/m*3 1.5 C 0 km/h
2532 19-03-2009 02:09:37 1.4 C 2.99 g/m*3 1.4 C 0 km/h
2533 19-03-2009 02:21:37 1.3 C 2.97 g/m*3 1.3 C 0 km/h
2534 19-03-2009 02:33:37 1.2 C 3 g/m*3 1.2 C 0 km/h
2535 19-03-2009 02:45:38 0.9 C 2.99 g/m*3 0.9 C 0 km/h
2536 19-03-2009 02:57:38 0.7 C 3 g/m*3 0.7 C 0 km/h
2537 19-03-2009 03:09:38 0.6 C 3.03 g/m*3 0.6 C 0 km/h
2538 19-03-2009 03:21:38 0.5 C 3.01 g/m*3 0.5 C 0 km/h
2539 19-03-2009 03:33:38 0.4 C 2.99 g/m*3 0.4 C 0 km/h
2540 19-03-2009 03:45:38 0.2 C 3 g/m*3 0.2 C 0 km/h
2541 19-03-2009 03:57:38 0.1 C 2.98 g/m*3 0.1 C 0 km/h
2542 19-03-2009 04:09:38 0 C 3 g/m*3 0 C 0 km/h
2543 19-03-2009 04:21:38 -0.2 C 3.01 g/m*3 -0.2 C 0 km/h
2544 19-03-2009 04:33:38 -0.3 C 3.04 g/m*3 -0.3 C 0 km/h
2545 19-03-2009 04:45:38 -0.4 C 3.06 g/m*3 -0.4 C 0 km/h
2546 19-03-2009 04:57:38 -0.5 C 3.09 g/m*3 -0.5 C 0 km/h
2547 19-03-2009 05:09:38 -0.6 C 3.07 g/m*3 -0.6 C 0 km/h
2548 19-03-2009 05:21:38 -0.7 C 3.05 g/m*3 -0.7 C 0 km/h
2549 19-03-2009 05:33:38 -0.8 C 3.07 g/m*3 -0.8 C 0 km/h
2550 19-03-2009 05:45:38 -0.9 C 3.1 g/m*3 -0.9 C 0 km/h
Sensor: Nr:Datum:Temp:Abs-Feuchte:Windchill:Wind:
Aussen-T/F 2551 19-03-2009 05:57:38 -1.1 C 3.05 g/m*3 -1.1 C 0 km/h
2552 19-03-2009 06:09:38 -1.1 C 3.05 g/m*3 -1.1 C 0 km/h
2553 19-03-2009 06:21:38 -1.2 C 2.99 g/m*3 -1.2 C 0 km/h
2554 19-03-2009 06:33:39 -1.2 C 2.99 g/m*3 -1.2 C 0 km/h
2555 19-03-2009 06:45:39 -1.3 C 3.01 g/m*3 -1.3 C 0 km/h
2556 19-03-2009 06:57:39 -1.3 C 3.01 g/m*3 -1.3 C 0 km/h
2557 19-03-2009 07:09:36 -1.5 C 2.92 g/m*3 -1.5 C 0 km/h
2558 19-03-2009 07:21:36 -1.4 C 2.99 g/m*3 -1.4 C 0 km/h
2559 19-03-2009 07:33:35 -1.3 C 3.01 g/m*3 -1.3 C 0 km/h
2560 19-03-2009 07:45:35 -1.2 C 3.03 g/m*3 -1.2 C 0 km/h
2561 19-03-2009 07:57:35 -1.1 C 3.05 g/m*3 -1.1 C 0 km/h
2562 19-03-2009 08:09:35 -0.9 C 3.1 g/m*3 -0.9 C 0 km/h
2563 19-03-2009 08:21:35 -0.8 C 3.16 g/m*3 -0.8 C 0 km/h
2564 19-03-2009 08:33:35 -0.3 C 3.27 g/m*3 -0.3 C 0 km/h
2565 19-03-2009 08:45:35 0.4 C 3.34 g/m*3 0.4 C 0 km/h
2566 19-03-2009 08:57:35 0.9 C 3.3 g/m*3 0.9 C 0 km/h
2567 19-03-2009 09:09:35 1.6 C 3.24 g/m*3 1.6 C 0 km/h
2568 19-03-2009 09:21:34 1.9 C 3.2 g/m*3 1.9 C 0 km/h
2569 19-03-2009 09:33:34 2 C 2.95 g/m*3 2 C 0 km/h
2570 19-03-2009 09:45:34 2.2 C 2.93 g/m*3 2.2 C 0 km/h
2571 19-03-2009 09:57:34 2.5 C 3.1 g/m*3 2.5 C 0 km/h
2572 19-03-2009 10:09:34 2.8 C 3.11 g/m*3 2.8 C 0 km/h
2573 19-03-2009 10:21:34 3.2 C 3.01 g/m*3 3.2 C 0 km/h
2574 19-03-2009 10:33:34 4.1 C 3.14 g/m*3 4.1 C 0 km/h
2575 19-03-2009 10:45:34 4.6 C 3.11 g/m*3 4.6 C 0 km/h
Sensor: Nr:Datum:Temp:Abs-Feuchte:Windchill:Wind:
Aussen-T/F 2576 19-03-2009 10:57:34 5.3 C 3.12 g/m*3 5.3 C 0 km/h
2577 19-03-2009 11:09:33 5.6 C 3.11 g/m*3 5.6 C 0 km/h
2578 19-03-2009 11:21:34 6.5 C 3.15 g/m*3 6.5 C 0 km/h
2579 19-03-2009 11:33:33 6.5 C 3 g/m*3 6.5 C 0 km/h
2580 19-03-2009 11:45:33 7.1 C 3.2 g/m*3 7.1 C 0 km/h
2581 19-03-2009 11:57:33 7.3 C 3 g/m*3 7.3 C 0 km/h
2582 19-03-2009 12:09:32 7.6 C 3.06 g/m*3 7.6 C 0 km/h
2583 19-03-2009 12:21:33 8.7 C 2.94 g/m*3 8.7 C 0 km/h
2584 19-03-2009 12:33:33 9.5 C 2.46 g/m*3 9.5 C 0 km/h
2585 19-03-2009 12:45:32 9.8 C 2.32 g/m*3 9.8 C 0 km/h
2586 19-03-2009 12:57:32 9.9 C 2.33 g/m*3 9.9 C 0 km/h
2587 19-03-2009 13:09:33 10.7 C 2.26 g/m*3 10.7 C 0 km/h
2588 19-03-2009 13:21:32 11.1 C 2.01 g/m*3 11.1 C 0 km/h
2589 19-03-2009 13:33:32 11.9 C 2.22 g/m*3 11.9 C 0 km/h
2590 19-03-2009 13:45:32 13.5 C 2.34 g/m*3 13.5 C 0 km/h
2591 19-03-2009 13:57:32 14 C 2.41 g/m*3 14 C 0 km/h
2592 19-03-2009 14:09:32 14.2 C 2.44 g/m*3 14.2 C 0 km/h
2593 19-03-2009 14:21:31 14.7 C 2.52 g/m*3 14.7 C 0 km/h
2594 19-03-2009 14:33:31 14.3 C 2.46 g/m*3 14.3 C 0 km/h
2595 19-03-2009 14:45:32 15.7 C 2.68 g/m*3 15.7 C 0 km/h
2596 19-03-2009 14:57:32 15.8 C 2.69 g/m*3 15.8 C 0 km/h
2597 19-03-2009 15:09:31 14.4 C 2.47 g/m*3 14.4 C 0 km/h
2598 19-03-2009 15:21:31 15.2 C 2.6 g/m*3 15.2 C 0 km/h
2599 19-03-2009 15:33:30 15.2 C 2.6 g/m*3 15.2 C 0 km/h
2600 19-03-2009 15:45:31 16.5 C 2.81 g/m*3 16.5 C 0 km/h
Sensor: Nr:Datum:Temp:Abs-Feuchte:Windchill:Wind:
Aussen-T/F 2601 19-03-2009 15:57:31 15.1 C 2.58 g/m*3 15.1 C 0 km/h
2602 19-03-2009 16:09:30 13.8 C 2.38 g/m*3 13.8 C 0 km/h
2603 19-03-2009 16:21:30 13.2 C 2.3 g/m*3 13.2 C 0 km/h
2604 19-03-2009 16:33:31 13.5 C 2.34 g/m*3 13.5 C 0 km/h
2605 19-03-2009 16:45:30 12.7 C 2.23 g/m*3 12.7 C 0 km/h
2606 19-03-2009 16:57:30 12.4 C 2.19 g/m*3 12.4 C 0 km/h
2607 19-03-2009 17:09:30 12.3 C 2.17 g/m*3 12.3 C 0 km/h
2608 19-03-2009 17:21:30 12.5 C 2.2 g/m*3 12.5 C 0 km/h
2609 19-03-2009 17:33:30 12.5 C 2.2 g/m*3 12.5 C 0 km/h
2610 19-03-2009 17:45:29 11.8 C 2.1 g/m*3 11.8 C 0 km/h
2611 19-03-2009 17:57:29 11.1 C 2.01 g/m*3 11.1 C 0 km/h
2612 19-03-2009 18:09:30 10.9 C 1.99 g/m*3 10.9 C 0 km/h
2613 19-03-2009 18:21:29 10.2 C 1.9 g/m*3 10.2 C 0 km/h
2614 19-03-2009 18:33:29 9.8 C 1.86 g/m*3 9.8 C 0 km/h
2615 19-03-2009 18:45:28 9.3 C 1.8 g/m*3 9.3 C 0 km/h
2616 19-03-2009 18:57:28 8.9 C 2.28 g/m*3 8.9 C 0 km/h
2617 19-03-2009 19:09:29 8.8 C 2.26 g/m*3 8.8 C 0 km/h
2618 19-03-2009 19:21:29 8.3 C 2.36 g/m*3 8.3 C 0 km/h
2619 19-03-2009 19:33:28 7.9 C 2.46 g/m*3 7.9 C 0 km/h
2620 19-03-2009 19:45:29 7.6 C 2.42 g/m*3 7.6 C 0 km/h
2621 19-03-2009 19:57:29 7.4 C 2.47 g/m*3 7.4 C 0 km/h
2622 19-03-2009 20:09:28 7.4 C 2.47 g/m*3 7.4 C 0 km/h
2623 19-03-2009 20:21:29 7.2 C 2.51 g/m*3 7.2 C 0 km/h
2624 19-03-2009 20:33:28 6.9 C 2.69 g/m*3 6.9 C 0 km/h
2625 19-03-2009 20:45:27 6.7 C 2.74 g/m*3 6.7 C 0 km/h
Sensor: Nr:Datum:Temp:Abs-Feuchte:Windchill:Wind:
Aussen-T/F 2626 19-03-2009 20:57:27 6.3 C 2.81 g/m*3 6.3 C 0 km/h
2627 19-03-2009 21:09:27 6 C 2.69 g/m*3 6 C 0 km/h
2628 19-03-2009 21:21:28 5.8 C 2.72 g/m*3 5.8 C 0 km/h
2629 19-03-2009 21:33:27 5.6 C 2.76 g/m*3 5.6 C 0 km/h
2630 19-03-2009 21:45:27 5.3 C 2.77 g/m*3 5.3 C 0 km/h
2631 19-03-2009 21:57:27 5.1 C 2.74 g/m*3 5.1 C 0 km/h
2632 19-03-2009 22:09:28 4.9 C 2.84 g/m*3 4.9 C 0 km/h
2633 19-03-2009 22:22:28 4.7 C 2.86 g/m*3 4.7 C 0 km/h
2634 19-03-2009 22:34:28 4.5 C 2.76 g/m*3 4.5 C 0 km/h
2635 19-03-2009 22:46:28 4.2 C 2.84 g/m*3 4.2 C 0 km/h
2636 19-03-2009 22:58:28 4.1 C 2.75 g/m*3 4.1 C 0 km/h
2637 19-03-2009 23:10:28 3.7 C 2.93 g/m*3 3.7 C 0 km/h
2638 19-03-2009 23:22:28 3.6 C 2.91 g/m*3 3.6 C 0 km/h
2639 19-03-2009 23:34:29 3.5 C 2.89 g/m*3 3.5 C 0 km/h
2640 19-03-2009 23:46:29 3.3 C 2.91 g/m*3 3.3 C 0 km/h
2641 19-03-2009 23:58:29 3.1 C 2.93 g/m*3 3.1 C 0 km/h
2642 20-03-2009 00:10:29 2.9 C 3.01 g/m*3 2.9 C 0 km/h
2643 20-03-2009 00:22:29 2.7 C 3.09 g/m*3 2.7 C 0 km/h
2644 20-03-2009 00:34:29 2.5 C 3.1 g/m*3 2.5 C 0 km/h
2645 20-03-2009 00:46:29 2.4 C 3.08 g/m*3 2.4 C 0 km/h
2646 20-03-2009 00:58:29 2.3 C 3.12 g/m*3 2.3 C 0 km/h
2647 20-03-2009 01:10:29 2 C 3.11 g/m*3 2 C 0 km/h
2648 20-03-2009 01:22:29 1.9 C 3.2 g/m*3 1.9 C 0 km/h
2649 20-03-2009 01:34:29 1.8 C 3.23 g/m*3 1.8 C 0 km/h
2650 20-03-2009 01:46:29 1.4 C 3.15 g/m*3 1.4 C 0 km/h
Sensor: Nr:Datum:Temp:Abs-Feuchte:Windchill:Wind:
Aussen-T/F 2651 20-03-2009 01:58:29 1.3 C 3.18 g/m*3 1.3 C 0 km/h
2652 20-03-2009 02:10:29 1.1 C 3.14 g/m*3 1.1 C 0 km/h
2653 20-03-2009 02:22:29 0.8 C 3.17 g/m*3 0.8 C 0 km/h
2654 20-03-2009 02:34:29 0.5 C 3.06 g/m*3 0.5 C 0 km/h
2655 20-03-2009 02:46:29 0.4 C 3.14 g/m*3 0.4 C 0 km/h
2656 20-03-2009 02:58:29 0.2 C 3.09 g/m*3 0.2 C 0 km/h
2657 20-03-2009 03:10:29 0.1 C 3.12 g/m*3 0.1 C 0 km/h
2658 20-03-2009 03:22:29 0 C 3.15 g/m*3 0 C 0 km/h
2659 20-03-2009 03:34:30 0 C 3.15 g/m*3 0 C 0 km/h
2660 20-03-2009 03:46:30 -0.2 C 3.11 g/m*3 -0.2 C 0 km/h
2661 20-03-2009 03:58:30 -0.3 C 3.13 g/m*3 -0.3 C 0 km/h
2662 20-03-2009 04:10:30 -0.5 C 3.09 g/m*3 -0.5 C 0 km/h
2663 20-03-2009 04:22:30 -0.7 C 3.09 g/m*3 -0.7 C 0 km/h
2664 20-03-2009 04:34:30 -0.7 C 3.05 g/m*3 -0.7 C 0 km/h
2665 20-03-2009 04:46:30 -0.6 C 3.07 g/m*3 -0.6 C 0 km/h
2666 20-03-2009 04:58:30 -0.4 C 2.97 g/m*3 -0.4 C 0 km/h
2667 20-03-2009 05:10:30 -0.4 C 2.83 g/m*3 -0.4 C 0 km/h
2668 20-03-2009 05:22:30 -0.3 C 2.8 g/m*3 -0.3 C 0 km/h
2669 20-03-2009 05:34:30 -0.5 C 2.81 g/m*3 -0.5 C 0 km/h
2670 20-03-2009 05:46:30 -0.4 C 2.78 g/m*3 -0.4 C 0 km/h
2671 20-03-2009 05:58:30 -0.6 C 2.7 g/m*3 -0.6 C 0 km/h
2672 20-03-2009 06:10:30 -0.4 C 2.59 g/m*3 -0.4 C 0 km/h
2673 20-03-2009 06:22:30 -0.4 C 2.64 g/m*3 -0.4 C 0 km/h
2674 20-03-2009 06:34:30 -0.8 C 2.75 g/m*3 -0.8 C 0 km/h
2675 20-03-2009 06:46:27 -0.9 C 2.82 g/m*3 -0.9 C 0 km/h
Sensor: Nr:Datum:Temp:Abs-Feuchte:Windchill:Wind:
Aussen-T/F 2676 20-03-2009 06:58:27 -0.9 C 2.82 g/m*3 -0.9 C 0 km/h
2677 20-03-2009 07:10:27 -1.1 C 2.74 g/m*3 -1.1 C 0 km/h
2678 20-03-2009 07:22:28 -1.1 C 2.78 g/m*3 -1.1 C 0 km/h
2679 20-03-2009 07:34:27 -1 C 2.76 g/m*3 -1 C 0 km/h
2680 20-03-2009 07:46:27 -0.7 C 2.77 g/m*3 -0.7 C 0 km/h
2681 20-03-2009 07:58:27 -0.4 C 2.83 g/m*3 -0.4 C 0 km/h
2682 20-03-2009 08:10:27 -0.6 C 2.79 g/m*3 -0.6 C 0 km/h
2683 20-03-2009 08:22:27 -0.6 C 2.79 g/m*3 -0.6 C 0 km/h
2684 20-03-2009 08:34:26 -0.4 C 2.92 g/m*3 -0.4 C 0 km/h
2685 20-03-2009 08:46:26 -0.1 C 2.98 g/m*3 -0.1 C 0 km/h
2686 20-03-2009 08:58:26 0.3 C 2.87 g/m*3 0.3 C 0 km/h
2687 20-03-2009 09:10:26 0.8 C 2.87 g/m*3 0.8 C 0 km/h
2688 20-03-2009 09:22:26 1.5 C 2.79 g/m*3 1.5 C 0 km/h
2689 20-03-2009 09:34:26 2.5 C 2.59 g/m*3 2.5 C 0 km/h
2690 20-03-2009 09:46:25 3.1 C 2.69 g/m*3 3.1 C 0 km/h
2691 20-03-2009 09:58:25 3.5 C 2.77 g/m*3 3.5 C 0 km/h
2692 20-03-2009 10:10:26 3.9 C 2.53 g/m*3 3.9 C 0 km/h
2693 20-03-2009 10:22:26 4.6 C 2.12 g/m*3 4.6 C 0 km/h
2694 20-03-2009 10:34:25 5.1 C 1.71 g/m*3 5.1 C 0 km/h
2695 20-03-2009 10:46:25 5.6 C 1.41 g/m*3 5.6 C 0 km/h
2696 20-03-2009 10:58:25 6 C 1.45 g/m*3 6 C 0 km/h
2697 20-03-2009 11:10:25 6.4 C 1.49 g/m*3 6.4 C 0 km/h
2698 20-03-2009 11:22:25 6.4 C 1.49 g/m*3 6.4 C 0 km/h
2699 20-03-2009 11:34:24 6.4 C 1.49 g/m*3 6.4 C 0 km/h
2700 20-03-2009 11:46:25 6.8 C 1.53 g/m*3 6.8 C 0 km/h
Sensor: Nr:Datum:Temp:Abs-Feuchte:Windchill:Wind:
Aussen-T/F 2701 20-03-2009 11:58:25 7.7 C 1.62 g/m*3 7.7 C 0 km/h
2702 20-03-2009 12:10:24 7.9 C 1.64 g/m*3 7.9 C 0 km/h
2703 20-03-2009 12:22:24 7.9 C 1.64 g/m*3 7.9 C 0 km/h
2704 20-03-2009 12:34:24 8.5 C 1.71 g/m*3 8.5 C 0 km/h
2705 20-03-2009 12:46:24 8.7 C 1.73 g/m*3 8.7 C 0 km/h
2706 20-03-2009 12:58:24 9.3 C 1.8 g/m*3 9.3 C 0 km/h
2707 20-03-2009 13:10:24 9.2 C 1.79 g/m*3 9.2 C 0 km/h
2708 20-03-2009 13:22:23 9.2 C 1.79 g/m*3 9.2 C 0 km/h
2709 20-03-2009 13:34:24 9.5 C 1.82 g/m*3 9.5 C 0 km/h
2710 20-03-2009 13:46:23 9.8 C 1.86 g/m*3 9.8 C 0 km/h
2711 20-03-2009 13:58:23 10.5 C 1.94 g/m*3 10.5 C 0 km/h
2712 20-03-2009 14:10:23 11.3 C 2.04 g/m*3 11.3 C 0 km/h
2713 20-03-2009 14:22:24 11.4 C 2.05 g/m*3 11.4 C 0 km/h
2714 20-03-2009 14:34:23 11.6 C 2.08 g/m*3 11.6 C 0 km/h
2715 20-03-2009 14:46:23 12 C 2.13 g/m*3 12 C 0 km/h
2716 20-03-2009 14:58:23 12.4 C 2.19 g/m*3 12.4 C 0 km/h
2717 20-03-2009 15:10:22 10.4 C 1.93 g/m*3 10.4 C 0 km/h
2718 20-03-2009 15:22:23 12.5 C 2.2 g/m*3 12.5 C 0 km/h
2719 20-03-2009 15:34:22 13.1 C 2.28 g/m*3 13.1 C 0 km/h
2720 20-03-2009 15:46:22 12.4 C 2.19 g/m*3 12.4 C 0 km/h
2721 20-03-2009 15:58:23 13.2 C 2.3 g/m*3 13.2 C 0 km/h
2722 20-03-2009 16:10:22 13.9 C 2.4 g/m*3 13.9 C 0 km/h
2723 20-03-2009 16:22:22 13.8 C 2.38 g/m*3 13.8 C 0 km/h
2724 20-03-2009 16:34:22 14 C 2.41 g/m*3 14 C 0 km/h
2725 20-03-2009 16:46:22 14.1 C 2.43 g/m*3 14.1 C 0 km/h
Sensor: Nr:Datum:Temp:Abs-Feuchte:Windchill:Wind:
Aussen-T/F 2726 20-03-2009 16:58:22 14 C 2.41 g/m*3 14 C 0 km/h
2727 20-03-2009 17:10:22 13.8 C 2.38 g/m*3 13.8 C 0 km/h
2728 20-03-2009 17:22:21 13.8 C 2.38 g/m*3 13.8 C 0 km/h
2729 20-03-2009 17:34:21 13.7 C 2.37 g/m*3 13.7 C 0 km/h
2730 20-03-2009 17:46:21 13 C 2.27 g/m*3 13 C 0 km/h
2731 20-03-2009 17:58:21 12.4 C 2.19 g/m*3 12.4 C 0 km/h
2732 20-03-2009 18:10:21 11.8 C 2.1 g/m*3 11.8 C 0 km/h
2733 20-03-2009 18:22:21 10.8 C 1.98 g/m*3 10.8 C 0 km/h
2734 20-03-2009 18:34:21 9.5 C 1.82 g/m*3 9.5 C 0 km/h
2735 20-03-2009 18:46:21 8 C 1.65 g/m*3 8 C 0 km/h
2736 20-03-2009 18:58:21 7 C 1.55 g/m*3 7 C 0 km/h
2737 20-03-2009 19:10:20 6.1 C 1.68 g/m*3 6.1 C 0 km/h
2738 20-03-2009 19:22:20 5.6 C 1.91 g/m*3 5.6 C 0 km/h
2739 20-03-2009 19:34:20 5.3 C 1.94 g/m*3 5.3 C 0 km/h
2740 20-03-2009 19:46:20 5 C 2.04 g/m*3 5 C 0 km/h
2741 20-03-2009 19:58:20 4.6 C 1.99 g/m*3 4.6 C 0 km/h
2742 20-03-2009 20:10:19 4.4 C 2.15 g/m*3 4.4 C 0 km/h
2743 20-03-2009 20:22:20 4.1 C 2.3 g/m*3 4.1 C 0 km/h
2744 20-03-2009 20:34:20 4.1 C 2.24 g/m*3 4.1 C 0 km/h
2745 20-03-2009 20:46:19 3.9 C 2.27 g/m*3 3.9 C 0 km/h
2746 20-03-2009 20:58:19 3.6 C 2.29 g/m*3 3.6 C 0 km/h
2747 20-03-2009 21:10:19 3.5 C 2.4 g/m*3 3.5 C 0 km/h
2748 20-03-2009 21:22:19 3.3 C 2.37 g/m*3 3.3 C 0 km/h
2749 20-03-2009 21:34:18 3.1 C 2.39 g/m*3 3.1 C 0 km/h
2750 20-03-2009 21:46:19 2.8 C 2.41 g/m*3 2.8 C 0 km/h
Sensor: Nr:Datum:Temp:Abs-Feuchte:Windchill:Wind:
Aussen-T/F 2751 20-03-2009 21:58:19 2.7 C 2.45 g/m*3 2.7 C 0 km/h
2752 20-03-2009 22:10:19 2.4 C 2.4 g/m*3 2.4 C 0 km/h
2753 20-03-2009 22:22:18 2.3 C 2.55 g/m*3 2.3 C 0 km/h
2754 20-03-2009 22:34:19 2 C 2.5 g/m*3 2 C 0 km/h
2755 20-03-2009 22:46:18 1.8 C 2.52 g/m*3 1.8 C 0 km/h
2756 20-03-2009 22:58:18 1.6 C 2.43 g/m*3 1.6 C 0 km/h
2757 20-03-2009 23:10:18 1.4 C 2.45 g/m*3 1.4 C 0 km/h
2758 20-03-2009 23:22:18 1.2 C 2.47 g/m*3 1.2 C 0 km/h
2759 20-03-2009 23:34:18 1.2 C 2.47 g/m*3 1.2 C 0 km/h
2760 20-03-2009 23:46:17 0.9 C 2.53 g/m*3 0.9 C 0 km/h
2761 20-03-2009 23:58:17 0.7 C 2.59 g/m*3 0.7 C 0 km/h
2762 21-03-2009 00:10:17 0.5 C 2.61 g/m*3 0.5 C 0 km/h
2763 21-03-2009 00:22:18 0.4 C 2.59 g/m*3 0.4 C 0 km/h
2764 21-03-2009 00:34:17 0.2 C 2.51 g/m*3 0.2 C 0 km/h
2765 21-03-2009 00:46:17 0.2 C 2.51 g/m*3 0.2 C 0 km/h
2766 21-03-2009 00:58:17 0.1 C 2.59 g/m*3 0.1 C 0 km/h
2767 21-03-2009 01:10:17 -0.1 C 2.55 g/m*3 -0.1 C 0 km/h
2768 21-03-2009 01:22:17 -0.2 C 2.48 g/m*3 -0.2 C 0 km/h
2769 21-03-2009 01:34:17 -0.4 C 2.5 g/m*3 -0.4 C 0 km/h
2770 21-03-2009 01:46:16 -0.4 C 2.54 g/m*3 -0.4 C 0 km/h
2771 21-03-2009 01:58:16 -0.5 C 2.48 g/m*3 -0.5 C 0 km/h
2772 21-03-2009 02:10:17 -0.6 C 2.51 g/m*3 -0.6 C 0 km/h
2773 21-03-2009 02:22:16 -0.6 C 2.56 g/m*3 -0.6 C 0 km/h
2774 21-03-2009 02:34:16 -0.7 C 2.54 g/m*3 -0.7 C 0 km/h
2775 21-03-2009 02:47:01 -0.9 C 2.55 g/m*3 -0.9 C 0 km/h
Sensor: Nr:Datum:Temp:Abs-Feuchte:Windchill:Wind:
Aussen-T/F 2776 21-03-2009 02:59:01 -0.9 C 2.55 g/m*3 -0.9 C 0 km/h
2777 21-03-2009 03:11:02 -1 C 2.53 g/m*3 -1 C 0 km/h
2778 21-03-2009 03:23:02 -1.3 C 2.48 g/m*3 -1.3 C 0 km/h
2779 21-03-2009 03:35:01 -1.4 C 2.51 g/m*3 -1.4 C 0 km/h
2780 21-03-2009 03:47:01 -1.4 C 2.51 g/m*3 -1.4 C 0 km/h
2781 21-03-2009 03:59:01 -1.5 C 2.49 g/m*3 -1.5 C 0 km/h
2782 21-03-2009 04:11:02 -1.5 C 2.49 g/m*3 -1.5 C 0 km/h
2783 21-03-2009 04:23:01 -1.4 C 2.59 g/m*3 -1.4 C 0 km/h
2784 21-03-2009 04:35:01 -1.4 C 2.55 g/m*3 -1.4 C 0 km/h
2785 21-03-2009 04:47:01 -1.3 C 2.57 g/m*3 -1.3 C 0 km/h
2786 21-03-2009 04:59:01 -1.1 C 2.65 g/m*3 -1.1 C 0 km/h
2787 21-03-2009 05:11:02 -1.1 C 2.65 g/m*3 -1.1 C 0 km/h
2788 21-03-2009 05:23:01 -1.3 C 2.57 g/m*3 -1.3 C 0 km/h
2789 21-03-2009 05:35:02 -1.4 C 2.64 g/m*3 -1.4 C 0 km/h
2790 21-03-2009 05:47:02 -1.6 C 2.6 g/m*3 -1.6 C 0 km/h
2791 21-03-2009 05:59:02 -1.7 C 2.58 g/m*3 -1.7 C 0 km/h
2792 21-03-2009 06:11:01 -1.9 C 2.55 g/m*3 -1.9 C 0 km/h
2793 21-03-2009 06:23:01 -2.1 C 2.51 g/m*3 -2.1 C 0 km/h
2794 21-03-2009 06:35:02 -2.1 C 2.6 g/m*3 -2.1 C 0 km/h
2795 21-03-2009 06:47:01 -2.1 C 2.64 g/m*3 -2.1 C 0 km/h
2796 21-03-2009 06:59:01 -2.1 C 2.6 g/m*3 -2.1 C 0 km/h
2797 21-03-2009 07:11:02 -2.1 C 2.64 g/m*3 -2.1 C 0 km/h
2798 21-03-2009 07:23:01 -2.1 C 2.64 g/m*3 -2.1 C 0 km/h
2799 21-03-2009 07:35:02 -2 C 2.66 g/m*3 -2 C 0 km/h
2800 21-03-2009 07:47:01 -2 C 2.7 g/m*3 -2 C 0 km/h
Sensor: Nr:Datum:Temp:Abs-Feuchte:Windchill:Wind:
Aussen-T/F 2801 21-03-2009 07:59:01 -1.9 C 2.76 g/m*3 -1.9 C 0 km/h
2802 21-03-2009 08:11:01 -1.8 C 2.74 g/m*3 -1.8 C 0 km/h
2803 21-03-2009 08:23:01 -1.7 C 2.76 g/m*3 -1.7 C 0 km/h
2804 21-03-2009 08:35:01 -1.6 C 2.69 g/m*3 -1.6 C 0 km/h
2805 21-03-2009 08:47:02 -1.4 C 2.68 g/m*3 -1.4 C 0 km/h
2806 21-03-2009 08:59:02 -1 C 2.71 g/m*3 -1 C 0 km/h
2807 21-03-2009 09:11:01 -0.3 C 2.8 g/m*3 -0.3 C 0 km/h
2808 21-03-2009 09:23:02 0.2 C 2.75 g/m*3 0.2 C 0 km/h
2809 21-03-2009 09:35:01 0.9 C 2.63 g/m*3 0.9 C 0 km/h
2810 21-03-2009 09:47:02 1.7 C 2.56 g/m*3 1.7 C 0 km/h
2811 21-03-2009 09:59:02 1.9 C 2.59 g/m*3 1.9 C 0 km/h
2812 21-03-2009 10:11:01 2.8 C 2.64 g/m*3 2.8 C 0 km/h
2813 21-03-2009 10:23:01 3.2 C 2.59 g/m*3 3.2 C 0 km/h
2814 21-03-2009 10:35:02 3.9 C 2.65 g/m*3 3.9 C 0 km/h
2815 21-03-2009 10:47:01 4.5 C 2.56 g/m*3 4.5 C 0 km/h
2816 21-03-2009 10:59:01 4.8 C 2.48 g/m*3 4.8 C 0 km/h
2817 21-03-2009 11:11:02 5.2 C 2.48 g/m*3 5.2 C 0 km/h
2818 21-03-2009 11:23:01 5.7 C 2.35 g/m*3 5.7 C 0 km/h
2819 21-03-2009 11:35:02 6.2 C 2.21 g/m*3 6.2 C 0 km/h
2820 21-03-2009 11:47:01 6.7 C 2.2 g/m*3 6.7 C 0 km/h
2821 21-03-2009 11:59:01 7.3 C 1.58 g/m*3 7.3 C 0 km/h
2822 21-03-2009 12:11:02 7.8 C 2.04 g/m*3 7.8 C 0 km/h
2823 21-03-2009 12:23:01 8.1 C 1.91 g/m*3 8.1 C 0 km/h
2824 21-03-2009 12:35:01 8.9 C 1.75 g/m*3 8.9 C 0 km/h
2825 21-03-2009 12:47:01 9.3 C 1.8 g/m*3 9.3 C 0 km/h
Sensor: Nr:Datum:Temp:Abs-Feuchte:Windchill:Wind:
Aussen-T/F 2826 21-03-2009 12:59:01 9.7 C 1.84 g/m*3 9.7 C 0 km/h
2827 21-03-2009 13:11:01 10.1 C 1.89 g/m*3 10.1 C 0 km/h
2828 21-03-2009 13:23:02 10.5 C 1.94 g/m*3 10.5 C 0 km/h
2829 21-03-2009 13:35:01 11.4 C 2.05 g/m*3 11.4 C 0 km/h
2830 21-03-2009 13:47:02 12 C 2.13 g/m*3 12 C 0 km/h
2831 21-03-2009 13:59:02 12.4 C 2.19 g/m*3 12.4 C 0 km/h
2832 21-03-2009 14:11:01 12.7 C 2.23 g/m*3 12.7 C 0 km/h
2833 21-03-2009 14:23:01 12.2 C 2.16 g/m*3 12.2 C 0 km/h
2834 21-03-2009 14:35:01 13.4 C 2.32 g/m*3 13.4 C 0 km/h
2835 21-03-2009 14:47:01 13.7 C 2.37 g/m*3 13.7 C 0 km/h
2836 21-03-2009 14:59:01 14.4 C 2.47 g/m*3 14.4 C 0 km/h
2837 21-03-2009 15:11:02 14.9 C 2.55 g/m*3 14.9 C 0 km/h
2838 21-03-2009 15:23:01 15.2 C 2.6 g/m*3 15.2 C 0 km/h
2839 21-03-2009 15:35:02 15.1 C 2.58 g/m*3 15.1 C 0 km/h
2840 21-03-2009 15:47:01 15.8 C 2.69 g/m*3 15.8 C 0 km/h
2841 21-03-2009 15:59:01 14.4 C 2.47 g/m*3 14.4 C 0 km/h
2842 21-03-2009 16:11:02 14.4 C 2.47 g/m*3 14.4 C 0 km/h
2843 21-03-2009 16:23:01 15.5 C 2.64 g/m*3 15.5 C 0 km/h
2844 21-03-2009 16:35:01 16.4 C 2.79 g/m*3 16.4 C 0 km/h
2845 21-03-2009 16:47:01 16.7 C 2.84 g/m*3 16.7 C 0 km/h
2846 21-03-2009 16:59:01 15.9 C 2.71 g/m*3 15.9 C 0 km/h
2847 21-03-2009 17:11:01 15.6 C 2.66 g/m*3 15.6 C 0 km/h
2848 21-03-2009 17:23:02 15.2 C 2.6 g/m*3 15.2 C 0 km/h
2849 21-03-2009 17:35:01 15 C 2.56 g/m*3 15 C 0 km/h
2850 21-03-2009 17:47:02 14.6 C 2.5 g/m*3 14.6 C 0 km/h
Sensor: Nr:Datum:Temp:Abs-Feuchte:Windchill:Wind:
Aussen-T/F 2851 21-03-2009 17:59:02 14 C 2.41 g/m*3 14 C 0 km/h
2852 21-03-2009 18:11:01 12.3 C 2.17 g/m*3 12.3 C 0 km/h
2853 21-03-2009 18:23:01 11.7 C 2.09 g/m*3 11.7 C 0 km/h
2854 21-03-2009 18:35:01 11.1 C 2.01 g/m*3 11.1 C 0 km/h
2855 21-03-2009 18:47:01 10.2 C 1.9 g/m*3 10.2 C 0 km/h
2856 21-03-2009 18:59:01 9.7 C 1.84 g/m*3 9.7 C 0 km/h
2857 21-03-2009 19:11:01 9.3 C 2.25 g/m*3 9.3 C 0 km/h
2858 21-03-2009 19:23:02 9 C 2.38 g/m*3 9 C 0 km/h
2859 21-03-2009 19:35:01 8.7 C 2.59 g/m*3 8.7 C 0 km/h
2860 21-03-2009 19:47:02 8.4 C 2.63 g/m*3 8.4 C 0 km/h
2861 21-03-2009 19:59:02 8 C 2.65 g/m*3 8 C 0 km/h
2862 21-03-2009 20:11:01 7.9 C 2.71 g/m*3 7.9 C 0 km/h
2863 21-03-2009 20:23:02 7.8 C 2.77 g/m*3 7.8 C 0 km/h
2864 21-03-2009 20:35:01 7.6 C 2.82 g/m*3 7.6 C 0 km/h
2865 21-03-2009 20:47:02 7.4 C 2.86 g/m*3 7.4 C 0 km/h
2866 21-03-2009 20:59:02 7.1 C 2.96 g/m*3 7.1 C 0 km/h
2867 21-03-2009 21:11:01 6.9 C 2.93 g/m*3 6.9 C 0 km/h
2868 21-03-2009 21:23:02 6.6 C 3.02 g/m*3 6.6 C 0 km/h
2869 21-03-2009 21:35:01 6.4 C 3.05 g/m*3 6.4 C 0 km/h
2870 21-03-2009 21:47:02 6 C 3.12 g/m*3 6 C 0 km/h
2871 21-03-2009 21:59:02 5.6 C 3.18 g/m*3 5.6 C 0 km/h
2872 21-03-2009 22:11:44 5.2 C 3.17 g/m*3 5.2 C 0 km/h
2873 21-03-2009 22:23:44 4.9 C 3.24 g/m*3 4.9 C 0 km/h
2874 21-03-2009 22:35:01 4.7 C 3.2 g/m*3 4.7 C 0 km/h
2875 21-03-2009 22:47:07 4.5 C 3.16 g/m*3 4.5 C 0 km/h
Sensor: Nr:Datum:Temp:Abs-Feuchte:Windchill:Wind:
Aussen-T/F 2876 21-03-2009 22:59:07 4.3 C 3.11 g/m*3 4.3 C 0 km/h
2877 21-03-2009 23:11:07 4.3 C 2.98 g/m*3 4.3 C 0 km/h
2878 21-03-2009 23:23:07 4.1 C 3.01 g/m*3 4.1 C 0 km/h
2879 21-03-2009 23:35:07 3.9 C 3.03 g/m*3 3.9 C 0 km/h
2880 21-03-2009 23:47:07 3.6 C 3.03 g/m*3 3.6 C 0 km/h
2881 21-03-2009 23:59:07 3.4 C 3.05 g/m*3 3.4 C 0 km/h
2882 22-03-2009 00:11:07 3.2 C 3.07 g/m*3 3.2 C 0 km/h
2883 22-03-2009 00:23:07 3 C 3.03 g/m*3 3 C 0 km/h
2884 22-03-2009 00:35:07 2.8 C 3.11 g/m*3 2.8 C 0 km/h
2885 22-03-2009 00:47:07 2.6 C 3.07 g/m*3 2.6 C 0 km/h
2886 22-03-2009 00:59:07 2.5 C 3.05 g/m*3 2.5 C 0 km/h
2887 22-03-2009 01:11:07 2.4 C 3.08 g/m*3 2.4 C 0 km/h
2888 22-03-2009 01:23:07 2.2 C 3.04 g/m*3 2.2 C 0 km/h
2889 22-03-2009 01:35:07 2 C 3.06 g/m*3 2 C 0 km/h
2890 22-03-2009 01:47:07 2 C 3.06 g/m*3 2 C 0 km/h
2891 22-03-2009 01:59:07 1.9 C 3.09 g/m*3 1.9 C 0 km/h
2892 22-03-2009 02:11:07 1.8 C 3.12 g/m*3 1.8 C 0 km/h
2893 22-03-2009 02:23:08 1.5 C 3.12 g/m*3 1.5 C 0 km/h
2894 22-03-2009 02:35:08 1.4 C 3.15 g/m*3 1.4 C 0 km/h
2895 22-03-2009 02:47:08 1.2 C 3.1 g/m*3 1.2 C 0 km/h
2896 22-03-2009 02:59:08 1.1 C 3.14 g/m*3 1.1 C 0 km/h
2897 22-03-2009 03:11:08 1.4 C 3.09 g/m*3 1.4 C 0 km/h
2898 22-03-2009 03:23:08 1.4 C 3.04 g/m*3 1.4 C 0 km/h
2899 22-03-2009 03:35:08 1.1 C 3.03 g/m*3 1.1 C 0 km/h
2900 22-03-2009 03:47:08 0.9 C 3.09 g/m*3 0.9 C 0 km/h
Sensor: Nr:Datum:Temp:Abs-Feuchte:Windchill:Wind:
Aussen-T/F 2901 22-03-2009 03:59:08 0.7 C 3.1 g/m*3 0.7 C 0 km/h
2902 22-03-2009 04:11:08 0.5 C 3.16 g/m*3 0.5 C 0 km/h
2903 22-03-2009 04:23:08 0.6 C 3.13 g/m*3 0.6 C 0 km/h
2904 22-03-2009 04:35:08 0.6 C 3.08 g/m*3 0.6 C 0 km/h
2905 22-03-2009 04:47:08 0.6 C 3.13 g/m*3 0.6 C 0 km/h
2906 22-03-2009 04:59:08 0.3 C 3.07 g/m*3 0.3 C 0 km/h
2907 22-03-2009 05:11:08 0.1 C 3.12 g/m*3 0.1 C 0 km/h
2908 22-03-2009 05:23:08 0.1 C 3.12 g/m*3 0.1 C 0 km/h
2909 22-03-2009 05:35:08 0.3 C 3.12 g/m*3 0.3 C 0 km/h
2910 22-03-2009 05:47:08 -0.1 C 3.08 g/m*3 -0.1 C 0 km/h
2911 22-03-2009 05:59:08 -0.3 C 3.13 g/m*3 -0.3 C 0 km/h
2912 22-03-2009 06:11:08 -0.4 C 3.16 g/m*3 -0.4 C 0 km/h
2913 22-03-2009 06:23:08 -0.4 C 3.2 g/m*3 -0.4 C 0 km/h
2914 22-03-2009 06:35:09 -0.4 C 3.2 g/m*3 -0.4 C 0 km/h
2915 22-03-2009 06:47:09 -0.4 C 3.2 g/m*3 -0.4 C 0 km/h
2916 22-03-2009 06:59:09 -0.3 C 3.27 g/m*3 -0.3 C 0 km/h
2917 22-03-2009 07:11:07 -0.3 C 3.23 g/m*3 -0.3 C 0 km/h
2918 22-03-2009 07:23:07 0 C 3.29 g/m*3 0 C 0 km/h
2919 22-03-2009 07:35:07 0.3 C 3.31 g/m*3 0.3 C 0 km/h
2920 22-03-2009 07:47:06 0.7 C 3.41 g/m*3 0.7 C 0 km/h
2921 22-03-2009 07:59:06 1 C 3.43 g/m*3 1 C 0 km/h
2922 22-03-2009 08:11:07 1.1 C 3.5 g/m*3 1.1 C 0 km/h
2923 22-03-2009 08:23:06 1.1 C 3.5 g/m*3 1.1 C 0 km/h
2924 22-03-2009 08:35:06 1.4 C 3.57 g/m*3 1.4 C 0 km/h
2925 22-03-2009 08:47:06 1.6 C 3.57 g/m*3 1.6 C 0 km/h
Sensor: Nr:Datum:Temp:Abs-Feuchte:Windchill:Wind:
Aussen-T/F 2926 22-03-2009 08:59:06 1.7 C 3.7 g/m*3 1.7 C 0 km/h
2927 22-03-2009 09:11:06 1.8 C 3.78 g/m*3 1.8 C 0 km/h
2928 22-03-2009 09:23:06 1.9 C 3.97 g/m*3 1.9 C 0 km/h
2929 22-03-2009 09:35:05 2.1 C 4.03 g/m*3 2.1 C 0 km/h
2930 22-03-2009 09:47:06 2.3 C 4.03 g/m*3 2.3 C 0 km/h
2931 22-03-2009 09:59:06 2.1 C 3.86 g/m*3 2.1 C 0 km/h
2932 22-03-2009 10:11:05 2.5 C 4.02 g/m*3 2.5 C 0 km/h
2933 22-03-2009 10:23:05 2.5 C 3.97 g/m*3 2.5 C 0 km/h
2934 22-03-2009 10:35:05 2.7 C 4.02 g/m*3 2.7 C 0 km/h
2935 22-03-2009 10:47:05 2.8 C 3.99 g/m*3 2.8 C 0 km/h
2936 22-03-2009 10:59:05 3.1 C 4.01 g/m*3 3.1 C 0 km/h
2937 22-03-2009 11:11:04 3.3 C 4 g/m*3 3.3 C 0 km/h
2938 22-03-2009 11:23:05 3.7 C 4.05 g/m*3 3.7 C 0 km/h
2939 22-03-2009 11:35:04 4.1 C 4.16 g/m*3 4.1 C 0 km/h
2940 22-03-2009 11:47:04 4.4 C 4.31 g/m*3 4.4 C 0 km/h
2941 22-03-2009 11:59:04 5 C 4.69 g/m*3 5 C 0 km/h
2942 22-03-2009 12:11:04 5.8 C 5.37 g/m*3 5.8 C 0 km/h
2943 22-03-2009 12:23:04 6.2 C 5.44 g/m*3 6.2 C 0 km/h
2944 22-03-2009 12:35:04 6.7 C 5.47 g/m*3 6.7 C 0 km/h
2945 22-03-2009 12:47:04 7 C 5.27 g/m*3 7 C 0 km/h
2946 22-03-2009 12:59:04 7.7 C 5.35 g/m*3 7.7 C 0 km/h
2947 22-03-2009 13:11:04 8.3 C 5.14 g/m*3 8.3 C 0 km/h
2948 22-03-2009 13:23:03 8.9 C 4.56 g/m*3 8.9 C 0 km/h
2949 22-03-2009 13:35:03 9.5 C 4.28 g/m*3 9.5 C 0 km/h
2950 22-03-2009 13:47:03 9.5 C 4.19 g/m*3 9.5 C 0 km/h
Sensor: Nr:Datum:Temp:Abs-Feuchte:Windchill:Wind:
Aussen-T/F 2951 22-03-2009 13:59:03 9 C 4.14 g/m*3 9 C 0 km/h
2952 22-03-2009 14:11:03 9.5 C 4.1 g/m*3 9.5 C 0 km/h
2953 22-03-2009 14:23:03 9.3 C 4.04 g/m*3 9.3 C 0 km/h
2954 22-03-2009 14:35:02 9.6 C 4.03 g/m*3 9.6 C 0 km/h
2955 22-03-2009 14:47:03 9.9 C 3.92 g/m*3 9.9 C 0 km/h
2956 22-03-2009 14:59:03 10 C 3.76 g/m*3 10 C 0 km/h
2957 22-03-2009 15:11:02 10.3 C 3.83 g/m*3 10.3 C 0 km/h
2958 22-03-2009 15:23:02 10.4 C 3.76 g/m*3 10.4 C 0 km/h
2959 22-03-2009 15:35:02 10.2 C 3.81 g/m*3 10.2 C 0 km/h
2960 22-03-2009 15:47:02 10.4 C 3.76 g/m*3 10.4 C 0 km/h
2961 22-03-2009 15:59:02 10 C 3.57 g/m*3 10 C 0 km/h
2962 22-03-2009 16:11:02 10.2 C 3.71 g/m*3 10.2 C 0 km/h
2963 22-03-2009 16:23:01 10.2 C 3.71 g/m*3 10.2 C 0 km/h
2964 22-03-2009 16:35:02 10.5 C 3.69 g/m*3 10.5 C 0 km/h
2965 22-03-2009 16:47:01 10.7 C 3.54 g/m*3 10.7 C 0 km/h
2966 22-03-2009 16:59:01 10.4 C 3.47 g/m*3 10.4 C 0 km/h
2967 22-03-2009 17:11:01 10.7 C 3.54 g/m*3 10.7 C 0 km/h
2968 22-03-2009 17:23:01 10.5 C 3.59 g/m*3 10.5 C 0 km/h
2969 22-03-2009 17:35:01 10.3 C 3.54 g/m*3 10.3 C 0 km/h
2970 22-03-2009 17:47:01 10 C 3.57 g/m*3 10 C 0 km/h
2971 22-03-2009 17:59:01 9.9 C 3.64 g/m*3 9.9 C 0 km/h
2972 22-03-2009 18:11:00 9.7 C 3.69 g/m*3 9.7 C 0 km/h
2973 22-03-2009 18:23:01 9.7 C 3.69 g/m*3 9.7 C 0 km/h
2974 22-03-2009 18:35:00 9.5 C 3.64 g/m*3 9.5 C 0 km/h
2975 22-03-2009 18:47:00 9.3 C 3.68 g/m*3 9.3 C 0 km/h
Sensor: Nr:Datum:Temp:Abs-Feuchte:Windchill:Wind:
Aussen-T/F 2976 22-03-2009 18:59:00 9.3 C 3.68 g/m*3 9.3 C 0 km/h
2977 22-03-2009 19:11:00 9.1 C 3.64 g/m*3 9.1 C 0 km/h
2978 22-03-2009 19:23:00 8.9 C 3.77 g/m*3 8.9 C 0 km/h
2979 22-03-2009 19:35:00 8.9 C 3.77 g/m*3 8.9 C 0 km/h
2980 22-03-2009 19:58:59 8.6 C 3.78 g/m*3 8.6 C 0 km/h
2981 22-03-2009 19:59:00 8.4 C 3.82 g/m*3 8.4 C 0 km/h
2982 22-03-2009 20:11:00 8.4 C 3.82 g/m*3 8.4 C 0 km/h
2983 22-03-2009 20:23:59 8.4 C 3.82 g/m*3 8.4 C 0 km/h
2984 22-03-2009 20:35:59 8.4 C 3.82 g/m*3 8.4 C 0 km/h
2985 22-03-2009 20:47:59 8.4 C 3.82 g/m*3 8.4 C 0 km/h
2986 22-03-2009 20:59:58 8.5 C 3.84 g/m*3 8.5 C 0 km/h
2987 22-03-2009 21:11:58 8.4 C 3.82 g/m*3 8.4 C 0 km/h
2988 22-03-2009 21:23:59 8.3 C 3.88 g/m*3 8.3 C 0 km/h
2989 22-03-2009 21:35:59 8.2 C 3.85 g/m*3 8.2 C 0 km/h
2990 22-03-2009 21:47:59 8.1 C 3.83 g/m*3 8.1 C 0 km/h
2991 22-03-2009 22:00:59 8 C 3.89 g/m*3 8 C 0 km/h
2992 22-03-2009 22:12:59 7.7 C 4.3 g/m*3 7.7 C 0 km/h
2993 22-03-2009 22:24:59 7.7 C 4.38 g/m*3 7.7 C 0 km/h
2994 22-03-2009 22:36:59 7.5 C 4.64 g/m*3 7.5 C 0 km/h
2995 22-03-2009 22:48:59 7.3 C 4.66 g/m*3 7.3 C 0 km/h
2996 22-03-2009 23:00:59 7.5 C 4.64 g/m*3 7.5 C 0 km/h
2997 22-03-2009 23:12:59 7.5 C 4.56 g/m*3 7.5 C 0 km/h
2998 22-03-2009 23:24:59 7.6 C 4.59 g/m*3 7.6 C 0 km/h
2999 22-03-2009 23:37:00 7.5 C 4.72 g/m*3 7.5 C 0 km/h
3000 22-03-2009 23:49:00 7.6 C 4.67 g/m*3 7.6 C 0 km/h
Sensor: Nr:Datum:Temp:Abs-Feuchte:Windchill:Wind:
Aussen-T/F 3001 23-03-2009 00:01:00 7.5 C 4.64 g/m*3 7.5 C 0 km/h
3002 23-03-2009 00:13:00 7.5 C 4.64 g/m*3 7.5 C 0 km/h
3003 23-03-2009 00:24:00 7.5 C 4.64 g/m*3 7.5 C 0 km/h
3004 23-03-2009 00:36:00 7.5 C 4.72 g/m*3 7.5 C 0 km/h
3005 23-03-2009 00:48:00 7.5 C 4.72 g/m*3 7.5 C 0 km/h
3006 23-03-2009 01:00:00 7.5 C 4.72 g/m*3 7.5 C 0 km/h
3007 23-03-2009 01:12:00 7.5 C 4.64 g/m*3 7.5 C 0 km/h
3008 23-03-2009 01:24:00 7.5 C 4.64 g/m*3 7.5 C 0 km/h
3009 23-03-2009 01:36:00 7.6 C 4.67 g/m*3 7.6 C 0 km/h
3010 23-03-2009 01:48:00 7.6 C 4.67 g/m*3 7.6 C 0 km/h
3011 23-03-2009 02:00:00 7.6 C 4.67 g/m*3 7.6 C 0 km/h
3012 23-03-2009 02:12:00 7.5 C 4.64 g/m*3 7.5 C 0 km/h
3013 23-03-2009 02:24:00 7.5 C 4.72 g/m*3 7.5 C 0 km/h
3014 23-03-2009 02:36:00 7.6 C 4.75 g/m*3 7.6 C 0 km/h
3015 23-03-2009 02:48:00 7.6 C 4.75 g/m*3 7.6 C 0 km/h
3016 23-03-2009 03:00:00 7.7 C 4.78 g/m*3 7.7 C 0 km/h
3017 23-03-2009 03:12:00 7.6 C 4.75 g/m*3 7.6 C 0 km/h
3018 23-03-2009 03:24:00 7.5 C 4.72 g/m*3 7.5 C 0 km/h
3019 23-03-2009 03:36:01 7.5 C 4.72 g/m*3 7.5 C 0 km/h
3020 23-03-2009 03:48:01 7.6 C 4.75 g/m*3 7.6 C 0 km/h
3021 23-03-2009 04:00:01 7.7 C 4.87 g/m*3 7.7 C 0 km/h
3022 23-03-2009 04:12:01 7.9 C 4.93 g/m*3 7.9 C 0 km/h
3023 23-03-2009 04:24:01 7.8 C 4.9 g/m*3 7.8 C 0 km/h
3024 23-03-2009 04:36:01 7.8 C 4.9 g/m*3 7.8 C 0 km/h
3025 23-03-2009 04:48:01 7.8 C 4.9 g/m*3 7.8 C 0 km/h
Sensor: Nr:Datum:Temp:Abs-Feuchte:Windchill:Wind:
Aussen-T/F 3026 23-03-2009 05:00:01 7.8 C 4.9 g/m*3 7.8 C 0 km/h
3027 23-03-2009 05:12:01 7.8 C 4.9 g/m*3 7.8 C 0 km/h
3028 23-03-2009 05:24:01 7.8 C 4.9 g/m*3 7.8 C 0 km/h
3029 23-03-2009 05:36:01 7.8 C 4.9 g/m*3 7.8 C 0 km/h
3030 23-03-2009 05:48:01 7.9 C 4.85 g/m*3 7.9 C 0 km/h
3031 23-03-2009 06:00:01 7.7 C 4.87 g/m*3 7.7 C 0 km/h
3032 23-03-2009 06:12:01 7.6 C 4.83 g/m*3 7.6 C 0 km/h
3033 23-03-2009 06:24:01 7.6 C 4.83 g/m*3 7.6 C 0 km/h
3034 23-03-2009 06:36:01 7.5 C 4.8 g/m*3 7.5 C 0 km/h
3035 23-03-2009 06:48:01 7.5 C 4.88 g/m*3 7.5 C 0 km/h
3036 23-03-2009 07:00:59 7.6 C 4.83 g/m*3 7.6 C 0 km/h
3037 23-03-2009 07:12:59 7.6 C 4.83 g/m*3 7.6 C 0 km/h
3038 23-03-2009 07:24:59 7.6 C 4.91 g/m*3 7.6 C 0 km/h
3039 23-03-2009 07:36:59 7.6 C 4.83 g/m*3 7.6 C 0 km/h
3040 23-03-2009 07:48:58 7.7 C 4.87 g/m*3 7.7 C 0 km/h
3041 23-03-2009 08:00:59 7.9 C 4.93 g/m*3 7.9 C 0 km/h
3042 23-03-2009 08:12:59 8 C 4.8 g/m*3 8 C 0 km/h
3043 23-03-2009 08:24:58 8.1 C 4.83 g/m*3 8.1 C 0 km/h
3044 23-03-2009 08:36:58 8.1 C 4.83 g/m*3 8.1 C 0 km/h
3045 23-03-2009 08:48:57 8.2 C 4.86 g/m*3 8.2 C 0 km/h
3046 23-03-2009 09:00:58 8.2 C 4.86 g/m*3 8.2 C 0 km/h
3047 23-03-2009 09:12:58 8.2 C 4.86 g/m*3 8.2 C 0 km/h
3048 23-03-2009 09:24:58 8.3 C 4.89 g/m*3 8.3 C 0 km/h
3049 23-03-2009 09:36:57 8.4 C 4.75 g/m*3 8.4 C 0 km/h
3050 23-03-2009 09:48:58 8.7 C 4.76 g/m*3 8.7 C 0 km/h
Sensor: Nr:Datum:Temp:Abs-Feuchte:Windchill:Wind:
Aussen-T/F 3051 23-03-2009 10:00:57 8.9 C 4.56 g/m*3 8.9 C 0 km/h
3052 23-03-2009 10:12:57 9 C 4.41 g/m*3 9 C 0 km/h
3053 23-03-2009 10:24:57 9.1 C 4.44 g/m*3 9.1 C 0 km/h
3054 23-03-2009 10:36:56 9.2 C 4.38 g/m*3 9.2 C 0 km/h
3055 23-03-2009 10:48:57 9.3 C 4.31 g/m*3 9.3 C 0 km/h
3056 23-03-2009 11:00:57 9.4 C 4.25 g/m*3 9.4 C 0 km/h
3057 23-03-2009 11:12:57 9.7 C 4.24 g/m*3 9.7 C 0 km/h
3058 23-03-2009 11:24:56 9.8 C 4.18 g/m*3 9.8 C 0 km/h
3059 23-03-2009 11:36:57 9.9 C 4.11 g/m*3 9.9 C 0 km/h
3060 23-03-2009 11:48:56 9.9 C 4.01 g/m*3 9.9 C 0 km/h
3061 23-03-2009 12:00:56 10.2 C 4 g/m*3 10.2 C 0 km/h
3062 23-03-2009 12:12:56 10.7 C 3.93 g/m*3 10.7 C 0 km/h
3063 23-03-2009 12:24:56 10.8 C 3.95 g/m*3 10.8 C 0 km/h
3064 23-03-2009 12:36:56 11.6 C 3.85 g/m*3 11.6 C 0 km/h
3065 23-03-2009 12:48:55 12 C 3.73 g/m*3 12 C 0 km/h
3066 23-03-2009 13:00:55 11.8 C 3.79 g/m*3 11.8 C 0 km/h
3067 23-03-2009 13:12:55 11.6 C 3.85 g/m*3 11.6 C 0 km/h
3068 23-03-2009 13:24:56 11.9 C 3.92 g/m*3 11.9 C 0 km/h
3069 23-03-2009 13:36:55 11.9 C 3.92 g/m*3 11.9 C 0 km/h
3070 23-03-2009 13:48:55 11.6 C 3.95 g/m*3 11.6 C 0 km/h
3071 23-03-2009 14:00:55 11.6 C 4.05 g/m*3 11.6 C 0 km/h
3072 23-03-2009 14:12:55 11.6 C 4.16 g/m*3 11.6 C 0 km/h
3073 23-03-2009 14:24:55 11.4 C 4.11 g/m*3 11.4 C 0 km/h
3074 23-03-2009 14:36:54 11.3 C 4.08 g/m*3 11.3 C 0 km/h
3075 23-03-2009 14:48:54 11.3 C 4.08 g/m*3 11.3 C 0 km/h
Sensor: Nr:Datum:Temp:Abs-Feuchte:Windchill:Wind:
Aussen-T/F 3076 23-03-2009 15:00:55 10.4 C 4.53 g/m*3 10.4 C 0 km/h
3077 23-03-2009 15:12:55 9.8 C 4.82 g/m*3 9.8 C 0 km/h
3078 23-03-2009 15:24:54 9.5 C 5.1 g/m*3 9.5 C 0 km/h
3079 23-03-2009 15:36:54 9.6 C 5.13 g/m*3 9.6 C 0 km/h
3080 23-03-2009 15:48:54 9.9 C 5.14 g/m*3 9.9 C 0 km/h
3081 23-03-2009 16:00:54 9.6 C 5.31 g/m*3 9.6 C 0 km/h
3082 23-03-2009 16:12:54 9.7 C 5.25 g/m*3 9.7 C 0 km/h
3083 23-03-2009 16:24:53 9.5 C 5.37 g/m*3 9.5 C 0 km/h
3084 23-03-2009 16:36:53 9.5 C 5.28 g/m*3 9.5 C 0 km/h
3085 23-03-2009 16:48:53 9.4 C 5.34 g/m*3 9.4 C 0 km/h
3086 23-03-2009 17:00:53 9.2 C 5.36 g/m*3 9.2 C 0 km/h
3087 23-03-2009 17:12:53 9.1 C 5.41 g/m*3 9.1 C 0 km/h
3088 23-03-2009 17:24:53 9.1 C 5.32 g/m*3 9.1 C 0 km/h
3089 23-03-2009 17:36:53 8.6 C 5.59 g/m*3 8.6 C 0 km/h
3090 23-03-2009 17:48:53 8.5 C 5.72 g/m*3 8.5 C 0 km/h
3091 23-03-2009 18:00:52 8.3 C 5.9 g/m*3 8.3 C 0 km/h
3092 23-03-2009 18:12:52 7.9 C 6.08 g/m*3 7.9 C 0 km/h
3093 23-03-2009 18:24:53 7.6 C 6.12 g/m*3 7.6 C 0 km/h
3094 23-03-2009 18:36:52 7.6 C 6.2 g/m*3 7.6 C 0 km/h
3095 23-03-2009 18:48:52 7.7 C 6.16 g/m*3 7.7 C 0 km/h
3096 23-03-2009 19:00:52 7.8 C 6.2 g/m*3 7.8 C 0 km/h
3097 23-03-2009 19:12:52 7.7 C 6.08 g/m*3 7.7 C 0 km/h
3098 23-03-2009 19:24:52 7.6 C 6.12 g/m*3 7.6 C 0 km/h
3099 23-03-2009 19:36:52 7.4 C 6.12 g/m*3 7.4 C 0 km/h
3100 23-03-2009 19:48:51 4.4 C 4.83 g/m*3 4.4 C 0 km/h
Sensor: Nr:Datum:Temp:Abs-Feuchte:Windchill:Wind:
Aussen-T/F 3101 23-03-2009 20:00:52 3.9 C 5.18 g/m*3 3.9 C 0 km/h
3102 23-03-2009 20:12:52 3.8 C 5.27 g/m*3 3.8 C 0 km/h
3103 23-03-2009 20:24:51 3.6 C 5.26 g/m*3 3.6 C 0 km/h
3104 23-03-2009 20:36:51 3.3 C 5.22 g/m*3 3.3 C 0 km/h
3105 23-03-2009 20:48:51 3.5 C 5.35 g/m*3 3.5 C 0 km/h
3106 23-03-2009 21:00:50 3.5 C 5.35 g/m*3 3.5 C 0 km/h
3107 23-03-2009 21:12:50 3.5 C 5.23 g/m*3 3.5 C 0 km/h
3108 23-03-2009 21:24:51 3.8 C 5.27 g/m*3 3.8 C 0 km/h
3109 23-03-2009 21:36:51 3.8 C 5.14 g/m*3 3.8 C 0 km/h
3110 23-03-2009 21:48:50 3.6 C 4.95 g/m*3 3.6 C 0 km/h
3111 23-03-2009 22:00:51 3.7 C 4.92 g/m*3 3.7 C 0 km/h
3112 23-03-2009 22:12:51 3.8 C 4.77 g/m*3 3.8 C 0 km/h
3113 23-03-2009 22:24:50 3.7 C 4.67 g/m*3 3.7 C 0 km/h
3114 23-03-2009 22:36:50 3.5 C 4.61 g/m*3 3.5 C 0 km/h
3115 23-03-2009 22:49:50 3.7 C 4.55 g/m*3 3.7 C 0 km/h
3116 23-03-2009 23:01:50 3.6 C 4.39 g/m*3 3.6 C 0 km/h
3117 23-03-2009 23:13:50 3.5 C 4.43 g/m*3 3.5 C 0 km/h
3118 23-03-2009 23:25:50 3.3 C 4.49 g/m*3 3.3 C 0 km/h
3119 23-03-2009 23:37:50 3.3 C 4.49 g/m*3 3.3 C 0 km/h
3120 23-03-2009 23:49:50 3.1 C 4.31 g/m*3 3.1 C 0 km/h
3121 24-03-2009 00:01:50 3.1 C 4.31 g/m*3 3.1 C 0 km/h
3122 24-03-2009 00:13:50 2.9 C 4.25 g/m*3 2.9 C 0 km/h
3123 24-03-2009 00:25:50 2.9 C 4.25 g/m*3 2.9 C 0 km/h
3124 24-03-2009 00:37:51 3 C 4.04 g/m*3 3 C 0 km/h
3125 24-03-2009 00:49:51 3.1 C 4.07 g/m*3 3.1 C 0 km/h
Sensor: Nr:Datum:Temp:Abs-Feuchte:Windchill:Wind:
Aussen-T/F 3126 24-03-2009 01:01:51 3.1 C 4.01 g/m*3 3.1 C 0 km/h
3127 24-03-2009 01:13:51 2.8 C 4.05 g/m*3 2.8 C 0 km/h
3128 24-03-2009 01:25:51 2.5 C 4.08 g/m*3 2.5 C 0 km/h
3129 24-03-2009 01:37:51 2.4 C 4.11 g/m*3 2.4 C 0 km/h
3130 24-03-2009 01:49:51 2.6 C 4.17 g/m*3 2.6 C 0 km/h
3131 24-03-2009 02:01:51 2.7 C 4.14 g/m*3 2.7 C 0 km/h
3132 24-03-2009 02:13:51 3 C 4.1 g/m*3 3 C 0 km/h
3133 24-03-2009 02:25:51 3.3 C 4.06 g/m*3 3.3 C 0 km/h
3134 24-03-2009 02:37:51 3.3 C 4.06 g/m*3 3.3 C 0 km/h
3135 24-03-2009 02:49:51 3.5 C 4 g/m*3 3.5 C 0 km/h
3136 24-03-2009 03:01:51 3.6 C 4.02 g/m*3 3.6 C 0 km/h
3137 24-03-2009 03:13:51 3.8 C 3.95 g/m*3 3.8 C 0 km/h
3138 24-03-2009 03:25:51 3.2 C 4.16 g/m*3 3.2 C 0 km/h
3139 24-03-2009 03:37:51 2.8 C 4.46 g/m*3 2.8 C 0 km/h
3140 24-03-2009 03:49:51 2.7 C 4.49 g/m*3 2.7 C 0 km/h
3141 24-03-2009 04:01:51 2.6 C 4.51 g/m*3 2.6 C 0 km/h
3142 24-03-2009 04:13:51 2.7 C 4.54 g/m*3 2.7 C 0 km/h
3143 24-03-2009 04:25:51 3 C 4.46 g/m*3 3 C 0 km/h
3144 24-03-2009 04:37:52 3.1 C 4.31 g/m*3 3.1 C 0 km/h
3145 24-03-2009 04:49:52 3.3 C 4.25 g/m*3 3.3 C 0 km/h
3146 24-03-2009 05:01:52 2.8 C 4.34 g/m*3 2.8 C 0 km/h
3147 24-03-2009 05:13:52 2.9 C 4.49 g/m*3 2.9 C 0 km/h
3148 24-03-2009 05:25:52 3 C 4.22 g/m*3 3 C 0 km/h
3149 24-03-2009 05:37:52 3.2 C 4.22 g/m*3 3.2 C 0 km/h
3150 24-03-2009 05:49:52 3.1 C 4.19 g/m*3 3.1 C 0 km/h
Sensor: Nr:Datum:Temp:Abs-Feuchte:Windchill:Wind:
Aussen-T/F 3151 24-03-2009 06:01:52 3.1 C 4.13 g/m*3 3.1 C 0 km/h
3152 24-03-2009 06:13:52 3.2 C 4.04 g/m*3 3.2 C 0 km/h
3153 24-03-2009 06:25:52 3.1 C 4.07 g/m*3 3.1 C 0 km/h
3154 24-03-2009 06:37:52 3.1 C 4.13 g/m*3 3.1 C 0 km/h
3155 24-03-2009 06:49:52 3.1 C 4.25 g/m*3 3.1 C 0 km/h
3156 24-03-2009 07:01:50 3.1 C 4.25 g/m*3 3.1 C 0 km/h
3157 24-03-2009 07:13:50 3.2 C 4.28 g/m*3 3.2 C 0 km/h
3158 24-03-2009 07:25:50 3.3 C 4.25 g/m*3 3.3 C 0 km/h
3159 24-03-2009 07:37:50 3.3 C 4.19 g/m*3 3.3 C 0 km/h
3160 24-03-2009 07:49:50 3.5 C 4.24 g/m*3 3.5 C 0 km/h
3161 24-03-2009 08:01:51 3.7 C 4.24 g/m*3 3.7 C 0 km/h
3162 24-03-2009 08:13:50 3.7 C 4.24 g/m*3 3.7 C 0 km/h
3163 24-03-2009 08:25:50 3.7 C 4.11 g/m*3 3.7 C 0 km/h
3164 24-03-2009 08:37:49 4.2 C 4.06 g/m*3 4.2 C 0 km/h
3165 24-03-2009 08:49:49 4.3 C 3.89 g/m*3 4.3 C 0 km/h
3166 24-03-2009 09:01:49 4.1 C 3.84 g/m*3 4.1 C 0 km/h
3167 24-03-2009 09:13:49 4.2 C 3.74 g/m*3 4.2 C 0 km/h
3168 24-03-2009 09:25:49 4.4 C 3.79 g/m*3 4.4 C 0 km/h
3169 24-03-2009 09:37:49 4.6 C 3.64 g/m*3 4.6 C 0 km/h
3170 24-03-2009 09:49:48 4.8 C 3.55 g/m*3 4.8 C 0 km/h
3171 24-03-2009 10:01:49 5 C 3.6 g/m*3 5 C 0 km/h
3172 24-03-2009 10:13:48 5.6 C 3.68 g/m*3 5.6 C 0 km/h
3173 24-03-2009 10:25:48 5.9 C 3.53 g/m*3 5.9 C 0 km/h
3174 24-03-2009 10:37:48 5 C 3.74 g/m*3 5 C 0 km/h
3175 24-03-2009 10:49:48 3.2 C 4.34 g/m*3 3.2 C 0 km/h
Sensor: Nr:Datum:Temp:Abs-Feuchte:Windchill:Wind:
Aussen-T/F 3176 24-03-2009 11:01:48 3.3 C 4.79 g/m*3 3.3 C 0 km/h
3177 24-03-2009 11:13:47 4.3 C 5.25 g/m*3 4.3 C 0 km/h
3178 24-03-2009 11:25:47 4.6 C 5.16 g/m*3 4.6 C 0 km/h
3179 24-03-2009 11:37:47 5.1 C 4.99 g/m*3 5.1 C 0 km/h
3180 24-03-2009 11:49:47 5.5 C 4.57 g/m*3 5.5 C 0 km/h
3181 24-03-2009 12:01:48 4.4 C 4.51 g/m*3 4.4 C 0 km/h
3182 24-03-2009 12:13:47 5.1 C 4.92 g/m*3 5.1 C 0 km/h
3183 24-03-2009 12:25:47 5.9 C 4.9 g/m*3 5.9 C 0 km/h
3184 24-03-2009 12:37:47 6.4 C 4.32 g/m*3 6.4 C 0 km/h
3185 24-03-2009 12:49:47 6.8 C 4.44 g/m*3 6.8 C 0 km/h
3186 24-03-2009 13:01:49 7.1 C 4.13 g/m*3 7.1 C 0 km/h
3187 24-03-2009 13:13:46 7.1 C 3.98 g/m*3 7.1 C 0 km/h
3188 24-03-2009 13:25:46 6.9 C 3.62 g/m*3 6.9 C 0 km/h
3189 24-03-2009 13:37:46 6.9 C 3.54 g/m*3 6.9 C 0 km/h
3190 24-03-2009 13:49:46 6.6 C 3.62 g/m*3 6.6 C 0 km/h
3191 24-03-2009 14:01:46 5.6 C 4.1 g/m*3 5.6 C 0 km/h
3192 24-03-2009 14:13:46 5.4 C 4.47 g/m*3 5.4 C 0 km/h
3193 24-03-2009 14:25:46 6.8 C 4.36 g/m*3 6.8 C 0 km/h
3194 24-03-2009 14:37:46 7.9 C 4.19 g/m*3 7.9 C 0 km/h
3195 24-03-2009 14:49:45 7 C 3.87 g/m*3 7 C 0 km/h
3196 24-03-2009 15:01:46 6.1 C 4.31 g/m*3 6.1 C 0 km/h
3197 24-03-2009 15:13:45 4.6 C 4.5 g/m*3 4.6 C 0 km/h
3198 24-03-2009 15:25:45 4.6 C 4.96 g/m*3 4.6 C 0 km/h
3199 24-03-2009 15:37:45 5.8 C 5.3 g/m*3 5.8 C 0 km/h
3200 24-03-2009 15:49:45 6.4 C 5.22 g/m*3 6.4 C 0 km/h
Sensor: Nr:Datum:Temp:Abs-Feuchte:Windchill:Wind:
Aussen-T/F 3201 24-03-2009 16:01:45 5.5 C 4.71 g/m*3 5.5 C 0 km/h
3202 24-03-2009 16:13:45 5 C 4.89 g/m*3 5 C 0 km/h
3203 24-03-2009 16:25:45 5.3 C 4.99 g/m*3 5.3 C 0 km/h
3204 24-03-2009 16:37:44 6.5 C 5.02 g/m*3 6.5 C 0 km/h
3205 24-03-2009 16:49:44 5 C 4.55 g/m*3 5 C 0 km/h
3206 24-03-2009 17:01:44 4.7 C 4.66 g/m*3 4.7 C 0 km/h
3207 24-03-2009 17:13:44 5.1 C 4.38 g/m*3 5.1 C 0 km/h
3208 24-03-2009 17:25:44 5.9 C 4.4 g/m*3 5.9 C 0 km/h
3209 24-03-2009 17:37:44 6.1 C 4.09 g/m*3 6.1 C 0 km/h
3210 24-03-2009 17:49:43 5.2 C 3.99 g/m*3 5.2 C 0 km/h
3211 24-03-2009 18:01:44 3.6 C 4.15 g/m*3 3.6 C 0 km/h
3212 24-03-2009 18:13:44 3.6 C 4.27 g/m*3 3.6 C 0 km/h
3213 24-03-2009 18:25:44 3.5 C 4.37 g/m*3 3.5 C 0 km/h
3214 24-03-2009 18:37:43 3.4 C 4.46 g/m*3 3.4 C 0 km/h
3215 24-03-2009 18:49:44 3.1 C 4.37 g/m*3 3.1 C 0 km/h
3216 24-03-2009 19:01:43 2.9 C 4.49 g/m*3 2.9 C 0 km/h
3217 24-03-2009 19:13:43 2.7 C 4.43 g/m*3 2.7 C 0 km/h
3218 24-03-2009 19:25:44 2.5 C 4.43 g/m*3 2.5 C 0 km/h
3219 24-03-2009 19:37:42 2.5 C 4.48 g/m*3 2.5 C 0 km/h
3220 24-03-2009 19:49:43 2.3 C 4.37 g/m*3 2.3 C 0 km/h
3221 24-03-2009 20:01:43 2.2 C 4.34 g/m*3 2.2 C 0 km/h
3222 24-03-2009 20:13:42 2.2 C 4.22 g/m*3 2.2 C 0 km/h
3223 24-03-2009 20:25:42 2.1 C 4.14 g/m*3 2.1 C 0 km/h
3224 24-03-2009 20:37:43 2 C 4.06 g/m*3 2 C 0 km/h
3225 24-03-2009 20:49:42 1.8 C 4 g/m*3 1.8 C 0 km/h
Sensor: Nr:Datum:Temp:Abs-Feuchte:Windchill:Wind:
Aussen-T/F 3226 24-03-2009 21:01:42 1.4 C 3.95 g/m*3 1.4 C 0 km/h
3227 24-03-2009 21:13:41 1.3 C 4.03 g/m*3 1.3 C 0 km/h
3228 24-03-2009 21:25:41 1.2 C 4.05 g/m*3 1.2 C 0 km/h
3229 24-03-2009 21:37:42 1.1 C 4.08 g/m*3 1.1 C 0 km/h
3230 24-03-2009 21:50:43 1 C 4.05 g/m*3 1 C 0 km/h
3231 24-03-2009 22:02:43 0.9 C 4.07 g/m*3 0.9 C 0 km/h
3232 24-03-2009 22:14:43 0.7 C 3.97 g/m*3 0.7 C 0 km/h
3233 24-03-2009 22:26:43 1 C 3.84 g/m*3 1 C 0 km/h
3234 24-03-2009 22:38:43 1 C 3.74 g/m*3 1 C 0 km/h
3235 24-03-2009 22:50:43 0.7 C 3.66 g/m*3 0.7 C 0 km/h
3236 24-03-2009 23:02:43 0.4 C 3.64 g/m*3 0.4 C 0 km/h
3237 24-03-2009 23:14:43 0.4 C 3.69 g/m*3 0.4 C 0 km/h
3238 24-03-2009 23:26:43 0.2 C 3.68 g/m*3 0.2 C 0 km/h
3239 24-03-2009 23:38:43 0.2 C 3.68 g/m*3 0.2 C 0 km/h
3240 24-03-2009 23:50:43 0 C 3.63 g/m*3 0 C 0 km/h
3241 25-03-2009 00:02:43 0 C 3.68 g/m*3 0 C 0 km/h
3242 25-03-2009 00:14:43 0.1 C 3.71 g/m*3 0.1 C 0 km/h
3243 25-03-200